Provisional Data: Mill Creek near Lancaster, PA


Please select a monitoring station.
Please select start date.
Please select start date.

Toggle Unit: C/F Toggle Unit: C/F
Sample Time Temperature (C) Temperature (F) Specific Conductivity (mS/cm) pH   Turbidity (NTU+) DO (mg/L)
3/7/2021 12:00:00 AM 4.82 40.676 0.729 7.87 5.34 12.31
3/7/2021 12:15:00 AM 4.8 40.64 0.731 7.87 5.79 12.28
3/7/2021 12:30:00 AM 4.77 40.586 0.733 7.86 7.26 12.25
3/7/2021 12:45:00 AM 4.76 40.568 0.733 7.86 4.02 12.29
3/7/2021 1:00:00 AM 4.75 40.55 0.733 7.86 2.99 12.26
3/7/2021 1:15:00 AM 4.75 40.55 0.733 7.86 4.49 12.27
3/7/2021 1:30:00 AM 4.75 40.55 0.734 7.86 6.69 12.25
3/7/2021 1:45:00 AM 4.74 40.532 0.734 7.86 7.54 12.25
3/7/2021 2:00:00 AM 4.74 40.532 0.734 7.86 4.67 12.28
3/7/2021 2:15:00 AM 4.74 40.532 0.734 7.86 5.57 12.19
3/7/2021 2:30:00 AM 4.73 40.514 0.735 7.86 4.71 12.27
3/7/2021 2:45:00 AM 4.72 40.496 0.734 7.85 4.67 12.25
3/7/2021 3:00:00 AM 4.71 40.478 0.735 7.85 8.99 12.25
3/7/2021 3:15:00 AM 4.71 40.478 0.734 7.85 4.77 12.27
3/7/2021 3:30:00 AM 4.7 40.46 0.734 7.86 8.15 12.27
3/7/2021 3:45:00 AM 4.68 40.424 0.734 7.85 8.97 12.24
3/7/2021 4:00:00 AM 4.65 40.37 0.733 7.85 5.76 12.27
3/7/2021 4:15:00 AM 4.63 40.334 0.733 7.85 5.32 12.26
3/7/2021 4:30:00 AM 4.6 40.28 0.733 7.85 5.02 12.26
3/7/2021 4:45:00 AM 4.56 40.208 0.735 7.84 7.29 12.27
3/7/2021 5:00:00 AM 4.53 40.154 0.734 7.84 5.77 12.3
3/7/2021 5:15:00 AM 4.5 40.1 0.734 7.84 5.52 12.27
3/7/2021 5:30:00 AM 4.46 40.028 0.733 7.84 5.38 12.28
3/7/2021 5:45:00 AM 4.43 39.974 0.735 7.84 4.86 12.28
3/7/2021 6:00:00 AM 4.4 39.92 0.737 7.83 5.58 12.29
3/7/2021 6:15:00 AM 4.36 39.848 0.734 7.84 6.36 12.31
3/7/2021 6:30:00 AM 4.34 39.812 0.735 7.84 4.37 12.32
3/7/2021 6:45:00 AM 4.3 39.74 0.734 7.83 7.01 12.35
3/7/2021 7:00:00 AM 4.28 39.704 0.734 7.84 3.59 12.39
3/7/2021 7:15:00 AM 4.25 39.65 0.734 7.83 4.98 12.42
3/7/2021 7:30:00 AM 4.23 39.614 0.735 7.84 5.24 12.47
3/7/2021 7:45:00 AM 4.21 39.578 0.734 7.84 5.26 12.56
3/7/2021 8:00:00 AM 4.19 39.542 0.732 7.84 5.23 12.62
3/7/2021 8:15:00 AM 4.18 39.524 0.731 7.85 6.52 12.72
3/7/2021 8:30:00 AM 4.18 39.524 0.732 7.85 4.32 12.84
3/7/2021 8:45:00 AM 4.18 39.524 0.732 7.86 5.44 12.97
3/7/2021 9:00:00 AM 4.2 39.56 0.732 7.86 6.02 13.15
3/7/2021 9:15:00 AM 4.26 39.668 0.73 7.88 8.73 13.26
3/7/2021 9:30:00 AM 4.33 39.794 0.73 7.89 7 13.58
3/7/2021 9:45:00 AM 4.45 40.01 0.727 7.91 6.53 13.79
3/7/2021 10:00:00 AM 4.57 40.226 0.726 7.92 8.01 14.02
3/7/2021 10:15:00 AM 4.69 40.442 0.725 7.94 5.32 14.19
3/7/2021 10:30:00 AM 4.85 40.73 0.724 7.95 6.34 14.35
3/7/2021 10:45:00 AM 4.99 40.982 0.724 7.96 5.2 14.53
3/7/2021 11:00:00 AM 5.15 41.27 0.723 7.98 4.6 14.72
3/7/2021 11:15:00 AM 5.31 41.558 0.721 8 5.52 14.84
3/7/2021 11:30:00 AM 5.46 41.828 0.721 8.01 4.96 15
3/7/2021 11:45:00 AM 5.61 42.098 0.72 8.02 4.64 15.09
3/7/2021 12:00:00 PM 5.78 42.404 0.72 8.03 4.81 15.24
3/7/2021 12:15:00 PM 5.92 42.656 0.721 8.05 7.28 15.36
3/7/2021 12:30:00 PM 6.06 42.908 0.719 8.06 5.48 15.46
3/7/2021 12:45:00 PM 6.19 43.142 0.721 8.08 5.6 15.54
3/7/2021 1:00:00 PM 6.34 43.412 0.719 8.09 5.49 15.58
3/7/2021 1:15:00 PM 6.48 43.664 0.718 8.1 6.24 15.69
3/7/2021 1:30:00 PM 6.62 43.916 0.717 8.11 7.54 15.69
3/7/2021 1:45:00 PM 6.74 44.132 0.717 8.13 6.07 15.72
3/7/2021 2:00:00 PM 6.86 44.348 0.717 8.14 4.4 15.74
3/7/2021 2:15:00 PM 6.95 44.51 0.718 8.15 4.96 15.75
3/7/2021 2:30:00 PM 7.05 44.69 0.717 8.16 5.57 15.71
3/7/2021 2:45:00 PM 7.13 44.834 0.715 8.17 5.07 15.7
3/7/2021 3:00:00 PM 7.2 44.96 0.716 8.17 4.91 15.64
3/7/2021 3:15:00 PM 7.25 45.05 0.716 8.18 6.01 15.57
3/7/2021 3:30:00 PM 7.27 45.086 0.716 8.19 6.71 15.47
3/7/2021 3:45:00 PM 7.29 45.122 0.716 8.18 4.43 15.36
3/7/2021 4:00:00 PM 7.3 45.14 0.715 8.19 5.92 15.27
3/7/2021 4:15:00 PM 7.29 45.122 0.715 8.19 6.13 15.07
3/7/2021 4:30:00 PM 7.29 45.122 0.715 8.18 5.6 14.97
3/7/2021 4:45:00 PM 7.28 45.104 0.714 8.18 8.21 14.84
3/7/2021 5:00:00 PM 7.26 45.068 0.716 8.17 8.4 14.69
3/7/2021 5:15:00 PM 7.24 45.032 0.712 8.17 4.63 14.55
3/7/2021 5:30:00 PM 7.22 44.996 0.712 8.16 8.14 14.42
3/7/2021 5:45:00 PM 7.17 44.906 0.713 8.16 4.87 14.27
3/7/2021 6:00:00 PM 7.11 44.798 0.714 8.15 5.77 14.1
3/7/2021 6:15:00 PM 7.04 44.672 0.713 8.14 10.89 13.92
3/7/2021 6:30:00 PM 6.96 44.528 0.713 8.13 4.73 13.78
3/7/2021 6:45:00 PM 6.88 44.384 0.713 8.11 6.76 13.58
3/7/2021 7:00:00 PM 6.8 44.24 0.712 8.1 4.86 13.45
3/7/2021 7:15:00 PM 6.72 44.096 0.713 8.08 4.37 13.33
3/7/2021 7:30:00 PM 6.63 43.934 0.711 8.07 5.99 13.14
3/7/2021 7:45:00 PM 6.55 43.79 0.711 8.06 3.91 13.04
3/7/2021 8:00:00 PM 6.47 43.646 0.711 8.04 5.68 12.93
3/7/2021 8:15:00 PM 6.4 43.52 0.711 8.03 5.77 12.81
3/7/2021 8:30:00 PM 6.32 43.376 0.712 8.02 5.02 12.68
3/7/2021 8:45:00 PM 6.25 43.25 0.713 8 4.14 12.59
3/7/2021 9:00:00 PM 6.18 43.124 0.713 8 6.15 12.56
3/7/2021 9:15:00 PM 6.12 43.016 0.714 7.98 9.55 12.47
3/7/2021 9:30:00 PM 6.05 42.89 0.713 7.97 5.39 12.37
3/7/2021 9:45:00 PM 5.98 42.764 0.715 7.96 7.21 12.31
3/7/2021 10:00:00 PM 5.92 42.656 0.713 7.95 5.88 12.22
3/7/2021 10:15:00 PM 5.86 42.548 0.717 7.94 5.18 12.15
3/7/2021 10:30:00 PM 5.81 42.458 0.717 7.93 6.32 12.14
3/7/2021 10:45:00 PM 5.75 42.35 0.718 7.92 4.83 12.1
3/7/2021 11:00:00 PM 5.7 42.26 0.718 7.91 5.86 12.05
3/7/2021 11:15:00 PM 5.65 42.17 0.722 7.9 6.16 12.01
3/7/2021 11:30:00 PM 5.6 42.08 0.716 7.89 4.89 12.02
3/7/2021 11:45:00 PM 5.56 42.008 0.719 7.89 5.86 11.96
3/8/2021 12:00:00 AM 5.51 41.918 0.72 7.88 6.72 12.01
3/8/2021 12:15:00 AM 5.47 41.846 0.721 7.87 5.17 11.97
3/8/2021 12:30:00 AM 5.43 41.774 0.721 7.87 5.76 11.95
3/8/2021 12:45:00 AM 5.39 41.702 0.721 7.87 5.69 11.96
3/8/2021 1:00:00 AM 5.35 41.63 0.721 7.87 5.8 11.96
3/8/2021 1:15:00 AM 5.32 41.576 0.722 7.87 6.62 11.98
3/8/2021 1:30:00 AM 5.29 41.522 0.722 7.87 7.89 12
3/8/2021 1:45:00 AM 5.25 41.45 0.723 7.87 7.42 12.01
3/8/2021 2:00:00 AM 5.22 41.396 0.723 7.87 5.49 11.99
3/8/2021 2:15:00 AM 5.19 41.342 0.723 7.87 5.43 12
3/8/2021 2:30:00 AM 5.17 41.306 0.723 7.87 11.49 12
3/8/2021 2:45:00 AM 5.14 41.252 0.724 7.87 5.3 12.01
3/8/2021 3:00:00 AM 5.11 41.198 0.724 7.87 5.72 11.98
3/8/2021 3:15:00 AM 5.09 41.162 0.724 7.87 7.43 12.01
3/8/2021 3:30:00 AM 5.06 41.108 0.723 7.87 10.92 12
3/8/2021 3:45:00 AM 5.04 41.072 0.725 7.87 5.11 12.05
3/8/2021 4:00:00 AM 5.01 41.018 0.725 7.87 6.53 12
3/8/2021 4:15:00 AM 4.98 40.964 0.726 7.87 4.53 12.03
3/8/2021 4:30:00 AM 4.96 40.928 0.727 7.86 4.87 12.03
3/8/2021 4:45:00 AM 4.93 40.874 0.726 7.86 4.01 12.01
3/8/2021 5:00:00 AM 4.9 40.82 0.726 7.87 5.87 12.05
3/8/2021 5:15:00 AM 4.87 40.766 0.726 7.86 5.02 12.04
3/8/2021 5:30:00 AM 4.85 40.73 0.727 7.86 8.71 12.03
3/8/2021 5:45:00 AM 4.81 40.658 0.732 7.86 6.54 12.03
3/8/2021 6:00:00 AM 4.79 40.622 0.727 7.85 6.23 12.05
3/8/2021 6:15:00 AM 4.76 40.568 0.728 7.85 5.17 11.99
3/8/2021 6:30:00 AM 4.73 40.514 0.73 7.85 5.65 12.08
3/8/2021 6:45:00 AM 4.7 40.46 0.731 7.85 3.71 12.06
3/8/2021 7:00:00 AM 4.67 40.406 0.731 7.85 5.17 12.13
3/8/2021 7:15:00 AM 4.65 40.37 0.729 7.85 4.12 12.22
3/8/2021 7:30:00 AM 4.63 40.334 0.731 7.85 5.32 12.27
3/8/2021 7:45:00 AM 4.61 40.298 0.729 7.85 3.99 12.38
3/8/2021 8:00:00 AM 4.6 40.28 0.728 7.85 4.62 12.42
3/8/2021 8:15:00 AM 4.6 40.28 0.727 7.86 4.37 12.54
3/8/2021 8:30:00 AM 4.62 40.316 0.729 7.87 3.43 12.67
3/8/2021 8:45:00 AM 4.64 40.352 0.727 7.87 3.46 12.83
3/8/2021 9:00:00 AM 4.68 40.424 0.726 7.89 4.93 13.01
3/8/2021 9:15:00 AM 4.75 40.55 0.727 7.9 5.25 13.24
3/8/2021 9:30:00 AM 4.82 40.676 0.725 7.91 5.23 13.46
3/8/2021 9:45:00 AM 4.94 40.892 0.724 7.93 4.47 13.65
3/8/2021 10:00:00 AM 5.06 41.108 0.725 7.94 3.73 13.92
3/8/2021 10:15:00 AM 5.19 41.342 0.722 7.96 5.76 14.11
3/8/2021 10:30:00 AM 5.34 41.612 0.721 7.97 6.03 14.31
3/8/2021 10:45:00 AM 5.5 41.9 0.719 7.98 3.86 14.56
3/8/2021 11:00:00 AM 5.67 42.206 0.719 8 4.25 14.7
3/8/2021 11:15:00 AM 5.82 42.476 0.718 8.01 4.66 14.88
3/8/2021 11:30:00 AM 5.98 42.764 0.717 8.02 3.63 15.02
3/8/2021 11:45:00 AM 6.14 43.052 0.715 8.04 7.23 15.23
3/8/2021 12:00:00 PM 6.3 43.34 0.714 8.05 5.3 15.32
3/8/2021 12:15:00 PM 6.45 43.61 0.714 8.07 3.57 15.44
3/8/2021 12:30:00 PM 6.61 43.898 0.712 8.08 5.15 15.58
3/8/2021 12:45:00 PM 6.75 44.15 0.711 8.1 4.49 15.65
3/8/2021 1:00:00 PM 6.9 44.42 0.708 8.11 4.56 15.76
3/8/2021 1:15:00 PM 7.05 44.69 0.707 8.12 4.54 15.81
3/8/2021 1:30:00 PM 7.19 44.942 0.705 8.14 4.35 15.78
3/8/2021 1:45:00 PM 7.34 45.212 0.702 8.15 4.07 15.93
3/8/2021 2:00:00 PM 7.47 45.446 0.701 8.17 4.36 15.97
3/8/2021 2:15:00 PM 7.58 45.644 0.699 8.18 14.92 15.93
3/8/2021 2:30:00 PM 7.67 45.806 0.697 8.19 6.99 15.94
3/8/2021 2:45:00 PM 7.76 45.968 0.695 8.2 3.97 15.88
3/8/2021 3:00:00 PM 7.83 46.094 0.694 8.22 5.66 15.82
3/8/2021 3:15:00 PM 7.91 46.238 0.692 8.22 3.96 15.79
3/8/2021 3:30:00 PM 7.96 46.328 0.692 8.23 4.04 15.7
3/8/2021 3:45:00 PM 8 46.4 0.688 8.24 4.8 15.64
3/8/2021 4:00:00 PM 8.02 46.436 0.688 8.24 4.4 15.5
3/8/2021 4:15:00 PM 8.05 46.49 0.686 8.24 4.09 15.41
3/8/2021 4:30:00 PM 8.06 46.508 0.683 8.24 3.96 15.23
3/8/2021 4:45:00 PM 8.07 46.526 0.683 8.24 4.21 15.1
3/8/2021 5:00:00 PM 8.08 46.544 0.681 8.23 3.83 14.91
3/8/2021 5:15:00 PM 8.07 46.526 0.68 8.23 5.21 14.74
3/8/2021 5:30:00 PM 8.05 46.49 0.682 8.22 4.53 14.58
3/8/2021 5:45:00 PM 8.02 46.436 0.68 8.22 5.37 14.41
3/8/2021 6:00:00 PM 7.97 46.346 0.68 8.2 6.15 14.22
3/8/2021 6:15:00 PM 7.91 46.238 0.678 8.19 4.1 14.02
3/8/2021 6:30:00 PM 7.84 46.112 0.678 8.18 4.05 13.85
3/8/2021 6:45:00 PM 7.77 45.986 0.677 8.17 5.75 13.61
3/8/2021 7:00:00 PM 7.69 45.842 0.678 8.15 5.58 13.41
3/8/2021 7:15:00 PM 7.62 45.716 0.677 8.13 5.05 13.29
3/8/2021 7:30:00 PM 7.54 45.572 0.678 8.12 4.87 13.13
3/8/2021 7:45:00 PM 7.47 45.446 0.679 8.1 5.31 12.96
3/8/2021 8:00:00 PM 7.39 45.302 0.679 8.08 4.63 12.81
3/8/2021 8:15:00 PM 7.32 45.176 0.68 8.07 4.46 12.7
3/8/2021 8:30:00 PM 7.24 45.032 0.68 8.05 4.03 12.56
3/8/2021 8:45:00 PM 7.17 44.906 0.681 8.04 4.41 12.44
3/8/2021 9:00:00 PM 7.1 44.78 0.681 8.03 4.52 12.36
3/8/2021 9:15:00 PM 7.04 44.672 0.681 8.01 6 12.21
3/8/2021 9:30:00 PM 6.97 44.546 0.682 7.99 3.95 12.13
3/8/2021 9:45:00 PM 6.91 44.438 0.678 7.98 3.55 12.06
3/8/2021 10:00:00 PM 6.85 44.33 0.683 7.97 8.58 11.96
3/8/2021 10:15:00 PM 6.79 44.222 0.685 7.95 4.73 11.92
3/8/2021 10:30:00 PM 6.74 44.132 0.686 7.94 5.49 11.82
3/8/2021 10:45:00 PM 6.69 44.042 0.688 7.92 4.96 11.76
3/8/2021 11:00:00 PM 6.64 43.952 0.688 7.92 4.12 11.74
3/8/2021 11:15:00 PM 6.59 43.862 0.685 7.91 4.34 11.68
3/8/2021 11:30:00 PM 6.55 43.79 0.693 7.89 4.44 11.63
3/8/2021 11:45:00 PM 6.5 43.7 0.693 7.88 4.74 11.61
3/9/2021 12:00:00 AM 6.47 43.646 0.695 7.88 5.07 11.62
3/9/2021 12:15:00 AM 6.43 43.574 0.697 7.87 5.02 11.58
3/9/2021 12:30:00 AM 6.39 43.502 0.697 7.87 4.88 11.55
3/9/2021 12:45:00 AM 6.36 43.448 0.698 7.86 4.5 11.55
3/9/2021 1:00:00 AM 6.33 43.394 0.699 7.86 4.56 11.55
3/9/2021 1:15:00 AM 6.3 43.34 0.699 7.86 4.79 11.58
3/9/2021 1:30:00 AM 6.28 43.304 0.7 7.86 5.47 11.55
3/9/2021 1:45:00 AM 6.26 43.268 0.701 7.86 4.46 11.57
3/9/2021 2:00:00 AM 6.23 43.214 0.702 7.86 4.14 11.6
3/9/2021 2:15:00 AM 6.22 43.196 0.703 7.86 4.88 11.58
3/9/2021 2:30:00 AM 6.2 43.16 0.704 7.86 4.58 11.57
3/9/2021 2:45:00 AM 6.19 43.142 0.706 7.86 6.2 11.58
3/9/2021 3:00:00 AM 6.17 43.106 0.706 7.86 4.63 11.54
3/9/2021 3:15:00 AM 6.16 43.088 0.707 7.86 4.38 11.57
3/9/2021 3:30:00 AM 6.15 43.07 0.708 7.86 4.28 11.57
3/9/2021 3:45:00 AM 6.14 43.052 0.708 7.86 4.79 11.53
3/9/2021 4:00:00 AM 6.14 43.052 0.708 7.86 4.36 11.54
3/9/2021 4:15:00 AM 6.14 43.052 0.709 7.86 3.75 11.53
3/9/2021 4:30:00 AM 6.13 43.034 0.709 7.86 4.31 11.54
3/9/2021 4:45:00 AM 6.13 43.034 0.709 7.85 3.49 11.55
3/9/2021 5:00:00 AM 6.13 43.034 0.71 7.85 5.14 11.53
3/9/2021 5:15:00 AM 6.14 43.052 0.709 7.85 4.27 11.52
3/9/2021 5:30:00 AM 6.14 43.052 0.709 7.85 3.86 11.52
3/9/2021 5:45:00 AM 6.14 43.052 0.71 7.84 4.2 11.53
3/9/2021 6:00:00 AM 6.14 43.052 0.71 7.84 5.39 11.54
3/9/2021 6:15:00 AM 6.13 43.034 0.711 7.84 3.56 11.52
3/9/2021 6:30:00 AM 6.13 43.034 0.711 7.84 4.42 11.53
3/9/2021 6:45:00 AM 6.13 43.034 0.71 7.84 3.6 11.55
3/9/2021 7:00:00 AM 6.12 43.016 0.71 7.84 4.66 11.58
3/9/2021 7:15:00 AM 6.11 42.998 0.711 7.84 4.63 11.62
3/9/2021 7:30:00 AM 6.11 42.998 0.711 7.84 4.11 11.7
3/9/2021 7:45:00 AM 6.12 43.016 0.711 7.84 4.55 11.76
3/9/2021 8:00:00 AM 6.13 43.034 0.711 7.84 4.38 11.86
3/9/2021 8:15:00 AM 6.14 43.052 0.712 7.85 5.84 11.98
3/9/2021 8:30:00 AM 6.16 43.088 0.712 7.86 4.04 12.1
3/9/2021 8:45:00 AM 6.2 43.16 0.711 7.87 4.2 12.25
3/9/2021 9:00:00 AM 6.28 43.304 0.711 7.88 4.41 12.54
3/9/2021 9:15:00 AM 6.35 43.43 0.711 7.89 3.17 12.77
3/9/2021 9:30:00 AM 6.43 43.574 0.711 7.9 4.08 12.96
3/9/2021 9:45:00 AM 6.57 43.826 0.71 7.92 3.5 13.21
3/9/2021 10:00:00 AM 6.73 44.114 0.711 7.94 5.68 13.5
3/9/2021 10:15:00 AM 6.9 44.42 0.71 7.96 4.22 13.75
3/9/2021 10:30:00 AM 7.07 44.726 0.709 7.97 3.55 13.98
3/9/2021 10:45:00 AM 7.24 45.032 0.709 7.99 4.53 14.2
3/9/2021 11:00:00 AM 7.42 45.356 0.708 8.01 3.5 14.42
3/9/2021 11:15:00 AM 7.58 45.644 0.707 8.02 4.61 14.61
3/9/2021 11:30:00 AM 7.76 45.968 0.707 8.04 5.79 14.81
3/9/2021 11:45:00 AM 7.92 46.256 0.706 8.06 3.71 15.02
3/9/2021 12:00:00 PM 8.08 46.544 0.704 8.08 5.31 15.14
3/9/2021 12:15:00 PM 8.22 46.796 0.704 8.09 5.48 15.31
3/9/2021 12:30:00 PM 8.36 47.048 0.704 8.11 4.95 15.49
3/9/2021 12:45:00 PM 8.53 47.354 0.703 8.13 4.04 15.63
3/9/2021 1:00:00 PM 8.71 47.678 0.701 8.15 3.78 15.78
3/9/2021 1:15:00 PM 8.87 47.966 0.704 8.17 3.81 15.84
3/9/2021 1:30:00 PM 9.02 48.236 0.703 8.19 4.27 15.91
3/9/2021 1:45:00 PM 9.16 48.488 0.701 8.2 6.02 15.94
3/9/2021 2:00:00 PM 9.27 48.686 0.696 8.22 4.79 15.9
3/9/2021 2:15:00 PM 9.37 48.866 0.696 8.23 5.09 15.93
3/9/2021 2:30:00 PM 9.47 49.046 0.695 8.25 5.17 15.91
3/9/2021 2:45:00 PM 9.56 49.208 0.697 8.26 6.12 15.83
3/9/2021 3:00:00 PM 9.66 49.388 0.694 8.27 5.03 15.9
3/9/2021 3:15:00 PM 9.75 49.55 0.693 8.28 3.73 15.84
3/9/2021 3:30:00 PM 9.82 49.676 0.697 8.29 7.55 15.74
3/9/2021 3:45:00 PM 9.88 49.784 0.693 8.3 3.99 15.59
3/9/2021 4:00:00 PM 9.92 49.856 0.696 8.3 4.41 15.45
3/9/2021 4:15:00 PM 9.97 49.946 0.692 8.3 3.81 15.32
3/9/2021 4:30:00 PM 9.99 49.982 0.686 8.31 6.76 15.24
3/9/2021 4:45:00 PM 10.01 50.018 0.686 8.3 5.08 14.98
3/9/2021 5:00:00 PM 10.02 50.036 0.686 8.29 3.81 14.81
3/9/2021 5:15:00 PM 10.02 50.036 0.692 8.29 4.38 14.62
3/9/2021 5:30:00 PM 10.01 50.018 0.686 8.28 4.3 14.38
3/9/2021 5:45:00 PM 9.98 49.964 0.688 8.27 7.04 14.14
3/9/2021 6:00:00 PM 9.94 49.892 0.692 8.26 4.54 13.91
3/9/2021 6:15:00 PM 9.89 49.802 0.688 8.25 5.13 13.68
3/9/2021 6:30:00 PM 9.84 49.712 0.688 8.23 4.07 13.42
3/9/2021 6:45:00 PM 9.78 49.604 0.688 8.21 5.62 13.21
3/9/2021 7:00:00 PM 9.71 49.478 0.693 8.2 4.61 13
3/9/2021 7:15:00 PM 9.64 49.352 0.693 8.17 4.57 12.76
3/9/2021 7:30:00 PM 9.57 49.226 0.692 8.16 3.65 12.59
3/9/2021 7:45:00 PM 9.5 49.1 0.693 8.14 6.44 12.39
3/9/2021 8:00:00 PM 9.43 48.974 0.693 8.11 4.12 12.19
3/9/2021 8:15:00 PM 9.36 48.848 0.695 8.1 4.6 12.06
3/9/2021 8:30:00 PM 9.29 48.722 0.697 8.1 4.27 11.9
3/9/2021 8:45:00 PM 9.21 48.578 0.705 8.06 5.75 11.75
3/9/2021 9:00:00 PM 9.14 48.452 0.7 8.03 4.24 11.63
3/9/2021 9:15:00 PM 9.08 48.344 0.702 8.02 4.11 11.46
3/9/2021 9:30:00 PM 9.01 48.218 0.701 8 4.81 11.39
3/9/2021 9:45:00 PM 8.95 48.11 0.702 7.99 4.92 11.3
3/9/2021 10:00:00 PM 8.89 48.002 0.703 7.97 6.14 11.2
3/9/2021 10:15:00 PM 8.83 47.894 0.704 7.96 4.98 11.11
3/9/2021 10:30:00 PM 8.77 47.786 0.706 7.94 4.15 11.04
3/9/2021 10:45:00 PM 8.72 47.696 0.709 7.92 4.6 10.96
3/9/2021 11:00:00 PM 8.67 47.606 0.71 7.91 7.63 10.93
3/9/2021 11:15:00 PM 8.62 47.516 0.712 7.89 5.94 10.89
3/9/2021 11:30:00 PM 8.57 47.426 0.715 7.89 7.81 10.83
3/9/2021 11:45:00 PM 8.53 47.354 0.714 7.87 4.54 10.8
3/10/2021 12:00:00 AM 8.48 47.264 0.715 7.87 3.83 10.75
3/10/2021 12:15:00 AM 8.44 47.192 0.716 7.86 4.12 10.74
3/10/2021 12:30:00 AM 8.41 47.138 0.725 7.85 5.98 10.73
3/10/2021 12:45:00 AM 8.37 47.066 0.725 7.85 6.18 10.71
3/10/2021 1:00:00 AM 8.35 47.03 0.719 7.84 5.8 10.7
3/10/2021 1:15:00 AM 8.32 46.976 0.722 7.84 4.76 10.72
3/10/2021 1:30:00 AM 8.29 46.922 0.724 7.84 4.39 10.73
3/10/2021 1:45:00 AM 8.26 46.868 0.722 7.84 4.93 10.73
3/10/2021 2:00:00 AM 8.24 46.832 0.723 7.84 3.88 10.72
3/10/2021 2:15:00 AM 8.21 46.778 0.724 7.84 4.12 10.74
3/10/2021 2:30:00 AM 8.19 46.742 0.724 7.84 4.57 10.71
3/10/2021 2:45:00 AM 8.17 46.706 0.727 7.84 3.7 10.73
3/10/2021 3:00:00 AM 8.14 46.652 0.724 7.84 4.41 10.71
3/10/2021 3:15:00 AM 8.12 46.616 0.733 7.84 13.74 10.71
3/10/2021 3:30:00 AM 8.1 46.58 0.728 7.84 5.01 10.74
3/10/2021 3:45:00 AM 8.08 46.544 0.731 7.84 4.82 10.75
3/10/2021 4:00:00 AM 8.05 46.49 0.726 7.84 4.45 10.69
3/10/2021 4:15:00 AM 8.03 46.454 0.732 7.84 4.54 10.7
3/10/2021 4:30:00 AM 8 46.4 0.732 7.83 4.32 10.71
3/10/2021 4:45:00 AM 7.97 46.346 0.729 7.83 3.74 10.72
3/10/2021 5:00:00 AM 7.94 46.292 0.731 7.83 4.57 10.73
3/10/2021 5:15:00 AM 7.91 46.238 0.729 7.83 4.6 10.73
3/10/2021 5:30:00 AM 7.88 46.184 0.738 7.83 5.35 10.72
3/10/2021 5:45:00 AM 7.85 46.13 0.733 7.82 5.76 10.74
3/10/2021 6:00:00 AM 7.81 46.058 0.737 7.82 8.27 10.74
3/10/2021 6:15:00 AM 7.77 45.986 0.731 7.82 4.23 10.73
3/10/2021 6:30:00 AM 7.74 45.932 0.735 7.82 4.38 10.77
3/10/2021 6:45:00 AM 7.7 45.86 0.734 7.81 4.77 10.76
3/10/2021 7:00:00 AM 7.67 45.806 0.732 7.81 3.82 10.84
3/10/2021 7:15:00 AM 7.64 45.752 0.735 7.81 4.9 10.89
3/10/2021 7:30:00 AM 7.61 45.698 0.734 7.82 4.61 10.97
3/10/2021 7:45:00 AM 7.59 45.662 0.738 7.81 5.46 11.07
3/10/2021 8:00:00 AM 7.58 45.644 0.736 7.82 3.95 11.17
3/10/2021 8:15:00 AM 7.58 45.644 0.737 7.83 4.53 11.34
3/10/2021 8:30:00 AM 7.58 45.644 0.734 7.84 4.03 11.49
3/10/2021 8:45:00 AM 7.61 45.698 0.743 7.84 5.04 11.67
3/10/2021 9:00:00 AM 7.66 45.788 0.74 7.86 4.35 11.89
3/10/2021 9:15:00 AM 7.74 45.932 0.736 7.88 6.5 12.18
3/10/2021 9:30:00 AM 7.82 46.076 0.737 7.9 3.64 12.46
3/10/2021 9:45:00 AM 7.95 46.31 0.736 7.92 5.78 12.79
3/10/2021 10:00:00 AM 8.08 46.544 0.74 7.94 3.65 13.08
3/10/2021 10:15:00 AM 8.23 46.814 0.734 7.96 4.39 13.37
3/10/2021 10:30:00 AM 8.4 47.12 0.733 7.98 7.25 13.66
3/10/2021 10:45:00 AM 8.57 47.426 0.733 8 4.06 13.88
3/10/2021 11:00:00 AM 8.73 47.714 0.734 8.01 4.59 14.13
3/10/2021 11:15:00 AM 8.9 48.02 0.732 8.04 3.59 14.43
3/10/2021 11:30:00 AM 9.07 48.326 0.731 8.06 5.53 14.61
3/10/2021 11:45:00 AM 9.25 48.65 0.733 8.07 11.81 14.85
3/10/2021 12:00:00 PM 9.43 48.974 0.73 8.09 4.46 15.07
3/10/2021 12:15:00 PM 9.6 49.28 0.734 8.11 5.6 15.2
3/10/2021 12:30:00 PM 9.77 49.586 0.726 8.14 3.84 15.36
3/10/2021 12:45:00 PM 9.93 49.874 0.725 8.16 3.87 15.43
3/10/2021 1:00:00 PM 10.11 50.198 0.724 8.18 4.18 15.54
3/10/2021 1:15:00 PM 10.27 50.486 0.723 8.2 4.46 15.56
3/10/2021 1:30:00 PM 10.44 50.792 0.723 8.22 4.71 15.64
3/10/2021 1:45:00 PM 10.59 51.062 0.72 8.24 4.41 15.73
3/10/2021 2:00:00 PM 10.75 51.35 0.719 8.25 5.86 15.77
3/10/2021 2:15:00 PM 10.87 51.566 0.722 8.27 3.91 15.8
3/10/2021 2:30:00 PM 11 51.8 0.716 8.29 8.06 15.77
3/10/2021 2:45:00 PM 11.11 51.998 0.72 8.3 3.98 15.77
3/10/2021 3:00:00 PM 11.2 52.16 0.711 8.32 4.59 15.67
3/10/2021 3:15:00 PM 11.29 52.322 0.712 8.33 5.07 15.68
3/10/2021 3:30:00 PM 11.35 52.43 0.711 8.34 6.95 15.51
3/10/2021 3:45:00 PM 11.4 52.52 0.711 8.35 4.04 15.4
3/10/2021 4:00:00 PM 11.43 52.574 0.711 8.35 4.64 15.23
3/10/2021 4:15:00 PM 11.45 52.61 0.711 8.35 5.42 15.07
3/10/2021 4:30:00 PM 11.47 52.646 0.708 8.35 6.33 14.9
3/10/2021 4:45:00 PM 11.48 52.664 0.711 8.35 3.81 14.71
3/10/2021 5:00:00 PM 11.49 52.682 0.714 8.35 4.08 14.52
3/10/2021 5:15:00 PM 11.49 52.682 0.714 8.34 3.84 14.34
3/10/2021 5:30:00 PM 11.48 52.664 0.713 8.33 3.73 14.15
3/10/2021 5:45:00 PM 11.45 52.61 0.709 8.32 6.04 13.88
3/10/2021 6:00:00 PM 11.41 52.538 0.712 8.31 4.32 13.69
3/10/2021 6:15:00 PM 11.35 52.43 0.712 8.29 6.26 13.41
3/10/2021 6:30:00 PM 11.29 52.322 0.714 8.27 3.67 13.18
3/10/2021 6:45:00 PM 11.22 52.196 0.72 8.25 4.8 12.95
3/10/2021 7:00:00 PM 11.15 52.07 0.716 8.24 4.92 12.69
3/10/2021 7:15:00 PM 11.07 51.926 0.715 8.21 4.63 12.45
3/10/2021 7:30:00 PM 11 51.8 0.714 8.19 6.04 12.22
3/10/2021 7:45:00 PM 10.92 51.656 0.718 8.17 7.23 12.02
3/10/2021 8:00:00 PM 10.85 51.53 0.721 8.15 4.63 11.81
3/10/2021 8:15:00 PM 10.77 51.386 0.716 8.13 6.08 11.63
3/10/2021 8:30:00 PM 10.7 51.26 0.717 8.11 5.29 11.47
3/10/2021 8:45:00 PM 10.63 51.134 0.722 8.09 4.64 11.33
3/10/2021 9:00:00 PM 10.57 51.026 0.718 8.07 5.76 11.18
3/10/2021 9:15:00 PM 10.5 50.9 0.721 8.05 3.98 11.04
3/10/2021 9:30:00 PM 10.43 50.774 0.721 8.03 5.07 10.93
3/10/2021 9:45:00 PM 10.37 50.666 0.72 8.01 5.01 10.8
3/10/2021 10:00:00 PM 10.31 50.558 0.722 7.99 7.99 10.72
3/10/2021 10:15:00 PM 10.24 50.432 0.723 7.97 4.37 10.63
3/10/2021 10:30:00 PM 10.18 50.324 0.723 7.96 7.61 10.55
3/10/2021 10:45:00 PM 10.12 50.216 0.723 7.94 4.64 10.46
3/10/2021 11:00:00 PM 10.07 50.126 0.725 7.92 5.89 10.39
3/10/2021 11:15:00 PM 10.01 50.018 0.726 7.91 4.21 10.34
3/10/2021 11:30:00 PM 9.95 49.91 0.727 7.89 5.36 10.29
3/10/2021 11:45:00 PM 9.89 49.802 0.727 7.88 5.88 10.24
3/11/2021 12:00:00 AM 9.85 49.73 0.729 7.87 5 10.21
3/11/2021 12:15:00 AM 9.8 49.64 0.729 7.86 4.26 10.21
3/11/2021 12:30:00 AM 9.76 49.568 0.73 7.86 4.87 10.17
3/11/2021 12:45:00 AM 9.72 49.496 0.733 7.85 4.88 10.17
3/11/2021 1:00:00 AM 9.69 49.442 0.732 7.85 5.28 10.15
3/11/2021 1:15:00 AM 9.65 49.37 0.735 7.84 6.11 10.12
3/11/2021 1:30:00 AM 9.61 49.298 0.736 7.84 6.44 10.13
3/11/2021 1:45:00 AM 9.57 49.226 0.738 7.84 4.99 10.13
3/11/2021 2:00:00 AM 9.54 49.172 0.738 7.84 5.64 10.12
3/11/2021 2:15:00 AM 9.5 49.1 0.739 7.84 4.73 10.13
3/11/2021 2:30:00 AM 9.47 49.046 0.738 7.84 4.84 10.1
3/11/2021 2:45:00 AM 9.43 48.974 0.739 7.84 6.42 10.1
3/11/2021 3:00:00 AM 9.4 48.92 0.74 7.84 4.54 10.14
3/11/2021 3:15:00 AM 9.38 48.884 0.74 7.84 5.07 10.13
3/11/2021 3:30:00 AM 9.36 48.848 0.741 7.84 6.98 10.1
3/11/2021 3:45:00 AM 9.33 48.794 0.742 7.84 10.27 10.1
3/11/2021 4:00:00 AM 9.31 48.758 0.743 7.84 6.75 10.11
3/11/2021 4:15:00 AM 9.29 48.722 0.743 7.84 7.24 10.1
3/11/2021 4:30:00 AM 9.26 48.668 0.744 7.84 8.54 10.14
3/11/2021 4:45:00 AM 9.24 48.632 0.749 7.84 5.93 10.1
3/11/2021 5:00:00 AM 9.22 48.596 0.745 7.83 15.87 10.09
3/11/2021 5:15:00 AM 9.19 48.542 0.746 7.83 11.98 10.1
3/11/2021 5:30:00 AM 9.16 48.488 0.745 7.83 6.61 10.1
3/11/2021 5:45:00 AM 9.13 48.434 0.747 7.83 4.97 10.14
3/11/2021 6:00:00 AM 9.1 48.38 0.75 7.83 12.39 10.1
3/11/2021 6:15:00 AM 9.07 48.326 0.744 7.83 19.12 10.14
3/11/2021 6:30:00 AM 9.05 48.29 0.756 7.82 16.97 10.09
3/11/2021 6:45:00 AM 9.04 48.272 0.752 7.83 13.65 10.17
3/11/2021 7:00:00 AM 9.03 48.254 0.755 7.82 7.94 10.18
3/11/2021 7:15:00 AM 9.02 48.236 0.754 7.82 14.19 10.24
3/11/2021 7:30:00 AM 9.02 48.236 0.748 7.83 17.71 10.31
3/11/2021 7:45:00 AM 9.02 48.236 0.755 7.84 6.18 10.48
3/11/2021 8:00:00 AM 9.01 48.218 0.754 7.84 8.29 10.57
3/11/2021 8:15:00 AM 9.01 48.218 0.749 7.84 16.46 10.69
3/11/2021 8:30:00 AM 9.04 48.272 0.749 7.85 5.06 10.89
3/11/2021 8:45:00 AM 9.1 48.38 0.749 7.87 13.33 11.16
3/11/2021 9:00:00 AM 9.18 48.524 0.749 7.88 33.58 11.45
3/11/2021 9:15:00 AM 9.21 48.578 0.749 7.9 10.09 11.59
3/11/2021 9:30:00 AM 9.3 48.74 0.749 7.92 21.04 11.84
3/11/2021 9:45:00 AM 9.45 49.01 0.75 7.94 13.98 12.21
3/11/2021 10:00:00 AM 9.6 49.28 0.747 7.97 11.58 12.57
3/11/2021 10:15:00 AM 9.76 49.568 0.747 7.99 15.65 12.87
3/11/2021 10:30:00 AM 9.95 49.91 0.748 8.01 33.38 13.19
3/11/2021 10:45:00 AM 10.14 50.252 0.746 8.03 21.56 13.49
3/11/2021 11:00:00 AM 10.32 50.576 0.746 8.06 22.82 13.8
3/11/2021 11:15:00 AM 10.46 50.828 0.746 8.08 28.69 14.06
3/11/2021 11:30:00 AM 10.66 51.188 0.746 8.1 14.2 14.38
3/11/2021 11:45:00 AM 10.86 51.548 0.746 8.12 17.51 14.61
3/11/2021 12:00:00 PM 11.06 51.908 0.743 8.14 24.39 14.76
3/11/2021 12:15:00 PM 11.24 52.232 0.74 8.16 15.07 15.02
3/11/2021 12:30:00 PM 11.42 52.556 0.742 8.19 14.76 15.14
3/11/2021 12:45:00 PM 11.6 52.88 0.741 8.21 29.55 15.28
3/11/2021 1:00:00 PM 11.79 53.222 0.74 8.23 11.19 15.37
3/11/2021 1:15:00 PM 11.95 53.51 0.737 8.25 13.71 15.48
3/11/2021 1:30:00 PM 12.11 53.798 0.731 8.27 39.1 15.54
3/11/2021 1:45:00 PM 12.28 54.104 0.731 8.3 12.5 15.62
3/11/2021 2:00:00 PM 12.42 54.356 0.731 8.32 35.13 15.67
3/11/2021 2:15:00 PM 12.55 54.59 0.733 8.33 14.15 15.64
3/11/2021 2:30:00 PM 12.68 54.824 0.729 8.36 12.5 15.69
3/11/2021 2:45:00 PM 12.8 55.04 0.727 8.37 34.11 15.7
3/11/2021 3:00:00 PM 12.9 55.22 0.726 8.39 20.22 15.63
3/11/2021 3:15:00 PM 12.98 55.364 0.723 8.4 10.95 15.58
3/11/2021 3:30:00 PM 13.04 55.472 0.723 8.41 21.21 15.52
3/11/2021 3:45:00 PM 13.14 55.652 0.722 8.42 17.07 15.45
3/11/2021 4:00:00 PM 13.16 55.688 0.724 8.43 26.54 15.33
3/11/2021 4:15:00 PM 13.21 55.778 0.723 8.44 24.53 15.16
3/11/2021 4:30:00 PM 13.21 55.778 0.724 8.44 10.96 14.97
3/11/2021 4:45:00 PM 13.23 55.814 0.721 8.43 17.45 14.76
3/11/2021 5:00:00 PM 13.26 55.868 0.723 8.43 10.49 14.59
3/11/2021 5:15:00 PM 13.27 55.886 0.716 8.43 28.6 14.4
3/11/2021 5:30:00 PM 13.25 55.85 0.713 8.42 14.64 14.16
3/11/2021 5:45:00 PM 13.24 55.832 0.721 8.41 15.05 13.78
3/11/2021 6:00:00 PM 13.21 55.778 0.721 8.39 6.03 13.59
3/11/2021 6:15:00 PM 13.15 55.67 0.721 8.38 19.86 13.27
3/11/2021 6:30:00 PM 13.11 55.598 0.721 8.36 24.38 13.02
3/11/2021 6:45:00 PM 13.05 55.49 0.721 8.35 13.06 12.73
3/11/2021 7:00:00 PM 12.98 55.364 0.72 8.31 12.91 12.43
3/11/2021 7:15:00 PM 12.91 55.238 0.72 8.29 32.7 12.15
3/11/2021 7:30:00 PM 12.84 55.112 0.72 8.27 15.49 11.87
3/11/2021 7:45:00 PM 12.76 54.968 0.721 8.24 19.9 11.62
3/11/2021 8:00:00 PM 12.68 54.824 0.721 8.21 30.4 11.37
3/11/2021 8:15:00 PM 12.6 54.68 0.722 8.19 26.11 11.18
3/11/2021 8:30:00 PM 12.53 54.554 0.722 8.16 21.27 10.98
3/11/2021 8:45:00 PM 12.44 54.392 0.722 8.14 11.55 10.78
3/11/2021 9:00:00 PM 12.36 54.248 0.723 8.12 18.49 10.62
3/11/2021 9:15:00 PM 12.29 54.122 0.721 8.09 20.72 10.49
3/11/2021 9:30:00 PM 12.21 53.978 0.723 8.06 11.49 10.34
3/11/2021 9:45:00 PM 12.14 53.852 0.723 8.04 10.85 10.19
3/11/2021 10:00:00 PM 12.07 53.726 0.723 8.02 7.71 10.1
3/11/2021 10:15:00 PM 12 53.6 0.724 7.99 22.9 9.98
3/11/2021 10:30:00 PM 11.94 53.492 0.725 7.97 15.42 9.88
3/11/2021 10:45:00 PM 11.87 53.366 0.726 7.96 20.74 9.78
3/11/2021 11:00:00 PM 11.81 53.258 0.728 7.93 39.78 9.67
3/11/2021 11:15:00 PM 11.75 53.15 0.729 7.92 13.42 9.63
3/11/2021 11:30:00 PM 11.7 53.06 0.73 7.9 23.1 9.57
3/11/2021 11:45:00 PM 11.65 52.97 0.731 7.88 9.74 9.5
3/12/2021 12:00:00 AM 11.6 52.88 0.734 7.87 22.34 9.48
3/12/2021 12:15:00 AM 11.56 52.808 0.733 7.86 9.14 9.45
3/12/2021 12:30:00 AM 11.52 52.736 0.734 7.85 16.58 9.41
3/12/2021 12:45:00 AM 11.48 52.664 0.735 7.84 24.33 9.37
3/12/2021 1:00:00 AM 11.45 52.61 0.736 7.83 6.3 9.36
3/12/2021 1:15:00 AM 11.44 52.592 0.737 7.83 14.3 9.34
3/12/2021 1:30:00 AM 11.43 52.574 0.738 7.82 10.6 9.32
3/12/2021 1:45:00 AM 11.42 52.556 0.742 7.82 9.63 9.31
3/12/2021 2:00:00 AM 11.41 52.538 0.742 7.82 12.07 9.31
3/12/2021 2:15:00 AM 11.4 52.52 0.742 7.81 19.66 9.33
3/12/2021 2:30:00 AM 11.38 52.484 0.743 7.82 18.91 9.33
3/12/2021 2:45:00 AM 11.38 52.484 0.744 7.82 13.86 9.32
3/12/2021 3:00:00 AM 11.39 52.502 0.745 7.81 5.49 9.29
3/12/2021 3:15:00 AM 11.39 52.502 0.743 7.81 8.37 9.3
3/12/2021 3:30:00 AM 11.39 52.502 0.746 7.81 5.96 9.29
3/12/2021 3:45:00 AM 11.39 52.502 0.747 7.81 20.13 9.27
3/12/2021 4:00:00 AM 11.4 52.52 0.748 7.81 14.86 9.24
3/12/2021 4:15:00 AM 11.4 52.52 0.747 7.81 5.37 9.28
3/12/2021 4:30:00 AM 11.41 52.538 0.748 7.81 8.22 9.25
3/12/2021 4:45:00 AM 11.42 52.556 0.749 7.81 6.69 9.26
3/12/2021 5:00:00 AM 11.43 52.574 0.749 7.81 10.08 9.25
3/12/2021 5:15:00 AM 11.43 52.574 0.75 7.81 17.33 9.24
3/12/2021 5:30:00 AM 11.44 52.592 0.751 7.81 8.14 9.23
3/12/2021 5:45:00 AM 11.45 52.61 0.752 7.8 7.1 9.23
3/12/2021 6:00:00 AM 11.47 52.646 0.751 7.8 4.63 9.2
3/12/2021 6:15:00 AM 11.48 52.664 0.751 7.8 13.09 9.21
3/12/2021 6:30:00 AM 11.49 52.682 0.752 7.8 11.92 9.19
3/12/2021 6:45:00 AM 11.5 52.7 0.752 7.79 5.89 9.17
3/12/2021 7:00:00 AM 11.51 52.718 0.752 7.8 4.95 9.2
3/12/2021 7:15:00 AM 11.53 52.754 0.749 7.79 8.54 9.27
3/12/2021 7:30:00 AM 11.55 52.79 0.752 7.8 22.2 9.35
3/12/2021 7:45:00 AM 11.57 52.826 0.751 7.8 4.45 9.49
3/12/2021 8:00:00 AM 11.61 52.898 0.75 7.81 8.43 9.61
3/12/2021 8:15:00 AM 11.64 52.952 0.749 7.82 7.94 9.81
3/12/2021 8:30:00 AM 11.69 53.042 0.751 7.83 7.14 9.99
3/12/2021 8:45:00 AM 11.7 53.06 0.75 7.84 7.27 10.04
3/12/2021 9:00:00 AM 11.7 53.06 0.751 7.84 7.27 10
3/12/2021 9:15:00 AM 11.73 53.114 0.752 7.84 3.85 10.23
3/12/2021 9:30:00 AM 11.75 53.15 0.751 7.86 14.03 10.44
3/12/2021 9:45:00 AM 11.79 53.222 0.751 7.88 12.77 10.65
3/12/2021 10:00:00 AM 11.84 53.312 0.75 7.9 5.11 11
3/12/2021 10:15:00 AM 11.86 53.348 0.751 7.91 13.23 11.25
3/12/2021 10:30:00 AM 11.98 53.564 0.751 7.94 10.69 11.51
3/12/2021 10:45:00 AM 12.15 53.87 0.751 7.97 9.88 11.94
3/12/2021 11:00:00 AM 12.25 54.05 0.751 7.99 8.01 12.31
3/12/2021 11:15:00 AM 12.31 54.158 0.75 8.01 58.09 12.5
3/12/2021 11:30:00 AM 12.51 54.518 0.75 8.04 16.43 12.93
3/12/2021 11:45:00 AM 12.64 54.752 0.75 8.06 24.29 13.29
3/12/2021 12:00:00 PM 12.76 54.968 0.749 8.09 15.57 13.59
3/12/2021 12:15:00 PM 12.9 55.22 0.749 8.11 11.9 13.88
3/12/2021 12:30:00 PM 13.03 55.454 0.749 8.14 10.29 14.09
3/12/2021 12:45:00 PM 13.18 55.724 0.748 8.16 11.92 14.38
3/12/2021 1:00:00 PM 13.31 55.958 0.747 8.19 6.68 14.62
3/12/2021 1:15:00 PM 13.42 56.156 0.743 8.21 10.77 14.68
3/12/2021 1:30:00 PM 13.53 56.354 0.739 8.24 11.37 14.85
3/12/2021 1:45:00 PM 13.65 56.57 0.743 8.26 12.06 15.05
3/12/2021 2:00:00 PM 13.72 56.696 0.737 8.28 6.51 15.05
3/12/2021 2:15:00 PM 13.81 56.858 0.737 8.31 14.69 15.09
3/12/2021 2:30:00 PM 13.88 56.984 0.739 8.33 8.25 15.2
3/12/2021 2:45:00 PM 13.95 57.11 0.731 8.34 6.89 15.28
3/12/2021 3:00:00 PM 13.98 57.164 0.729 8.36 6.48 15.3
3/12/2021 3:15:00 PM 13.98 57.164 0.724 8.37 7.37 15.22
3/12/2021 3:30:00 PM 13.99 57.182 0.721 8.38 5.57 15.1
3/12/2021 3:45:00 PM 13.98 57.164 0.723 8.4 5.35 14.93
3/12/2021 4:00:00 PM 14.01 57.218 0.718 8.41 6.26 14.85
3/12/2021 4:15:00 PM 14 57.2 0.723 8.42 9.98 14.78
3/12/2021 4:30:00 PM 13.99 57.182 0.719 8.42 6.74 14.66
3/12/2021 4:45:00 PM 13.97 57.146 0.725 8.42 4.3 14.39
3/12/2021 5:00:00 PM 13.94 57.092 0.721 8.43 16.51 14.26
3/12/2021 5:15:00 PM 13.92 57.056 0.722 8.42 9.34 14.01
3/12/2021 5:30:00 PM 13.88 56.984 0.722 8.42 5.6 13.79
3/12/2021 5:45:00 PM 13.83 56.894 0.72 8.4 6 13.5
3/12/2021 6:00:00 PM 13.76 56.768 0.72 8.39 5.54 13.26
3/12/2021 6:15:00 PM 13.71 56.678 0.72 8.38 11.27 13.04
3/12/2021 6:30:00 PM 13.65 56.57 0.725 8.36 9.45 12.71
3/12/2021 6:45:00 PM 13.58 56.444 0.725 8.35 14.04 12.48
3/12/2021 7:00:00 PM 13.5 56.3 0.726 8.33 7.4 12.17
3/12/2021 7:15:00 PM 13.43 56.174 0.725 8.31 4.97 11.91
3/12/2021 7:30:00 PM 13.34 56.012 0.726 8.28 5.42 11.63
3/12/2021 7:45:00 PM 13.25 55.85 0.725 8.26 4.08 11.35
3/12/2021 8:00:00 PM 13.16 55.688 0.726 8.23 5.89 11.12
3/12/2021 8:15:00 PM 13.07 55.526 0.727 8.2 5.07 10.89
3/12/2021 8:30:00 PM 12.98 55.364 0.728 8.18 4.49 10.68
3/12/2021 8:45:00 PM 12.88 55.184 0.73 8.15 6.28 10.5
3/12/2021 9:00:00 PM 12.79 55.022 0.729 8.12 5.49 10.35
3/12/2021 9:15:00 PM 12.7 54.86 0.729 8.1 5.52 10.17
3/12/2021 9:30:00 PM 12.61 54.698 0.73 8.07 5.54 10.03
3/12/2021 9:45:00 PM 12.53 54.554 0.73 8.05 8.77 9.9
3/12/2021 10:00:00 PM 12.43 54.374 0.73 8.03 6.44 9.81
3/12/2021 10:15:00 PM 12.34 54.212 0.731 8.01 6.42 9.7
3/12/2021 10:30:00 PM 12.24 54.032 0.732 7.98 4.92 9.6
3/12/2021 10:45:00 PM 12.16 53.888 0.731 7.97 8.36 9.53
3/12/2021 11:00:00 PM 12.07 53.726 0.732 7.95 5.64 9.44
3/12/2021 11:15:00 PM 12 53.6 0.733 7.93 6.8 9.38
3/12/2021 11:30:00 PM 11.92 53.456 0.734 7.92 4.54 9.35
3/12/2021 11:45:00 PM 11.84 53.312 0.734 7.9 6.17 9.31
3/13/2021 12:00:00 AM 11.77 53.186 0.735 7.89 4.2 9.29
3/13/2021 12:15:00 AM 11.71 53.078 0.734 7.88 4.69 9.26
3/13/2021 12:30:00 AM 11.64 52.952 0.736 7.87 8.62 9.23
3/13/2021 12:45:00 AM 11.59 52.862 0.734 7.87 6.88 9.21
3/13/2021 1:00:00 AM 11.53 52.754 0.738 7.86 5.82 9.21
3/13/2021 1:15:00 AM 11.46 52.628 0.739 7.85 4.57 9.22
3/13/2021 1:30:00 AM 11.41 52.538 0.739 7.85 8.37 9.21
3/13/2021 1:45:00 AM 11.36 52.448 0.741 7.84 5 9.22
3/13/2021 2:00:00 AM 11.28 52.304 0.743 7.84 6.5 9.24
3/13/2021 2:15:00 AM 11.21 52.178 0.745 7.84 6.96 9.27
3/13/2021 2:30:00 AM 11.16 52.088 0.744 7.84 4.91 9.27
3/13/2021 2:45:00 AM 11.11 51.998 0.748 7.84 6.29 9.28
3/13/2021 3:00:00 AM 11.07 51.926 0.747 7.84 4.77 9.25
3/13/2021 3:15:00 AM 11.02 51.836 0.749 7.84 4.72 9.32
3/13/2021 3:30:00 AM 10.96 51.728 0.747 7.84 6.92 9.31
3/13/2021 3:45:00 AM 10.89 51.602 0.753 7.84 5.76 9.32
3/13/2021 4:00:00 AM 10.8 51.44 0.752 7.84 5.76 9.37
3/13/2021 4:15:00 AM 10.74 51.332 0.753 7.84 5.28 9.39
3/13/2021 4:30:00 AM 10.66 51.188 0.751 7.84 4.77 9.39
3/13/2021 4:45:00 AM 10.59 51.062 0.753 7.84 5.12 9.38
3/13/2021 5:00:00 AM 10.53 50.954 0.752 7.85 11.66 9.42
3/13/2021 5:15:00 AM 10.46 50.828 0.753 7.85 4.23 9.45
3/13/2021 5:30:00 AM 10.39 50.702 0.751 7.85 8.35 9.46
3/13/2021 5:45:00 AM 10.32 50.576 0.751 7.85 5.24 9.48
3/13/2021 6:00:00 AM 10.26 50.468 0.751 7.85 6.32 9.53
3/13/2021 6:15:00 AM 10.19 50.342 0.75 7.85 4.39 9.55
3/13/2021 6:30:00 AM 10.12 50.216 0.752 7.85 6.42 9.54
3/13/2021 6:45:00 AM 10.05 50.09 0.751 7.86 5.15 9.61
3/13/2021 7:00:00 AM 9.99 49.982 0.752 7.86 4.79 9.68
3/13/2021 7:15:00 AM 9.93 49.874 0.751 7.86 9.04 9.78
3/13/2021 7:30:00 AM 9.86 49.748 0.752 7.86 6.61 9.82
3/13/2021 7:45:00 AM 9.8 49.64 0.751 7.86 4.75 9.92
3/13/2021 8:00:00 AM 9.74 49.532 0.751 7.87 7.42 10.07
3/13/2021 8:15:00 AM 9.68 49.424 0.751 7.88 10.04 10.24
3/13/2021 8:30:00 AM 9.64 49.352 0.751 7.89 4.84 10.42
3/13/2021 8:45:00 AM 9.6 49.28 0.751 7.9 5.87 10.6
3/13/2021 9:00:00 AM 9.6 49.28 0.752 7.92 6.79 10.89
3/13/2021 9:15:00 AM 9.63 49.334 0.749 7.93 5.13 11.16
3/13/2021 9:30:00 AM 9.68 49.424 0.751 7.96 13.29 11.57
3/13/2021 9:45:00 AM 9.78 49.604 0.752 7.99 5.76 11.92
3/13/2021 10:00:00 AM 9.87 49.766 0.751 8.01 7.21 12.32
3/13/2021 10:15:00 AM 9.98 49.964 0.751 8.03 6.9 12.63
3/13/2021 10:30:00 AM 10.11 50.198 0.75 8.05 6.11 13
3/13/2021 10:45:00 AM 10.24 50.432 0.75 8.08 7.86 13.32
3/13/2021 11:00:00 AM 10.37 50.666 0.75 8.1 4.47 13.64
3/13/2021 11:15:00 AM 10.47 50.846 0.75 8.12 4.16 13.91
3/13/2021 11:30:00 AM 10.6 51.08 0.748 8.14 10.11 14.22
3/13/2021 11:45:00 AM 10.73 51.314 0.748 8.16 6.26 14.52
3/13/2021 12:00:00 PM 10.85 51.53 0.748 8.18 10.95 14.81
3/13/2021 12:15:00 PM 10.96 51.728 0.748 8.21 4.14 14.97
3/13/2021 12:30:00 PM 11.07 51.926 0.747 8.23 4.56 15.28
3/13/2021 12:45:00 PM 11.19 52.142 0.747 8.25 3.66 15.35
3/13/2021 1:00:00 PM 11.31 52.358 0.745 8.27 4.15 15.51
3/13/2021 1:15:00 PM 11.41 52.538 0.745 8.29 5.82 15.66
3/13/2021 1:30:00 PM 11.5 52.7 0.742 8.31 7.16 15.7
3/13/2021 1:45:00 PM 11.6 52.88 0.744 8.33 5.66 15.78
3/13/2021 2:00:00 PM 11.68 53.024 0.743 8.35 6.08 15.82
3/13/2021 2:15:00 PM 11.75 53.15 0.741 8.37 5.19 15.91
3/13/2021 2:30:00 PM 11.81 53.258 0.74 8.39 8.16 15.85
3/13/2021 2:45:00 PM 11.87 53.366 0.735 8.41 7.45 15.89
3/13/2021 3:00:00 PM 11.92 53.456 0.735 8.42 4.88 15.86
3/13/2021 3:15:00 PM 11.95 53.51 0.734 8.43 6.53 15.84
3/13/2021 3:30:00 PM 11.96 53.528 0.733 8.44 6.98 15.7
3/13/2021 3:45:00 PM 11.96 53.528 0.734 8.45 5.79 15.59
3/13/2021 4:00:00 PM 11.94 53.492 0.731 8.45 6.65 15.4
3/13/2021 4:15:00 PM 11.95 53.51 0.734 8.46 6.77 15.26
3/13/2021 4:30:00 PM 11.94 53.492 0.733 8.46 8.46 15.13
3/13/2021 4:45:00 PM 11.92 53.456 0.73 8.45 11.87 14.97
3/13/2021 5:00:00 PM 11.9 53.42 0.729 8.46 9.09 14.82
3/13/2021 5:15:00 PM 11.88 53.384 0.728 8.45 5.29 14.63
3/13/2021 5:30:00 PM 11.85 53.33 0.724 8.44 4.65 14.41
3/13/2021 5:45:00 PM 11.81 53.258 0.734 8.43 5.41 14.16
3/13/2021 6:00:00 PM 11.74 53.132 0.736 8.43 7.85 13.94
3/13/2021 6:15:00 PM 11.67 53.006 0.735 8.41 6.98 13.74
3/13/2021 6:30:00 PM 11.58 52.844 0.735 8.4 5.05 13.45
3/13/2021 6:45:00 PM 11.49 52.682 0.734 8.38 5.63 13.16
3/13/2021 7:00:00 PM 11.38 52.484 0.735 8.36 5.82 12.92
3/13/2021 7:15:00 PM 11.27 52.286 0.734 8.34 4.87 12.63
3/13/2021 7:30:00 PM 11.16 52.088 0.735 8.31 5.24 12.34
3/13/2021 7:45:00 PM 11.05 51.89 0.735 8.29 6.36 12.13
3/13/2021 8:00:00 PM 10.93 51.674 0.736 8.26 6 11.84
3/13/2021 8:15:00 PM 10.81 51.458 0.737 8.24 5.18 11.67
3/13/2021 8:30:00 PM 10.69 51.242 0.737 8.21 5.02 11.47
3/13/2021 8:45:00 PM 10.56 51.008 0.736 8.18 4.73 11.28
3/13/2021 9:00:00 PM 10.44 50.792 0.738 8.16 6.36 11.17
3/13/2021 9:15:00 PM 10.32 50.576 0.738 8.14 4.72 11.02
3/13/2021 9:30:00 PM 10.21 50.378 0.739 8.11 5.18 10.86
3/13/2021 9:45:00 PM 10.09 50.162 0.739 8.09 5.6 10.81
3/13/2021 10:00:00 PM 9.99 49.982 0.74 8.07 5.37 10.67
3/13/2021 10:15:00 PM 9.88 49.784 0.74 8.05 5.5 10.61
3/13/2021 10:30:00 PM 9.77 49.586 0.74 8.03 6.36 10.5
3/13/2021 10:45:00 PM 9.68 49.424 0.74 8.01 5.86 10.43
3/13/2021 11:00:00 PM 9.58 49.244 0.74 8 5.95 10.39
3/13/2021 11:15:00 PM 9.49 49.082 0.741 7.97 6.36 10.31
3/13/2021 11:30:00 PM 9.4 48.92 0.741 7.96 6.35 10.27
3/13/2021 11:45:00 PM 9.31 48.758 0.742 7.95 4.4 10.21
3/14/2021 12:00:00 AM 9.23 48.614 0.742 7.93 5.25 10.23
3/14/2021 12:15:00 AM 9.15 48.47 0.741 7.92 5.24 10.17
3/14/2021 12:30:00 AM 9.07 48.326 0.742 7.91 6.77 10.19
3/14/2021 12:45:00 AM 9 48.2 0.743 7.9 8.95 10.16
3/14/2021 1:00:00 AM 8.92 48.056 0.742 7.9 4.68 10.15
3/14/2021 1:15:00 AM 8.86 47.948 0.743 7.89 5.8 10.11
3/14/2021 1:30:00 AM 8.79 47.822 0.743 7.89 4.68 10.17
3/14/2021 1:45:00 AM 8.73 47.714 0.744 7.88 5.34 10.18
3/14/2021 3:00:00 AM 8.45 47.21 0.746 7.87 4.42 10.26
3/14/2021 4:15:00 AM 8.41 47.138 0.746 7.87 5.9 10.28
3/14/2021 4:30:00 AM 8.36 47.048 0.747 7.87 5.15 10.29
3/14/2021 4:45:00 AM 8.32 46.976 0.747 7.87 5.67 10.29
3/14/2021 5:00:00 AM 8.28 46.904 0.746 7.88 9.81 10.33
3/14/2021 5:15:00 AM 8.24 46.832 0.748 7.88 5.21 10.32
3/14/2021 5:30:00 AM 8.21 46.778 0.749 7.88 4.1 10.31
3/14/2021 5:45:00 AM 8.18 46.724 0.749 7.87 4.3 10.33
3/14/2021 6:00:00 AM 8.15 46.67 0.751 7.88 3.79 10.34
3/14/2021 6:15:00 AM 8.12 46.616 0.751 7.87 7.78 10.33
3/14/2021 6:30:00 AM 8.09 46.562 0.751 7.88 5.87 10.35
3/14/2021 6:45:00 AM 8.07 46.526 0.751 7.88 5.53 10.36
3/14/2021 7:00:00 AM 8.04 46.472 0.752 7.88 3.5 10.36
3/14/2021 7:15:00 AM 8.01 46.418 0.753 7.88 5.2 10.4
3/14/2021 7:30:00 AM 7.98 46.364 0.754 7.88 4.46 10.4
3/14/2021 7:45:00 AM 7.96 46.328 0.755 7.88 5.89 10.44
3/14/2021 8:00:00 AM 7.95 46.31 0.755 7.88 8.79 10.48
3/14/2021 8:15:00 AM 7.94 46.292 0.756 7.89 4.38 10.55
3/14/2021 8:30:00 AM 7.94 46.292 0.757 7.89 6.25 10.64
3/14/2021 8:45:00 AM 7.94 46.292 0.757 7.89 6.44 10.7
3/14/2021 9:00:00 AM 7.95 46.31 0.758 7.9 4.62 10.83
3/14/2021 9:15:00 AM 7.96 46.328 0.758 7.9 6.87 10.98
3/14/2021 9:30:00 AM 7.98 46.364 0.758 7.92 4.92 11.15
3/14/2021 9:45:00 AM 8.01 46.418 0.758 7.92 3.45 11.3
3/14/2021 10:00:00 AM 8.07 46.526 0.758 7.94 4.13 11.54
3/14/2021 10:15:00 AM 8.15 46.67 0.759 7.96 8.81 11.82
3/14/2021 10:30:00 AM 8.27 46.886 0.759 7.98 8.64 12.16
3/14/2021 10:45:00 AM 8.41 47.138 0.759 8.01 5.42 12.48
3/14/2021 11:00:00 AM 8.55 47.39 0.76 8.03 5.69 12.85
3/14/2021 11:15:00 AM 8.71 47.678 0.758 8.05 4.86 13.12
3/14/2021 11:30:00 AM 8.89 48.002 0.758 8.08 4.23 13.43
3/14/2021 11:45:00 AM 9.07 48.326 0.756 8.1 5.35 13.8
3/14/2021 12:00:00 PM 9.15 48.47 0.757 8.11 9.59 14.03
3/14/2021 12:15:00 PM 9.33 48.794 0.754 8.14 4.52 14.25
3/14/2021 12:30:00 PM 9.5 49.1 0.756 8.16 3.8 14.61
3/14/2021 12:45:00 PM 9.69 49.442 0.755 8.18 5.43 14.85
3/14/2021 1:00:00 PM 9.85 49.73 0.755 8.2 5.29 15.11
3/14/2021 1:15:00 PM 10.02 50.036 0.754 8.22 5.88 15.27
3/14/2021 1:30:00 PM 10.16 50.288 0.754 8.24 4.68 15.39
3/14/2021 1:45:00 PM 10.31 50.558 0.754 8.26 4.27 15.54
3/14/2021 2:00:00 PM 10.46 50.828 0.754 8.28 10.13 15.68
3/14/2021 2:15:00 PM 10.6 51.08 0.751 8.3 55.71 15.79
3/14/2021 2:30:00 PM 10.71 51.278 0.751 8.32 9.35 15.88
3/14/2021 2:45:00 PM 10.82 51.476 0.748 8.34 6.65 15.92
3/14/2021 3:00:00 PM 10.94 51.692 0.748 8.36 6.76 15.95
3/14/2021 3:15:00 PM 11.04 51.872 0.744 8.37 6.6 16.04
3/14/2021 3:30:00 PM 11.09 51.962 0.744 8.39 13 16.06
3/14/2021 3:45:00 PM 11.16 52.088 0.745 8.41 16.51 16.09
3/14/2021 4:00:00 PM 11.19 52.142 0.741 8.42 12.79 16.03
3/14/2021 4:15:00 PM 11.22 52.196 0.739 8.42 17.01 15.95
3/14/2021 4:30:00 PM 11.23 52.214 0.741 8.44 9.07 15.87
3/14/2021 4:45:00 PM 11.23 52.214 0.737 8.45 9.51 15.79
3/14/2021 5:00:00 PM 11.22 52.196 0.738 8.45 87.74 15.57
3/14/2021 5:15:00 PM 11.21 52.178 0.739 8.45 6.66 15.48
3/14/2021 5:30:00 PM 11.17 52.106 0.738 8.45 6.98 15.34
3/14/2021 5:45:00 PM 11.13 52.034 0.736 8.45 6.64 15.11
3/14/2021 6:00:00 PM 11.09 51.962 0.738 8.45 5.7 14.91
3/14/2021 6:15:00 PM 11.05 51.89 0.737 8.45 5.86 14.75
3/14/2021 6:30:00 PM 10.98 51.764 0.737 8.45 6 14.55
3/14/2021 6:45:00 PM 10.91 51.638 0.736 8.44 7.85 14.42
3/14/2021 7:00:00 PM 10.85 51.53 0.736 8.43 6.82 14.21
3/14/2021 7:15:00 PM 10.76 51.368 0.737 8.42 7.4 13.95
3/14/2021 7:30:00 PM 10.67 51.206 0.736 8.41 7.31 13.69
3/14/2021 7:45:00 PM 10.57 51.026 0.737 8.39 13.47 13.49
3/14/2021 8:00:00 PM 10.47 50.846 0.737 8.38 5.51 13.26
3/14/2021 8:15:00 PM 10.36 50.648 0.738 8.35 6.65 13.01
3/14/2021 8:30:00 PM 10.24 50.432 0.737 8.33 4.78 12.68
3/14/2021 8:45:00 PM 10.11 50.198 0.738 8.31 5.84 12.51
3/14/2021 9:00:00 PM 9.99 49.982 0.74 8.28 5.24 12.26
3/14/2021 9:15:00 PM 9.88 49.784 0.742 8.26 5.48 12.02
3/14/2021 9:30:00 PM 9.75 49.55 0.741 8.23 4.64 11.82
3/14/2021 9:45:00 PM 9.63 49.334 0.742 8.21 7.6 11.67
3/14/2021 10:00:00 PM 9.51 49.118 0.743 8.19 10.77 11.5
3/14/2021 10:15:00 PM 9.38 48.884 0.743 8.17 6.69 11.38
3/14/2021 10:30:00 PM 9.28 48.704 0.744 8.15 4.99 11.23
3/14/2021 10:45:00 PM 9.15 48.47 0.743 8.13 5.15 11.11
3/14/2021 11:00:00 PM 9.03 48.254 0.744 8.1 4.76 11.07
3/14/2021 11:15:00 PM 8.91 48.038 0.744 8.09 5.19 10.97
3/14/2021 11:30:00 PM 8.79 47.822 0.744 8.07 5.84 10.87
3/14/2021 11:45:00 PM 8.68 47.624 0.744 8.05 3.56 10.8
3/15/2021 12:00:00 AM 8.56 47.408 0.743 8.03 4.59 10.73
3/15/2021 12:15:00 AM 8.47 47.246 0.744 8.02 4.4 10.7
3/15/2021 12:30:00 AM 8.38 47.084 0.743 8 8.49 10.65
3/15/2021 12:45:00 AM 8.29 46.922 0.743 7.98 4.87 10.64
3/15/2021 1:00:00 AM 8.19 46.742 0.743 7.97 4.12 10.6
3/15/2021 1:15:00 AM 8.09 46.562 0.743 7.96 4.69 10.57
3/15/2021 1:30:00 AM 8.01 46.418 0.743 7.95 5.4 10.53
3/15/2021 1:45:00 AM 7.93 46.274 0.743 7.94 4.78 10.56
3/15/2021 2:00:00 AM 7.85 46.13 0.742 7.93 6.52 10.53
3/15/2021 2:15:00 AM 7.77 45.986 0.742 7.92 5.46 10.56
3/15/2021 2:30:00 AM 7.68 45.824 0.742 7.92 13.82 10.55
3/15/2021 2:45:00 AM 7.6 45.68 0.742 7.91 4.53 10.58
3/15/2021 3:00:00 AM 7.52 45.536 0.742 7.91 9.72 10.62
3/15/2021 3:15:00 AM 7.43 45.374 0.742 7.9 5.14 10.61
3/15/2021 3:30:00 AM 7.35 45.23 0.743 7.9 5.7 10.61
3/15/2021 3:45:00 AM 7.27 45.086 0.742 7.9 3.75 10.65
3/15/2021 4:00:00 AM 7.21 44.978 0.742 7.9 4.53 10.67
3/15/2021 4:15:00 AM 7.16 44.888 0.742 7.9 6.12 10.69
3/15/2021 4:30:00 AM 7.1 44.78 0.742 7.9 5.01 10.72
3/15/2021 4:45:00 AM 7.04 44.672 0.742 7.9 5 10.74
3/15/2021 5:00:00 AM 6.97 44.546 0.742 7.91 5.08 10.76
3/15/2021 5:15:00 AM 6.92 44.456 0.742 7.91 3.74 10.79
3/15/2021 5:30:00 AM 6.86 44.348 0.742 7.91 5.46 10.79
3/15/2021 5:45:00 AM 6.79 44.222 0.741 7.91 9.74 10.83
3/15/2021 6:00:00 AM 6.75 44.15 0.742 7.91 5.19 10.84
3/15/2021 6:15:00 AM 6.69 44.042 0.741 7.91 6.06 10.88
3/15/2021 6:30:00 AM 6.63 43.934 0.741 7.91 5.67 10.88
3/15/2021 6:45:00 AM 6.58 43.844 0.742 7.91 3.53 10.92
3/15/2021 7:00:00 AM 6.54 43.772 0.742 7.91 5.33 10.96
3/15/2021 7:15:00 AM 6.49 43.682 0.742 7.91 5.4 10.95
3/15/2021 7:30:00 AM 6.44 43.592 0.742 7.91 4.1 11
3/15/2021 7:45:00 AM 6.39 43.502 0.741 7.91 5.46 11.06
3/15/2021 8:00:00 AM 6.35 43.43 0.742 7.92 4.58 11.11
3/15/2021 8:15:00 AM 6.32 43.376 0.742 7.92 4.69 11.17
3/15/2021 8:30:00 AM 6.28 43.304 0.742 7.92 4.53 11.24
3/15/2021 8:45:00 AM 6.24 43.232 0.742 7.93 3.71 11.32
3/15/2021 9:00:00 AM 6.2 43.16 0.743 7.93 4.76 11.45
3/15/2021 9:15:00 AM 6.17 43.106 0.743 7.94 4.84 11.6
3/15/2021 9:30:00 AM 6.15 43.07 0.743 7.95 4 11.78
3/15/2021 9:45:00 AM 6.15 43.07 0.743 7.96 3.83 11.96
3/15/2021 10:00:00 AM 6.16 43.088 0.743 7.98 3.52 12.21
3/15/2021 10:15:00 AM 6.21 43.178 0.743 8 3.22 12.46
3/15/2021 10:30:00 AM 6.31 43.358 0.743 8.01 11.76 12.85
3/15/2021 10:45:00 AM 6.44 43.592 0.735 8.04 3.57 13.17
3/15/2021 11:00:00 AM 6.57 43.826 0.742 8.06 3.68 13.42
3/15/2021 11:15:00 AM 6.71 44.078 0.741 8.08 4.89 13.8
3/15/2021 11:30:00 AM 6.88 44.384 0.74 8.1 4.19 14.05
3/15/2021 11:45:00 AM 7.04 44.672 0.741 8.12 3.88 14.37
3/15/2021 12:00:00 PM 7.19 44.942 0.74 8.14 4.23 14.68
3/15/2021 12:15:00 PM 7.35 45.23 0.74 8.16 4.19 14.92
3/15/2021 12:30:00 PM 7.48 45.464 0.74 8.17 3.79 15.18
3/15/2021 12:45:00 PM 7.64 45.752 0.738 8.19 4.35 15.41
3/15/2021 1:00:00 PM 7.78 46.004 0.737 8.2 5.84 15.64
3/15/2021 1:15:00 PM 7.91 46.238 0.736 8.23 4.27 15.84
3/15/2021 1:30:00 PM 8.04 46.472 0.736 8.24 5.85 15.96
3/15/2021 1:45:00 PM 8.16 46.688 0.735 8.26 5.68 16.19
3/15/2021 2:00:00 PM 8.3 46.94 0.733 8.28 4.91 16.35
3/15/2021 2:15:00 PM 8.4 47.12 0.732 8.3 4.13 16.48
3/15/2021 2:30:00 PM 8.5 47.3 0.731 8.32 3.23 16.59
3/15/2021 2:45:00 PM 8.57 47.426 0.727 8.34 5.97 16.66
3/15/2021 3:00:00 PM 8.67 47.606 0.728 8.36 5.64 16.75
3/15/2021 3:15:00 PM 8.74 47.732 0.728 8.37 5.4 16.8
3/15/2021 3:30:00 PM 8.8 47.84 0.726 8.39 8.47 16.79
3/15/2021 3:45:00 PM 8.86 47.948 0.724 8.4 5.66 16.88
3/15/2021 4:00:00 PM 8.91 48.038 0.724 8.41 4.63 16.86
3/15/2021 4:15:00 PM 8.94 48.092 0.723 8.43 3.99 16.86
3/15/2021 4:30:00 PM 8.94 48.092 0.719 8.44 3.92 16.84
3/15/2021 4:45:00 PM 8.93 48.074 0.718 8.45 5.73 16.7
3/15/2021 5:00:00 PM 8.91 48.038 0.717 8.45 4.97 16.59
3/15/2021 5:15:00 PM 8.9 48.02 0.716 8.46 8.79 16.47
3/15/2021 5:30:00 PM 8.88 47.984 0.716 8.46 4.95 16.36
3/15/2021 5:45:00 PM 8.86 47.948 0.716 8.47 6.04 16.21
3/15/2021 6:00:00 PM 8.85 47.93 0.715 8.47 8.71 16.14
3/15/2021 6:15:00 PM 8.82 47.876 0.714 8.47 8.54 15.92
3/15/2021 6:30:00 PM 8.79 47.822 0.714 8.47 5.59 15.75
3/15/2021 6:45:00 PM 8.75 47.75 0.715 8.46 7.5 15.53
3/15/2021 7:00:00 PM 8.7 47.66 0.714 8.46 4.78 15.3
3/15/2021 7:15:00 PM 8.63 47.534 0.714 8.45 8.58 15.09
3/15/2021 7:30:00 PM 8.55 47.39 0.714 8.43 6.05 14.81
3/15/2021 7:45:00 PM 8.47 47.246 0.714 8.42 5.38 14.61
3/15/2021 8:00:00 PM 8.38 47.084 0.715 8.41 8.21 14.33
3/15/2021 8:15:00 PM 8.28 46.904 0.715 8.39 8.22 14.09
3/15/2021 8:30:00 PM 8.18 46.724 0.715 8.37 6.93 13.91
3/15/2021 8:45:00 PM 8.07 46.526 0.715 8.35 4.97 13.68
3/15/2021 9:00:00 PM 7.97 46.346 0.715 8.33 6.97 13.43
3/15/2021 9:15:00 PM 7.88 46.184 0.715 8.31 6.94 13.22
3/15/2021 9:30:00 PM 7.79 46.022 0.715 8.29 6.75 13.02
3/15/2021 9:45:00 PM 7.69 45.842 0.714 8.27 8.52 12.81
3/15/2021 10:00:00 PM 7.6 45.68 0.714 8.25 6.76 12.66
3/15/2021 10:15:00 PM 7.51 45.518 0.714 8.22 5.39 12.5
3/15/2021 10:30:00 PM 7.42 45.356 0.714 8.2 5.66 12.37
3/15/2021 10:45:00 PM 7.34 45.212 0.714 8.18 4.11 12.22
3/15/2021 11:00:00 PM 7.26 45.068 0.714 8.16 5.24 12.13
3/15/2021 11:15:00 PM 7.18 44.924 0.712 8.14 6.28 12.01
3/15/2021 11:30:00 PM 7.11 44.798 0.712 8.12 5.56 11.93
3/15/2021 11:45:00 PM 7.05 44.69 0.712 8.1 5.25 11.84
3/16/2021 12:00:00 AM 6.98 44.564 0.71 8.08 5.9 11.73
3/16/2021 12:15:00 AM 6.93 44.474 0.709 8.06 6.34 11.65
3/16/2021 12:30:00 AM 6.87 44.366 0.709 8.04 5.19 11.61
3/16/2021 12:45:00 AM 6.82 44.276 0.708 8.03 5.63 11.53
3/16/2021 1:00:00 AM 6.77 44.186 0.706 8.01 16.48 11.51
3/16/2021 1:15:00 AM 6.73 44.114 0.705 8 5.15 11.44
3/16/2021 1:30:00 AM 6.7 44.06 0.706 7.98 5.32 11.4
3/16/2021 1:45:00 AM 6.66 43.988 0.704 7.97 6.29 11.38
3/16/2021 2:00:00 AM 6.63 43.934 0.703 7.96 5.01 11.33
3/16/2021 2:15:00 AM 6.61 43.898 0.703 7.95 4.44 11.31
3/16/2021 2:30:00 AM 6.56 43.808 0.701 7.94 5.14 11.31
3/16/2021 2:45:00 AM 6.51 43.718 0.7 7.94 7.35 11.28
3/16/2021 3:00:00 AM 6.5 43.7 0.7 7.93 14.51 11.28
3/16/2021 3:15:00 AM 6.48 43.664 0.698 7.93 4.51 11.27
3/16/2021 3:30:00 AM 6.47 43.646 0.697 7.93 6.25 11.23
3/16/2021 3:45:00 AM 6.45 43.61 0.696 7.92 6.68 11.28
3/16/2021 4:00:00 AM 6.43 43.574 0.695 7.91 5.7 11.25
3/16/2021 4:15:00 AM 6.42 43.556 0.694 7.92 8.25 11.25
3/16/2021 4:30:00 AM 6.41 43.538 0.694 7.92 7.65 11.25
3/16/2021 4:45:00 AM 6.4 43.52 0.694 7.92 5.06 11.25
3/16/2021 5:00:00 AM 6.38 43.484 0.693 7.91 5.83 11.26
3/16/2021 5:15:00 AM 6.37 43.466 0.693 7.91 5.21 11.27
3/16/2021 5:30:00 AM 6.36 43.448 0.692 7.91 4.54 11.24
3/16/2021 5:45:00 AM 6.35 43.43 0.692 7.92 3.51 11.18
3/16/2021 6:00:00 AM 6.35 43.43 0.693 7.92 3.84 11.28
3/16/2021 6:15:00 AM 6.34 43.412 0.692 7.92 4.72 11.24
3/16/2021 6:30:00 AM 6.33 43.394 0.693 7.92 4.05 11.25
3/16/2021 6:45:00 AM 6.33 43.394 0.693 7.92 4.07 11.2
3/16/2021 7:00:00 AM 6.32 43.376 0.694 7.92 4.37 11.24
3/16/2021 7:15:00 AM 6.31 43.358 0.695 7.91 3.48 11.21
3/16/2021 7:30:00 AM 6.3 43.34 0.696 7.91 4.71 11.23
3/16/2021 7:45:00 AM 6.29 43.322 0.697 7.92 7.74 11.22
3/16/2021 8:00:00 AM 6.28 43.304 0.697 7.91 5.64 11.23
3/16/2021 8:15:00 AM 6.27 43.286 0.699 7.91 4.07 11.28
3/16/2021 8:30:00 AM 6.28 43.304 0.7 7.91 3.59 11.32
3/16/2021 8:45:00 AM 6.27 43.286 0.701 7.92 3.98 11.38
3/16/2021 9:00:00 AM 6.27 43.286 0.703 7.92 3.98 11.44
3/16/2021 9:15:00 AM 6.27 43.286 0.703 7.92 3.68 11.57
3/16/2021 9:30:00 AM 6.28 43.304 0.704 7.93 4.28 11.69
3/16/2021 9:45:00 AM 6.28 43.304 0.705 7.93 4.38 11.82
3/16/2021 10:00:00 AM 6.28 43.304 0.706 7.94 4.43 11.95
3/16/2021 10:15:00 AM 6.29 43.322 0.706 7.95 4.06 12.1
3/16/2021 10:30:00 AM 6.29 43.322 0.708 7.96 3.8 12.23
3/16/2021 10:45:00 AM 6.29 43.322 0.708 7.97 4.48 12.4
3/16/2021 11:00:00 AM 6.32 43.376 0.71 7.98 4.48 12.63
3/16/2021 11:15:00 AM 6.33 43.394 0.71 7.99 4.42 12.79
3/16/2021 11:30:00 AM 6.35 43.43 0.71 8.01 4.42 12.99
3/16/2021 11:45:00 AM 6.36 43.448 0.711 8.02 3.87 13.18
3/16/2021 12:00:00 PM 6.37 43.466 0.711 8.04 3.5 13.35
3/16/2021 12:15:00 PM 6.41 43.538 0.712 8.05 4.39 13.57
3/16/2021 12:30:00 PM 6.45 43.61 0.711 8.07 4.03 13.84
3/16/2021 12:45:00 PM 6.49 43.682 0.712 8.09 3.84 14.1
3/16/2021 1:00:00 PM 6.49 43.682 0.711 8.1 3.6 14.23
3/16/2021 1:15:00 PM 6.5 43.7 0.712 8.12 6 14.33
3/16/2021 1:30:00 PM 6.53 43.754 0.711 8.13 3.36 14.54
3/16/2021 1:45:00 PM 6.53 43.754 0.712 8.14 3.3 14.57
3/16/2021 2:00:00 PM 6.53 43.754 0.712 8.15 3.43 14.63
3/16/2021 2:15:00 PM 6.54 43.772 0.712 8.17 4.69 14.76
3/16/2021 2:30:00 PM 6.54 43.772 0.71 8.18 3.76 14.85
3/16/2021 2:45:00 PM 6.54 43.772 0.71 8.19 3.49 14.78
3/16/2021 3:00:00 PM 6.53 43.754 0.71 8.19 3.23 14.76
3/16/2021 3:15:00 PM 6.54 43.772 0.709 8.2 3.13 14.79
3/16/2021 3:30:00 PM 6.54 43.772 0.709 8.21 3.4 14.83
3/16/2021 3:45:00 PM 6.56 43.808 0.708 8.22 3.59 14.84
3/16/2021 4:00:00 PM 6.58 43.844 0.707 8.24 2.93 14.98
3/16/2021 4:15:00 PM 6.63 43.934 0.707 8.24 3.34 15.04
3/16/2021 4:30:00 PM 6.65 43.97 0.706 8.25 3.45 15.18
3/16/2021 4:45:00 PM 6.66 43.988 0.706 8.26 3.17 15.14
3/16/2021 5:00:00 PM 6.67 44.006 0.706 8.27 3.38 15.08
3/16/2021 5:15:00 PM 6.69 44.042 0.705 8.27 3.13 15.01
3/16/2021 5:30:00 PM 6.69 44.042 0.704 8.27 3.07 14.96
3/16/2021 5:45:00 PM 6.71 44.078 0.704 8.27 3.43 14.84
3/16/2021 6:00:00 PM 6.7 44.06 0.703 8.27 3.35 14.72
3/16/2021 6:15:00 PM 6.71 44.078 0.702 8.27 3.44 14.66
3/16/2021 6:30:00 PM 6.72 44.096 0.703 8.28 2.87 14.59
3/16/2021 6:45:00 PM 6.72 44.096 0.704 8.27 3.37 14.44
3/16/2021 7:00:00 PM 6.71 44.078 0.704 8.27 3.57 14.23
3/16/2021 7:15:00 PM 6.71 44.078 0.703 8.25 2.78 14.04
3/16/2021 7:30:00 PM 6.7 44.06 0.704 8.25 3.24 13.89
3/16/2021 7:45:00 PM 6.69 44.042 0.704 8.23 3.86 13.69
3/16/2021 8:00:00 PM 6.68 44.024 0.703 8.22 2.86 13.54
3/16/2021 8:15:00 PM 6.67 44.006 0.704 8.21 2.86 13.27
3/16/2021 8:30:00 PM 6.66 43.988 0.701 8.19 3.86 13.16
3/16/2021 8:45:00 PM 6.65 43.97 0.704 8.18 3.76 13.01
3/16/2021 9:00:00 PM 6.64 43.952 0.705 8.16 3.21 12.83
3/16/2021 9:15:00 PM 6.63 43.934 0.704 8.15 4.3 12.71
3/16/2021 9:30:00 PM 6.62 43.916 0.705 8.13 3.03 12.59
3/16/2021 9:45:00 PM 6.61 43.898 0.704 8.12 3.11 12.44
3/16/2021 10:00:00 PM 6.6 43.88 0.704 8.1 3.32 12.34
3/16/2021 10:15:00 PM 6.59 43.862 0.705 8.09 3.29 12.24
3/16/2021 10:30:00 PM 6.58 43.844 0.704 8.08 3.71 12.14
3/16/2021 10:45:00 PM 6.57 43.826 0.703 8.06 3.26 12.06
3/16/2021 11:00:00 PM 6.56 43.808 0.703 8.05 2.99 11.95
3/16/2021 11:15:00 PM 6.55 43.79 0.703 8.04 3.19 11.88
3/16/2021 11:30:00 PM 6.54 43.772 0.702 8.03 2.86 11.83
3/16/2021 11:45:00 PM 6.53 43.754 0.703 8.01 3.32 11.75
3/17/2021 12:00:00 AM 6.52 43.736 0.702 8 3.35 11.68
3/17/2021 12:15:00 AM 6.5 43.7 0.702 7.99 3.23 11.66
3/17/2021 12:30:00 AM 6.5 43.7 0.701 7.98 3.28 11.6
3/17/2021 12:45:00 AM 6.49 43.682 0.702 7.97 3.37 11.54
3/17/2021 1:00:00 AM 6.47 43.646 0.702 7.96 2.74 11.47
3/17/2021 1:15:00 AM 6.46 43.628 0.703 7.95 2.91 11.47
3/17/2021 1:30:00 AM 6.45 43.61 0.703 7.94 3.63 11.38
3/17/2021 1:45:00 AM 6.44 43.592 0.704 7.93 4.18 11.36
3/17/2021 2:00:00 AM 6.43 43.574 0.704 7.92 3.17 11.38
3/17/2021 2:15:00 AM 6.42 43.556 0.705 7.91 3.56 11.31
3/17/2021 2:30:00 AM 6.42 43.556 0.705 7.91 3.38 11.3
3/17/2021 2:45:00 AM 6.41 43.538 0.707 7.9 3.2 11.3
3/17/2021 3:00:00 AM 6.4 43.52 0.708 7.9 3.13 11.28
3/17/2021 3:15:00 AM 6.4 43.52 0.71 7.9 3.28 11.29
3/17/2021 3:30:00 AM 6.39 43.502 0.712 7.89 4.25 11.27
3/17/2021 3:45:00 AM 6.39 43.502 0.715 7.89 3.49 11.28
3/17/2021 4:00:00 AM 6.38 43.484 0.716 7.88 3.11 11.24
3/17/2021 4:15:00 AM 6.38 43.484 0.719 7.88 4.01 11.27
3/17/2021 4:30:00 AM 6.38 43.484 0.72 7.88 3.17 11.26
3/17/2021 4:45:00 AM 6.37 43.466 0.722 7.88 6.36 11.27
3/17/2021 5:00:00 AM 6.37 43.466 0.724 7.88 4.49 11.24
3/17/2021 5:15:00 AM 6.37 43.466 0.725 7.88 3.32 11.22
3/17/2021 5:30:00 AM 6.37 43.466 0.726 7.89 3.45 11.25
3/17/2021 5:45:00 AM 6.37 43.466 0.726 7.88 2.77 11.26
3/17/2021 6:00:00 AM 6.37 43.466 0.728 7.88 3.17 11.26
3/17/2021 6:15:00 AM 6.36 43.448 0.729 7.88 3.39 11.25
3/17/2021 6:30:00 AM 6.36 43.448 0.73 7.88 3.15 11.27
3/17/2021 6:45:00 AM 6.36 43.448 0.731 7.88 3.71 11.26
3/17/2021 7:00:00 AM 6.36 43.448 0.731 7.88 2.83 11.24
3/17/2021 7:15:00 AM 6.36 43.448 0.732 7.88 3.86 11.25
3/17/2021 7:30:00 AM 6.36 43.448 0.733 7.88 2.78 11.27
3/17/2021 7:45:00 AM 6.36 43.448 0.733 7.87 3.35 11.27
3/17/2021 8:00:00 AM 6.36 43.448 0.733 7.88 3.8 11.29
3/17/2021 8:15:00 AM 6.37 43.466 0.734 7.88 3.26 11.35
3/17/2021 8:30:00 AM 6.37 43.466 0.733 7.88 3.65 11.43
3/17/2021 8:45:00 AM 6.38 43.484 0.733 7.88 3.05 11.44
3/17/2021 9:00:00 AM 6.39 43.502 0.734 7.89 3.77 11.6
3/17/2021 9:15:00 AM 6.41 43.538 0.735 7.89 4.24 11.69
3/17/2021 9:30:00 AM 6.43 43.574 0.736 7.9 3.42 11.83
3/17/2021 9:45:00 AM 6.45 43.61 0.735 7.91 3.09 11.98
3/17/2021 10:00:00 AM 6.47 43.646 0.736 7.92 3.65 12.09
3/17/2021 10:15:00 AM 6.5 43.7 0.736 7.93 3.09 12.27
3/17/2021 10:30:00 AM 6.54 43.772 0.737 7.93 3.74 12.42
3/17/2021 10:45:00 AM 6.58 43.844 0.737 7.95 3.4 12.69
3/17/2021 11:00:00 AM 6.62 43.916 0.738 7.96 3.18 12.88
3/17/2021 11:15:00 AM 6.67 44.006 0.737 7.98 3.22 13.16
3/17/2021 11:30:00 AM 6.72 44.096 0.738 8 4.91 13.35
3/17/2021 11:45:00 AM 6.77 44.186 0.738 8.02 3.69 13.59
3/17/2021 12:00:00 PM 6.83 44.294 0.739 8.03 3.22 13.8
3/17/2021 12:15:00 PM 6.9 44.42 0.739 8.06 3.11 14.06
3/17/2021 12:30:00 PM 6.97 44.546 0.737 8.07 3.04 14.35
3/17/2021 12:45:00 PM 7.05 44.69 0.738 8.1 3.13 14.65
3/17/2021 1:00:00 PM 7.12 44.816 0.735 8.12 3.54 14.84
3/17/2021 1:15:00 PM 7.17 44.906 0.737 8.14 3.47 14.97
3/17/2021 1:30:00 PM 7.27 45.086 0.737 8.16 3.57 15.18
3/17/2021 1:45:00 PM 7.33 45.194 0.737 8.18 2.9 15.38
3/17/2021 2:00:00 PM 7.37 45.266 0.737 8.2 3.27 15.53
3/17/2021 2:15:00 PM 7.41 45.338 0.736 8.21 3.34 15.59
3/17/2021 2:30:00 PM 7.45 45.41 0.736 8.23 2.45 15.73
3/17/2021 2:45:00 PM 7.49 45.482 0.735 8.24 2.69 15.79
3/17/2021 3:00:00 PM 7.53 45.554 0.734 8.26 3.36 15.84
3/17/2021 3:15:00 PM 7.56 45.608 0.733 8.27 3.06 15.85
3/17/2021 3:30:00 PM 7.59 45.662 0.733 8.28 5.07 15.82
3/17/2021 3:45:00 PM 7.61 45.698 0.732 8.29 3.32 15.76
3/17/2021 4:00:00 PM 7.65 45.77 0.731 8.3 3.84 15.79
3/17/2021 4:15:00 PM 7.68 45.824 0.731 8.32 3.31 15.8
3/17/2021 4:30:00 PM 7.7 45.86 0.73 8.33 3.85 15.74
3/17/2021 4:45:00 PM 7.73 45.914 0.729 8.33 2.72 15.67
3/17/2021 5:00:00 PM 7.75 45.95 0.729 8.34 3.24 15.56
3/17/2021 5:15:00 PM 7.78 46.004 0.728 8.34 3.07 15.5
3/17/2021 5:30:00 PM 7.8 46.04 0.728 8.34 3.84 15.39
3/17/2021 5:45:00 PM 7.81 46.058 0.728 8.34 4.3 15.23
3/17/2021 6:00:00 PM 7.81 46.058 0.728 8.34 3.48 15
3/17/2021 6:15:00 PM 7.82 46.076 0.728 8.34 5.04 14.8
3/17/2021 6:30:00 PM 7.83 46.094 0.727 8.33 3.34 14.63
3/17/2021 6:45:00 PM 7.84 46.112 0.727 8.33 3.48 14.48
3/17/2021 7:00:00 PM 7.84 46.112 0.728 8.32 3.9 14.28
3/17/2021 7:15:00 PM 7.84 46.112 0.729 8.31 3.91 14.04
3/17/2021 7:30:00 PM 7.84 46.112 0.728 8.3 3.23 13.84
3/17/2021 7:45:00 PM 7.83 46.094 0.729 8.28 3.7 13.56
3/17/2021 8:00:00 PM 7.83 46.094 0.729 8.27 3.03 13.4
3/17/2021 8:15:00 PM 7.82 46.076 0.73 8.25 2.35 13.19
3/17/2021 8:30:00 PM 7.81 46.058 0.73 8.23 3.83 13
3/17/2021 8:45:00 PM 7.8 46.04 0.731 8.21 3.77 12.83
3/17/2021 9:00:00 PM 7.79 46.022 0.731 8.19 3.19 12.63
3/17/2021 9:15:00 PM 7.77 45.986 0.732 8.17 3.45 12.45
3/17/2021 9:30:00 PM 7.76 45.968 0.732 8.15 3 12.27
3/17/2021 9:45:00 PM 7.75 45.95 0.733 8.13 3.75 12.15
3/17/2021 10:00:00 PM 7.74 45.932 0.733 8.11 3.35 11.99
3/17/2021 10:15:00 PM 7.73 45.914 0.733 8.09 2.96 11.85
3/17/2021 10:30:00 PM 7.72 45.896 0.733 8.07 3.63 11.76
3/17/2021 10:45:00 PM 7.71 45.878 0.731 8.06 3.35 11.66
3/17/2021 11:00:00 PM 7.71 45.878 0.733 8.04 3.19 11.55
3/17/2021 11:15:00 PM 7.7 45.86 0.734 8.02 3.19 11.46
3/17/2021 11:30:00 PM 7.7 45.86 0.734 8.01 2.84 11.37
3/17/2021 11:45:00 PM 7.69 45.842 0.734 7.99 3.37 11.3
3/18/2021 12:00:00 AM 7.69 45.842 0.734 7.98 4.67 11.21
3/18/2021 12:15:00 AM 7.69 45.842 0.734 7.97 4.05 11.16
3/18/2021 12:30:00 AM 7.68 45.824 0.734 7.96 3.13 11.09
3/18/2021 12:45:00 AM 7.68 45.824 0.735 7.95 3.89 11.05
3/18/2021 1:00:00 AM 7.68 45.824 0.735 7.93 2.78 11.01
3/18/2021 1:15:00 AM 7.69 45.842 0.735 7.92 2.99 10.96
3/18/2021 1:30:00 AM 7.69 45.842 0.735 7.92 2.35 10.86
3/18/2021 1:45:00 AM 7.69 45.842 0.736 7.91 3.56 10.86
3/18/2021 2:00:00 AM 7.69 45.842 0.735 7.9 2.65 10.84
3/18/2021 2:15:00 AM 7.7 45.86 0.735 7.9 2.61 10.83
3/18/2021 2:30:00 AM 7.7 45.86 0.735 7.89 2.95 10.79
3/18/2021 2:45:00 AM 7.71 45.878 0.735 7.89 2.68 10.77
3/18/2021 3:00:00 AM 7.71 45.878 0.735 7.88 2.93 10.77
3/18/2021 3:15:00 AM 7.72 45.896 0.736 7.88 2.97 10.75
3/18/2021 3:30:00 AM 7.72 45.896 0.736 7.88 3.33 10.74
3/18/2021 3:45:00 AM 7.73 45.914 0.736 7.87 3.06 10.74
3/18/2021 4:00:00 AM 7.73 45.914 0.737 7.87 3.64 10.72
3/18/2021 4:15:00 AM 7.74 45.932 0.737 7.87 3.02 10.63
3/18/2021 4:30:00 AM 7.75 45.95 0.737 7.87 3.8 10.71
3/18/2021 4:45:00 AM 7.76 45.968 0.738 7.87 3.02 10.69
3/18/2021 5:00:00 AM 7.76 45.968 0.737 7.87 3.88 10.7
3/18/2021 5:15:00 AM 7.77 45.986 0.739 7.87 3.93 10.66
3/18/2021 5:30:00 AM 7.78 46.004 0.739 7.87 3.61 10.65
3/18/2021 5:45:00 AM 7.79 46.022 0.74 7.87 4.75 10.65
3/18/2021 6:00:00 AM 7.8 46.04 0.74 7.86 3.15 10.64
3/18/2021 6:15:00 AM 7.82 46.076 0.741 7.87 3.64 10.64
3/18/2021 6:30:00 AM 7.83 46.094 0.742 7.86 2.83 10.6
3/18/2021 6:45:00 AM 7.84 46.112 0.743 7.86 2.6 10.59
3/18/2021 7:00:00 AM 7.85 46.13 0.743 7.87 3.03 10.59
3/18/2021 7:15:00 AM 7.86 46.148 0.744 7.87 2.42 10.58
3/18/2021 7:30:00 AM 7.87 46.166 0.745 7.87 2.69 10.58
3/18/2021 7:45:00 AM 7.88 46.184 0.745 7.86 2.43 10.55
3/18/2021 8:00:00 AM 7.9 46.22 0.746 7.87 3.17 10.61
3/18/2021 8:15:00 AM 7.91 46.238 0.746 7.87 2.98 10.61
3/18/2021 8:30:00 AM 7.93 46.274 0.746 7.87 3.58 10.61
3/18/2021 8:45:00 AM 7.94 46.292 0.745 7.87 2.63 10.64
3/18/2021 9:00:00 AM 7.96 46.328 0.746 7.87 3.08 10.66
3/18/2021 9:15:00 AM 7.97 46.346 0.746 7.88 2.93 10.69
3/18/2021 9:30:00 AM 7.99 46.382 0.746 7.88 3.46 10.79
3/18/2021 9:45:00 AM 8.01 46.418 0.745 7.88 3.11 10.8
3/18/2021 10:00:00 AM 8.03 46.454 0.747 7.88 2.7 10.87
3/18/2021 10:15:00 AM 8.04 46.472 0.746 7.87 2.93 10.88
3/18/2021 10:30:00 AM 8.06 46.508 0.746 7.87 3.27 10.91
3/18/2021 10:45:00 AM 8.07 46.526 0.744 7.88 3.51 10.99
3/18/2021 11:00:00 AM 8.09 46.562 0.743 7.88 3.74 11.06
3/18/2021 11:15:00 AM 8.11 46.598 0.744 7.89 4.39 11.14
3/18/2021 11:30:00 AM 8.13 46.634 0.744 7.89 4.59 11.13
3/18/2021 11:45:00 AM 8.16 46.688 0.744 7.89 3.8 11.22
3/18/2021 12:00:00 PM 8.19 46.742 0.743 7.9 3.69 11.36
3/18/2021 12:15:00 PM 8.21 46.778 0.743 7.91 3.91 11.53
3/18/2021 12:30:00 PM 8.24 46.832 0.742 7.92 3.57 11.57
3/18/2021 12:45:00 PM 8.27 46.886 0.742 7.92 5.58 11.61
3/18/2021 1:00:00 PM 8.29 46.922 0.74 7.92 9.85 11.67
3/18/2021 1:15:00 PM 8.31 46.958 0.738 7.93 5.9 11.69
3/18/2021 1:30:00 PM 8.34 47.012 0.738 7.94 3.86 11.77
3/18/2021 1:45:00 PM 8.36 47.048 0.736 7.94 5.83 11.81
3/18/2021 2:00:00 PM 8.39 47.102 0.735 7.94 4.06 11.83
3/18/2021 2:15:00 PM 8.41 47.138 0.732 7.95 5.89 11.85
3/18/2021 2:30:00 PM 8.44 47.192 0.731 7.95 5.85 11.84
3/18/2021 2:45:00 PM 8.46 47.228 0.729 7.95 6.28 11.82
3/18/2021 3:00:00 PM 8.48 47.264 0.727 7.95 5.19 11.79
3/18/2021 3:15:00 PM 8.51 47.318 0.728 7.95 5.8 11.85
3/18/2021 3:30:00 PM 8.53 47.354 0.73 7.95 7.16 11.88
3/18/2021 3:45:00 PM 8.54 47.372 0.729 7.96 5.45 11.83
3/18/2021 4:00:00 PM 8.55 47.39 0.73 7.96 6.09 11.82
3/18/2021 4:15:00 PM 8.58 47.444 0.73 7.96 6.54 11.82
3/18/2021 4:30:00 PM 8.59 47.462 0.73 7.96 5.27 11.81
3/18/2021 4:45:00 PM 8.61 47.498 0.729 7.96 5.25 11.77
3/18/2021 5:00:00 PM 8.64 47.552 0.729 7.96 4.65 11.73
3/18/2021 5:15:00 PM 8.65 47.57 0.727 7.96 5.17 11.71
3/18/2021 5:30:00 PM 8.66 47.588 0.725 7.96 5.53 11.64
3/18/2021 5:45:00 PM 8.67 47.606 0.722 7.96 4.15 11.58
3/18/2021 6:00:00 PM 8.68 47.624 0.719 7.95 6.61 11.49
3/18/2021 6:15:00 PM 8.69 47.642 0.716 7.95 5.72 11.52
3/18/2021 6:30:00 PM 8.7 47.66 0.712 7.95 8.52 11.47
3/18/2021 6:45:00 PM 8.71 47.678 0.71 7.94 6.51 11.33
3/18/2021 7:00:00 PM 8.72 47.696 0.707 7.93 5.91 11.23
3/18/2021 7:15:00 PM 8.72 47.696 0.706 7.92 7.18 11.09
3/18/2021 7:30:00 PM 8.72 47.696 0.703 7.91 14.73 11.06
3/18/2021 7:45:00 PM 8.72 47.696 0.701 7.9 6.83 10.96
3/18/2021 8:00:00 PM 8.72 47.696 0.699 7.88 7.65 10.89
3/18/2021 8:15:00 PM 8.71 47.678 0.698 7.87 7.12 10.84
3/18/2021 8:30:00 PM 8.71 47.678 0.696 7.86 7.7 10.71
3/18/2021 8:45:00 PM 8.7 47.66 0.695 7.85 8 10.67
3/18/2021 9:00:00 PM 8.7 47.66 0.694 7.84 7.05 10.65
3/18/2021 9:15:00 PM 8.69 47.642 0.694 7.84 7.26 10.54
3/18/2021 9:30:00 PM 8.68 47.624 0.694 7.83 6.13 10.51
3/18/2021 9:45:00 PM 8.68 47.624 0.694 7.82 6.56 10.47
3/18/2021 10:00:00 PM 8.68 47.624 0.695 7.82 6.61 10.44
3/18/2021 10:15:00 PM 8.67 47.606 0.694 7.81 9.29 10.4
3/18/2021 10:30:00 PM 8.67 47.606 0.695 7.8 8.87 10.37
3/18/2021 10:45:00 PM 8.67 47.606 0.694 7.8 8.14 10.35
3/18/2021 11:00:00 PM 8.66 47.588 0.694 7.79 8.27 10.34
3/18/2021 11:15:00 PM 8.66 47.588 0.693 7.79 8.69 10.29
3/18/2021 11:30:00 PM 8.66 47.588 0.693 7.78 10.84 10.29
3/18/2021 11:45:00 PM 8.65 47.57 0.692 7.78 7.51 10.27
3/19/2021 12:00:00 AM 8.65 47.57 0.691 7.77 6.94 10.27
3/19/2021 12:15:00 AM 8.65 47.57 0.69 7.78 12.18 10.25
3/19/2021 12:30:00 AM 8.65 47.57 0.69 7.78 10.22 10.2
3/19/2021 12:45:00 AM 8.64 47.552 0.689 7.76 9.1 10.21
3/19/2021 1:00:00 AM 8.64 47.552 0.688 7.76 8.21 10.2
3/19/2021 1:15:00 AM 8.63 47.534 0.688 7.76 11.22 10.22
3/19/2021 1:30:00 AM 8.63 47.534 0.688 7.76 23.02 10.23
3/19/2021 1:45:00 AM 8.62 47.516 0.688 7.75 7.35 10.23
3/19/2021 2:00:00 AM 8.6 47.48 0.688 7.76 11.05 10.23
3/19/2021 2:15:00 AM 8.59 47.462 0.69 7.75 7.81 10.22
3/19/2021 2:30:00 AM 8.58 47.444 0.69 7.76 9.19 10.24
3/19/2021 2:45:00 AM 8.57 47.426 0.691 7.75 8.6 10.26
3/19/2021 3:00:00 AM 8.55 47.39 0.692 7.75 6.72 10.27
3/19/2021 3:15:00 AM 8.53 47.354 0.693 7.75 6.86 10.29
3/19/2021 3:30:00 AM 8.51 47.318 0.695 7.75 6.72 10.25
3/19/2021 3:45:00 AM 8.49 47.282 0.697 7.76 7.3 10.28
3/19/2021 4:00:00 AM 8.45 47.21 0.699 7.76 7.61 10.29
3/19/2021 4:15:00 AM 8.42 47.156 0.7 7.75 7.34 10.29
3/19/2021 4:30:00 AM 8.38 47.084 0.702 7.76 6.62 10.32
3/19/2021 4:45:00 AM 8.34 47.012 0.704 7.75 9.24 10.3
3/19/2021 5:00:00 AM 8.31 46.958 0.706 7.75 6.13 10.33
3/19/2021 5:15:00 AM 8.27 46.886 0.708 7.75 7.59 10.34
3/19/2021 5:30:00 AM 8.22 46.796 0.709 7.75 9.2 10.34
3/19/2021 5:45:00 AM 8.18 46.724 0.712 7.75 12.37 10.36
3/19/2021 6:00:00 AM 8.12 46.616 0.713 7.75 5.85 10.38
3/19/2021 6:15:00 AM 8.07 46.526 0.7 7.76 7.07 10.39
3/19/2021 6:30:00 AM 8.01 46.418 0.714 7.76 6.73 10.4
3/19/2021 6:45:00 AM 7.94 46.292 0.715 7.75 5.91 10.44
3/19/2021 7:00:00 AM 7.88 46.184 0.715 7.76 5.84 10.43
3/19/2021 7:15:00 AM 7.83 46.094 0.718 7.76 7.89 10.45
3/19/2021 7:30:00 AM 7.77 45.986 0.718 7.76 7.06 10.48
3/19/2021 7:45:00 AM 7.72 45.896 0.719 7.76 8.37 10.56
3/19/2021 8:00:00 AM 7.68 45.824 0.718 7.77 6.25 10.6
3/19/2021 8:15:00 AM 7.64 45.752 0.717 7.77 4.93 10.7
3/19/2021 8:30:00 AM 7.6 45.68 0.716 7.77 5.7 10.78
3/19/2021 8:45:00 AM 7.56 45.608 0.716 7.78 5.18 10.89
3/19/2021 9:00:00 AM 7.53 45.554 0.714 7.79 6.83 10.98
3/19/2021 9:15:00 AM 7.51 45.518 0.712 7.79 8.35 11.18
3/19/2021 9:30:00 AM 7.49 45.482 0.709 7.8 5.57 11.33
3/19/2021 9:45:00 AM 7.51 45.518 0.707 7.82 5.73 11.54
3/19/2021 10:00:00 AM 7.5 45.5 0.707 7.83 4.54 11.76
3/19/2021 10:15:00 AM 7.49 45.482 0.706 7.85 5.15 11.9
3/19/2021 10:30:00 AM 7.56 45.608 0.703 7.87 5.46 12.18
3/19/2021 10:45:00 AM 7.67 45.806 0.702 7.89 5.6 12.5
3/19/2021 11:00:00 AM 7.78 46.004 0.701 7.91 5 12.81
3/19/2021 11:15:00 AM 7.88 46.184 0.699 7.94 4.87 13.07
3/19/2021 11:30:00 AM 7.94 46.292 0.701 7.96 4.32 13.31
3/19/2021 11:45:00 AM 8.08 46.544 0.699 7.99 11.07 13.62
3/19/2021 12:00:00 PM 8.26 46.868 0.697 8.01 5.12 13.94
3/19/2021 12:15:00 PM 8.36 47.048 0.696 8.03 7.13 14.14
3/19/2021 12:30:00 PM 8.47 47.246 0.69 8.08 4.53 14.46
3/19/2021 12:45:00 PM 8.59 47.462 0.695 8.1 4.78 14.66
3/19/2021 1:00:00 PM 8.74 47.732 0.694 8.12 4.75 14.94
3/19/2021 1:15:00 PM 8.88 47.984 0.691 8.15 4.25 15.14
3/19/2021 1:30:00 PM 9.02 48.236 0.69 8.16 4.54 15.43
3/19/2021 1:45:00 PM 9.16 48.488 0.689 8.19 4.98 15.66
3/19/2021 2:00:00 PM 9.28 48.704 0.685 8.21 5.34 15.69
3/19/2021 2:15:00 PM 9.4 48.92 0.683 8.23 4.43 15.88
3/19/2021 2:30:00 PM 9.51 49.118 0.68 8.26 4.11 16.03
3/19/2021 2:45:00 PM 9.62 49.316 0.671 8.27 5.15 16.04
3/19/2021 3:00:00 PM 9.73 49.514 0.681 8.3 4.5 16.14
3/19/2021 3:15:00 PM 9.83 49.694 0.678 8.32 4.09 16.18
3/19/2021 3:30:00 PM 9.9 49.82 0.677 8.33 4.46 16.27
3/19/2021 3:45:00 PM 9.97 49.946 0.671 8.35 6.51 16.21
3/19/2021 4:00:00 PM 10.01 50.018 0.673 8.36 4.85 16.24
3/19/2021 4:15:00 PM 10.04 50.072 0.672 8.37 4.77 16.23
3/19/2021 4:30:00 PM 10.05 50.09 0.667 8.38 4.13 16.1
3/19/2021 4:45:00 PM 10.04 50.072 0.665 8.39 4.64 16.08
3/19/2021 5:00:00 PM 10.02 50.036 0.667 8.39 4.45 15.88
3/19/2021 5:15:00 PM 10 50 0.676 8.39 9.15 15.78
3/19/2021 5:30:00 PM 9.97 49.946 0.675 8.39 8.28 15.63
3/19/2021 5:45:00 PM 9.94 49.892 0.676 8.38 5.36 15.46
3/19/2021 6:00:00 PM 9.91 49.838 0.676 8.38 4.61 15.23
3/19/2021 6:15:00 PM 9.88 49.784 0.677 8.38 4.6 15.09
3/19/2021 6:30:00 PM 9.84 49.712 0.676 8.37 6.72 14.89
3/19/2021 6:45:00 PM 9.8 49.64 0.676 8.36 8.21 14.76
3/19/2021 7:00:00 PM 9.74 49.532 0.678 8.35 4.39 14.52
3/19/2021 7:15:00 PM 9.67 49.406 0.68 8.33 4.65 14.27
3/19/2021 7:30:00 PM 9.59 49.262 0.679 8.31 4.71 14.05
3/19/2021 7:45:00 PM 9.49 49.082 0.682 8.29 5.2 13.77
3/19/2021 8:00:00 PM 9.4 48.92 0.683 8.26 5.93 13.55
3/19/2021 8:15:00 PM 9.3 48.74 0.687 8.24 4.58 13.27
3/19/2021 8:30:00 PM 9.2 48.56 0.689 8.21 5.49 13
3/19/2021 8:45:00 PM 9.1 48.38 0.69 8.18 5.21 12.79
3/19/2021 9:00:00 PM 8.99 48.182 0.693 8.16 4.69 12.54
3/19/2021 9:15:00 PM 8.88 47.984 0.697 8.12 4.58 12.36
3/19/2021 9:30:00 PM 8.78 47.804 0.698 8.1 6.68 12.13
3/19/2021 9:45:00 PM 8.68 47.624 0.701 8.07 4.25 11.94
3/19/2021 10:00:00 PM 8.58 47.444 0.701 8.04 5.09 11.78
3/19/2021 10:15:00 PM 8.48 47.264 0.704 8.01 4.22 11.63
3/19/2021 10:30:00 PM 8.39 47.102 0.705 7.99 5.68 11.52
3/19/2021 10:45:00 PM 8.3 46.94 0.704 7.97 5.77 11.38
3/19/2021 11:00:00 PM 8.21 46.778 0.705 7.95 4.4 11.3
3/19/2021 11:15:00 PM 8.12 46.616 0.707 7.93 4.54 11.16
3/19/2021 11:30:00 PM 8.04 46.472 0.707 7.9 4.42 11.06
3/19/2021 11:45:00 PM 7.95 46.31 0.708 7.89 4.63 10.98
3/20/2021 12:00:00 AM 7.88 46.184 0.71 7.87 5.02 10.89
3/20/2021 12:15:00 AM 7.8 46.04 0.71 7.86 4.82 10.85
3/20/2021 12:30:00 AM 7.73 45.914 0.711 7.84 4.51 10.76
3/20/2021 12:45:00 AM 7.65 45.77 0.711 7.83 4.41 10.72
3/20/2021 1:00:00 AM 7.58 45.644 0.716 7.82 15.71 10.66
3/20/2021 1:15:00 AM 7.52 45.536 0.717 7.81 4.64 10.65
3/20/2021 1:30:00 AM 7.46 45.428 0.717 7.8 5 10.59
3/20/2021 1:45:00 AM 7.39 45.302 0.717 7.8 3.83 10.59
3/20/2021 2:00:00 AM 7.33 45.194 0.717 7.79 4.39 10.62
3/20/2021 2:15:00 AM 7.27 45.086 0.717 7.78 6.54 10.61
3/20/2021 2:30:00 AM 7.22 44.996 0.716 7.78 4.79 10.63
3/20/2021 2:45:00 AM 7.16 44.888 0.717 7.78 4.77 10.63
3/20/2021 3:00:00 AM 7.1 44.78 0.717 7.78 4.58 10.66
3/20/2021 3:15:00 AM 7.05 44.69 0.721 7.77 4.18 10.63
3/20/2021 3:30:00 AM 7 44.6 0.72 7.77 4.36 10.64
3/20/2021 3:45:00 AM 6.95 44.51 0.719 7.77 4.47 10.68
3/20/2021 4:00:00 AM 6.9 44.42 0.72 7.77 5.35 10.73
3/20/2021 4:15:00 AM 6.86 44.348 0.72 7.77 3.94 10.69
3/20/2021 4:30:00 AM 6.81 44.258 0.719 7.77 4.14 10.72
3/20/2021 4:45:00 AM 6.77 44.186 0.72 7.78 5.13 10.75
3/20/2021 5:00:00 AM 6.72 44.096 0.72 7.78 5.89 10.77
3/20/2021 5:15:00 AM 6.68 44.024 0.72 7.78 5.16 10.79
3/20/2021 5:30:00 AM 6.64 43.952 0.721 7.78 4.56 10.78
3/20/2021 5:45:00 AM 6.6 43.88 0.721 7.78 5.79 10.83
3/20/2021 6:00:00 AM 6.55 43.79 0.722 7.78 5.61 10.84
3/20/2021 6:15:00 AM 6.51 43.718 0.722 7.78 3.97 10.83
3/20/2021 6:30:00 AM 6.47 43.646 0.722 7.78 4.41 10.85
3/20/2021 6:45:00 AM 6.43 43.574 0.722 7.78 4.87 10.87
3/20/2021 7:00:00 AM 6.39 43.502 0.722 7.78 3.58 10.85
3/20/2021 7:15:00 AM 6.35 43.43 0.723 7.78 4.19 10.88
3/20/2021 7:30:00 AM 6.31 43.358 0.724 7.78 3.7 10.91
3/20/2021 7:45:00 AM 6.28 43.304 0.724 7.78 3.4 10.97
3/20/2021 8:00:00 AM 6.25 43.25 0.724 7.79 4.03 11.08
3/20/2021 8:15:00 AM 6.23 43.214 0.724 7.79 3.88 11.11
3/20/2021 8:30:00 AM 6.21 43.178 0.725 7.79 5.9 11.19
3/20/2021 8:45:00 AM 6.2 43.16 0.726 7.8 4.2 11.26
3/20/2021 9:00:00 AM 6.21 43.178 0.727 7.81 4.11 11.41
3/20/2021 9:15:00 AM 6.22 43.196 0.727 7.81 4.77 11.55
3/20/2021 9:30:00 AM 6.25 43.25 0.728 7.82 3.48 11.75
3/20/2021 9:45:00 AM 6.29 43.322 0.727 7.84 4.9 11.94
3/20/2021 10:00:00 AM 6.36 43.448 0.727 7.86 3.44 12.15
3/20/2021 10:15:00 AM 6.47 43.646 0.728 7.88 3.16 12.43
3/20/2021 10:30:00 AM 6.61 43.898 0.728 7.9 3.39 12.73
3/20/2021 10:45:00 AM 6.77 44.186 0.728 7.92 3.5 13.05
3/20/2021 11:00:00 AM 6.94 44.492 0.73 7.95 4.88 13.37
3/20/2021 11:15:00 AM 7.14 44.852 0.728 7.98 4.02 13.7
3/20/2021 11:30:00 AM 7.34 45.212 0.728 8 3.55 13.99
3/20/2021 11:45:00 AM 7.54 45.572 0.728 8.03 3.52 14.3
3/20/2021 12:00:00 PM 7.73 45.914 0.728 8.05 4.13 14.6
3/20/2021 12:15:00 PM 7.93 46.274 0.728 8.08 4.03 14.86
3/20/2021 12:30:00 PM 8.12 46.616 0.728 8.1 3.36 15.12
3/20/2021 12:45:00 PM 8.31 46.958 0.728 8.13 3.14 15.36
3/20/2021 1:00:00 PM 8.51 47.318 0.728 8.15 2.98 15.65
3/20/2021 1:15:00 PM 8.69 47.642 0.728 8.18 3.1 15.82
3/20/2021 1:30:00 PM 8.88 47.984 0.728 8.2 3.21 15.99
3/20/2021 1:45:00 PM 9.06 48.308 0.729 8.22 3.32 16.13
3/20/2021 2:00:00 PM 9.23 48.614 0.727 8.25 3.6 16.29
3/20/2021 2:15:00 PM 9.4 48.92 0.727 8.28 2.86 16.4
3/20/2021 2:30:00 PM 9.55 49.19 0.725 8.3 3.05 16.46
3/20/2021 2:45:00 PM 9.71 49.478 0.726 8.32 6.77 16.55
3/20/2021 3:00:00 PM 9.85 49.73 0.725 8.35 36.41 16.56
3/20/2021 3:15:00 PM 9.98 49.964 0.722 8.37 2.98 16.65
3/20/2021 3:30:00 PM 10.09 50.162 0.724 8.38 2.64 16.66
3/20/2021 3:45:00 PM 10.19 50.342 0.725 8.4 4.11 16.64
3/20/2021 4:00:00 PM 10.28 50.504 0.724 8.42 3.2 16.7
3/20/2021 4:15:00 PM 10.35 50.63 0.724 8.43 2.96 16.62
3/20/2021 4:30:00 PM 10.41 50.738 0.727 8.44 2.64 16.48
3/20/2021 4:45:00 PM 10.45 50.81 0.728 8.45 2.9 16.42
3/20/2021 5:00:00 PM 10.49 50.882 0.726 8.46 3.48 16.28
3/20/2021 5:15:00 PM 10.51 50.918 0.725 8.46 2.86 16.13
3/20/2021 5:30:00 PM 10.52 50.936 0.726 8.47 4.01 15.91
3/20/2021 5:45:00 PM 10.53 50.954 0.725 8.47 2.54 15.81
3/20/2021 6:00:00 PM 10.54 50.972 0.727 8.47 2.43 15.61
3/20/2021 6:15:00 PM 10.54 50.972 0.727 8.46 2.53 15.45
3/20/2021 6:30:00 PM 10.54 50.972 0.727 8.46 2.65 15.25
3/20/2021 6:45:00 PM 10.53 50.954 0.727 8.46 3.05 15.07
3/20/2021 7:00:00 PM 10.5 50.9 0.728 8.45 3.51 14.85
3/20/2021 7:15:00 PM 10.44 50.792 0.73 8.44 4.05 14.55
3/20/2021 7:30:00 PM 10.38 50.684 0.729 8.43 5.48 14.33
3/20/2021 7:45:00 PM 10.3 50.54 0.732 8.41 3.16 14.06
3/20/2021 8:00:00 PM 10.22 50.396 0.732 8.39 3.74 13.82
3/20/2021 8:15:00 PM 10.13 50.234 0.733 8.37 3.68 13.52
3/20/2021 8:30:00 PM 10.03 50.054 0.734 8.34 2.94 13.27
3/20/2021 8:45:00 PM 9.93 49.874 0.735 8.32 2.6 12.99
3/20/2021 9:00:00 PM 9.82 49.676 0.736 8.29 2.46 12.75
3/20/2021 9:15:00 PM 9.72 49.496 0.737 8.27 2.7 12.52
3/20/2021 9:30:00 PM 9.61 49.298 0.738 8.24 3.04 12.29
3/20/2021 9:45:00 PM 9.5 49.1 0.74 8.22 3.27 12.04
3/20/2021 10:00:00 PM 9.39 48.902 0.74 8.19 3.03 11.85
3/20/2021 10:15:00 PM 9.27 48.686 0.741 8.16 2.41 11.67
3/20/2021 10:30:00 PM 9.16 48.488 0.742 8.14 3.03 11.52
3/20/2021 10:45:00 PM 9.06 48.308 0.743 8.11 3.52 11.41
3/20/2021 11:00:00 PM 8.96 48.128 0.743 8.09 2.53 11.3
3/20/2021 11:15:00 PM 8.85 47.93 0.744 8.06 3.22 11.18
3/20/2021 11:30:00 PM 8.75 47.75 0.746 8.04 2.48 11.07
3/20/2021 11:45:00 PM 8.66 47.588 0.745 8.02 3.11 10.99
3/21/2021 12:00:00 AM 8.56 47.408 0.747 8 3.13 10.9
3/21/2021 12:15:00 AM 8.47 47.246 0.746 7.98 2.62 10.84
3/21/2021 12:30:00 AM 8.39 47.102 0.748 7.96 4.85 10.77
3/21/2021 12:45:00 AM 8.3 46.94 0.749 7.94 2.59 10.71
3/21/2021 1:00:00 AM 8.22 46.796 0.747 7.93 2.31 10.68
3/21/2021 1:15:00 AM 8.15 46.67 0.749 7.91 2.67 10.64
3/21/2021 1:30:00 AM 8.06 46.508 0.75 7.9 2.67 10.61
3/21/2021 1:45:00 AM 8 46.4 0.75 7.89 3.01 10.6
3/21/2021 2:00:00 AM 7.93 46.274 0.75 7.88 3.8 10.56
3/21/2021 2:15:00 AM 7.87 46.166 0.752 7.87 2.36 10.56
3/21/2021 2:30:00 AM 7.8 46.04 0.753 7.86 2.72 10.56
3/21/2021 2:45:00 AM 7.74 45.932 0.753 7.86 2.48 10.54
3/21/2021 3:00:00 AM 7.68 45.824 0.754 7.85 3.57 10.56
3/21/2021 3:15:00 AM 7.63 45.734 0.755 7.85 2.56 10.55
3/21/2021 3:30:00 AM 7.58 45.644 0.757 7.84 2.57 10.55
3/21/2021 3:45:00 AM 7.53 45.554 0.757 7.84 2.65 10.57
3/21/2021 4:00:00 AM 7.48 45.464 0.758 7.84 2.54 10.57
3/21/2021 4:15:00 AM 7.43 45.374 0.759 7.84 4.66 10.59
3/21/2021 4:30:00 AM 7.39 45.302 0.76 7.84 2.65 10.57
3/21/2021 4:45:00 AM 7.35 45.23 0.763 7.84 3.09 10.55
3/21/2021 5:00:00 AM 7.31 45.158 0.761 7.84 3.16 10.61
3/21/2021 5:15:00 AM 7.27 45.086 0.764 7.84 2.92 10.59
3/21/2021 5:30:00 AM 7.24 45.032 0.765 7.84 2.34 10.61
3/21/2021 5:45:00 AM 7.2 44.96 0.767 7.84 2.4 10.64
3/21/2021 6:00:00 AM 7.17 44.906 0.769 7.84 2.3 10.63
3/21/2021 6:15:00 AM 7.14 44.852 0.77 7.84 3.8 10.64
3/21/2021 6:30:00 AM 7.1 44.78 0.771 7.84 3.53 10.64
3/21/2021 6:45:00 AM 7.07 44.726 0.772 7.84 2.47 10.63
3/21/2021 7:00:00 AM 7.04 44.672 0.773 7.85 2.74 10.67
3/21/2021 7:15:00 AM 7.01 44.618 0.774 7.84 2.3 10.69
3/21/2021 7:30:00 AM 6.99 44.582 0.777 7.85 3.5 10.73
3/21/2021 7:45:00 AM 6.97 44.546 0.776 7.84 2.79 10.76
3/21/2021 8:00:00 AM 6.95 44.51 0.779 7.85 2.33 10.83
3/21/2021 8:15:00 AM 6.93 44.474 0.78 7.85 2.1 10.9
3/21/2021 8:30:00 AM 6.93 44.474 0.78 7.85 2.56 10.99
3/21/2021 8:45:00 AM 6.93 44.474 0.781 7.86 2.42 11.1
3/21/2021 9:00:00 AM 6.94 44.492 0.781 7.87 3.85 11.22
3/21/2021 9:15:00 AM 6.96 44.528 0.782 7.87 2.59 11.39
3/21/2021 9:30:00 AM 7 44.6 0.783 7.89 2.84 11.58
3/21/2021 9:45:00 AM 7.05 44.69 0.783 7.9 1.98 11.8
3/21/2021 10:00:00 AM 7.15 44.87 0.783 7.93 3.72 12.07
3/21/2021 10:15:00 AM 7.28 45.104 0.784 7.94 3.48 12.37
3/21/2021 10:30:00 AM 7.45 45.41 0.784 7.97 2.95 12.73
3/21/2021 10:45:00 AM 7.64 45.752 0.783 7.99 8.14 13.09
3/21/2021 11:00:00 AM 7.85 46.13 0.782 8.02 2.06 13.4
3/21/2021 11:15:00 AM 8.09 46.562 0.782 8.05 2.93 13.75
3/21/2021 11:30:00 AM 8.31 46.958 0.781 8.07 4.06 14.05
3/21/2021 11:45:00 AM 8.55 47.39 0.781 8.09 7.39 14.42
3/21/2021 12:00:00 PM 8.78 47.804 0.781 8.12 2.55 14.69
3/21/2021 12:15:00 PM 9 48.2 0.78 8.14 2.55 14.98
3/21/2021 12:30:00 PM 9.22 48.596 0.779 8.16 2.27 15.29
3/21/2021 12:45:00 PM 9.44 48.992 0.779 8.19 2.83 15.49
3/21/2021 1:00:00 PM 9.66 49.388 0.779 8.21 2.74 15.73
3/21/2021 1:15:00 PM 9.86 49.748 0.778 8.24 3.96 15.89
3/21/2021 1:30:00 PM 10.07 50.126 0.776 8.26 2.13 16.02
3/21/2021 1:45:00 PM 10.26 50.468 0.774 8.28 2.31 16.1
3/21/2021 2:00:00 PM 10.45 50.81 0.775 8.31 3.34 16.28
3/21/2021 2:15:00 PM 10.63 51.134 0.775 8.33 2.74 16.3
3/21/2021 2:30:00 PM 10.8 51.44 0.773 8.35 3.34 16.36
3/21/2021 2:45:00 PM 10.97 51.746 0.771 8.37 2.94 16.48
3/21/2021 3:00:00 PM 11.13 52.034 0.771 8.4 2.68 16.6
3/21/2021 3:15:00 PM 11.27 52.286 0.771 8.41 3.39 16.58
3/21/2021 3:30:00 PM 11.4 52.52 0.769 8.43 2.33 16.58
3/21/2021 3:45:00 PM 11.51 52.718 0.768 8.45 2.67 16.61
3/21/2021 4:00:00 PM 11.6 52.88 0.767 8.46 2.64 16.55
3/21/2021 4:15:00 PM 11.67 53.006 0.765 8.47 2.4 16.56
3/21/2021 4:30:00 PM 11.73 53.114 0.763 8.49 12.01 16.46
3/21/2021 4:45:00 PM 11.77 53.186 0.763 8.49 1.95 16.45
3/21/2021 5:00:00 PM 11.8 53.24 0.763 8.5 2.57 16.34
3/21/2021 5:15:00 PM 11.83 53.294 0.764 8.51 2.78 16.14
3/21/2021 5:30:00 PM 11.84 53.312 0.763 8.51 6.08 15.99
3/21/2021 5:45:00 PM 11.86 53.348 0.762 8.51 2.6 15.79
3/21/2021 6:00:00 PM 11.87 53.366 0.759 8.51 2.74 15.52
3/21/2021 6:15:00 PM 11.87 53.366 0.761 8.51 2.86 15.39
3/21/2021 6:30:00 PM 11.88 53.384 0.761 8.51 2.09 15.16
3/21/2021 6:45:00 PM 11.87 53.366 0.761 8.5 2.54 14.98
3/21/2021 7:00:00 PM 11.84 53.312 0.766 8.5 2.12 14.71
3/21/2021 7:15:00 PM 11.79 53.222 0.766 8.49 3.1 14.52
3/21/2021 7:30:00 PM 11.73 53.114 0.768 8.48 2.22 14.25
3/21/2021 7:45:00 PM 11.66 52.988 0.767 8.46 2.67 13.88
3/21/2021 8:00:00 PM 11.58 52.844 0.767 8.44 2.11 13.66
3/21/2021 8:15:00 PM 11.5 52.7 0.768 8.42 1.94 13.32
3/21/2021 8:30:00 PM 11.4 52.52 0.77 8.4 2.01 13.06
3/21/2021 8:45:00 PM 11.31 52.358 0.769 8.38 2.01 12.78
3/21/2021 9:00:00 PM 11.2 52.16 0.77 8.35 2.3 12.48
3/21/2021 9:15:00 PM 11.09 51.962 0.771 8.32 2.73 12.23
3/21/2021 9:30:00 PM 10.98 51.764 0.773 8.29 2.53 11.97
3/21/2021 9:45:00 PM 10.87 51.566 0.773 8.26 2.26 11.74
3/21/2021 10:00:00 PM 10.75 51.35 0.774 8.23 2.11 11.48
3/21/2021 10:15:00 PM 10.64 51.152 0.774 8.2 2.44 11.26
3/21/2021 10:30:00 PM 10.53 50.954 0.775 8.17 2.57 11.13
3/21/2021 10:45:00 PM 10.42 50.756 0.775 8.14 2.56 10.98
3/21/2021 11:00:00 PM 10.31 50.558 0.776 8.12 2.06 10.82
3/21/2021 11:15:00 PM 10.21 50.378 0.777 8.09 2.73 10.73
3/21/2021 11:30:00 PM 10.1 50.18 0.775 8.06 2.42 10.59
3/21/2021 11:45:00 PM 10 50 0.775 8.04 2.43 10.5
3/22/2021 12:00:00 AM 9.9 49.82 0.775 8.02 2.41 10.4
3/22/2021 12:15:00 AM 9.81 49.658 0.775 8 2.02 10.34
3/22/2021 12:30:00 AM 9.71 49.478 0.775 7.97 2.58 10.25
3/22/2021 12:45:00 AM 9.63 49.334 0.774 7.95 2.75 10.21
3/22/2021 1:00:00 AM 9.54 49.172 0.774 7.94 2.27 10.12
3/22/2021 1:15:00 AM 9.46 49.028 0.774 7.92 2.68 10.08
3/22/2021 1:30:00 AM 9.38 48.884 0.773 7.9 3.15 10.06
3/22/2021 1:45:00 AM 9.31 48.758 0.772 7.89 3.98 10.03
3/22/2021 2:00:00 AM 9.24 48.632 0.772 7.87 3.35 9.99
3/22/2021 2:15:00 AM 9.17 48.506 0.772 7.87 2.57 9.96
3/22/2021 2:30:00 AM 9.11 48.398 0.771 7.85 2.34 9.97
3/22/2021 2:45:00 AM 9.05 48.29 0.77 7.85 2.29 9.94
3/22/2021 3:00:00 AM 8.98 48.164 0.769 7.84 1.91 9.94
3/22/2021 3:15:00 AM 8.92 48.056 0.77 7.83 4.13 9.96
3/22/2021 3:30:00 AM 8.86 47.948 0.769 7.83 2.42 9.96
3/22/2021 3:45:00 AM 8.8 47.84 0.769 7.83 2.58 9.94
3/22/2021 4:00:00 AM 8.75 47.75 0.768 7.82 3.3 9.94
3/22/2021 4:15:00 AM 8.7 47.66 0.768 7.82 2.86 9.94
3/22/2021 4:30:00 AM 8.65 47.57 0.768 7.82 2.89 9.92
3/22/2021 4:45:00 AM 8.59 47.462 0.767 7.82 2.13 9.97
3/22/2021 5:00:00 AM 8.55 47.39 0.767 7.82 3.95 9.97
3/22/2021 5:15:00 AM 8.51 47.318 0.766 7.82 3.02 10
3/22/2021 5:30:00 AM 8.47 47.246 0.766 7.82 2.82 10
3/22/2021 5:45:00 AM 8.43 47.174 0.768 7.82 2.91 10.01
3/22/2021 6:00:00 AM 8.39 47.102 0.767 7.82 5.51 9.99
3/22/2021 6:15:00 AM 8.35 47.03 0.768 7.82 2.49 10.01
3/22/2021 6:30:00 AM 8.32 46.976 0.768 7.82 2.27 10.03
3/22/2021 6:45:00 AM 8.28 46.904 0.768 7.82 3.35 10.04
3/22/2021 7:00:00 AM 8.25 46.85 0.768 7.82 2.18 10.06
3/22/2021 7:15:00 AM 8.21 46.778 0.772 7.82 2.18 10.08
3/22/2021 7:30:00 AM 8.19 46.742 0.772 7.83 2.58 10.1
3/22/2021 7:45:00 AM 8.17 46.706 0.772 7.83 2.43 10.17
3/22/2021 8:00:00 AM 8.14 46.652 0.773 7.83 2.12 10.22
3/22/2021 8:15:00 AM 8.13 46.634 0.774 7.84 2.24 10.31
3/22/2021 8:30:00 AM 8.12 46.616 0.774 7.84 2.58 10.4
3/22/2021 8:45:00 AM 8.12 46.616 0.775 7.85 2.37 10.52
3/22/2021 9:00:00 AM 8.13 46.634 0.776 7.86 2.18 10.67
3/22/2021 9:15:00 AM 8.16 46.688 0.776 7.87 3.02 10.83
3/22/2021 9:30:00 AM 8.21 46.778 0.778 7.88 2.19 11.06
3/22/2021 9:45:00 AM 8.27 46.886 0.778 7.9 2.52 11.24
3/22/2021 10:00:00 AM 8.36 47.048 0.778 7.92 2.7 11.55
3/22/2021 10:15:00 AM 8.48 47.264 0.779 7.95 2.04 11.88
3/22/2021 10:30:00 AM 8.66 47.588 0.781 7.97 1.86 12.27
3/22/2021 10:45:00 AM 8.85 47.93 0.781 8 1.81 12.68
3/22/2021 11:00:00 AM 9.06 48.308 0.78 8.04 1.94 13.04
3/22/2021 11:15:00 AM 9.29 48.722 0.78 8.07 2 13.44
3/22/2021 11:30:00 AM 9.5 49.1 0.78 8.09 8.51 13.81
3/22/2021 11:45:00 AM 9.73 49.514 0.781 8.11 2.04 14.15
3/22/2021 12:00:00 PM 9.95 49.91 0.781 8.14 2.2 14.47
3/22/2021 12:15:00 PM 10.17 50.306 0.78 8.17 1.99 14.82
3/22/2021 12:30:00 PM 10.38 50.684 0.781 8.19 2.01 15.12
3/22/2021 12:45:00 PM 10.59 51.062 0.781 8.21 2.53 15.42
3/22/2021 1:00:00 PM 10.81 51.458 0.782 8.24 3.09 15.69
3/22/2021 1:15:00 PM 11 51.8 0.781 8.27 2.55 15.88
3/22/2021 1:30:00 PM 11.2 52.16 0.779 8.29 2.12 16.07
3/22/2021 1:45:00 PM 11.39 52.502 0.781 8.32 2.39 16.18
3/22/2021 2:00:00 PM 11.58 52.844 0.779 8.35 1.69 16.33
3/22/2021 2:15:00 PM 11.75 53.15 0.778 8.37 2.74 16.55
3/22/2021 2:30:00 PM 11.91 53.438 0.778 8.39 2.97 16.69
3/22/2021 2:45:00 PM 12.08 53.744 0.777 8.42 3.54 16.77
3/22/2021 3:00:00 PM 12.22 53.996 0.776 8.44 3.01 16.83
3/22/2021 3:15:00 PM 12.35 54.23 0.775 8.46 1.92 16.92
3/22/2021 3:30:00 PM 12.46 54.428 0.771 8.48 4.81 16.88
3/22/2021 3:45:00 PM 12.56 54.608 0.77 8.49 2.47 16.81
3/22/2021 4:00:00 PM 12.64 54.752 0.771 8.51 2.12 16.79
3/22/2021 4:15:00 PM 12.7 54.86 0.766 8.52 2.24 16.76
3/22/2021 4:30:00 PM 12.74 54.932 0.769 8.54 3.02 16.64
3/22/2021 4:45:00 PM 12.77 54.986 0.765 8.55 2.57 16.49
3/22/2021 5:00:00 PM 12.79 55.022 0.762 8.56 2.29 16.46
3/22/2021 5:15:00 PM 12.8 55.04 0.76 8.56 3.57 16.26
3/22/2021 5:30:00 PM 12.81 55.058 0.757 8.57 2.16 16.06
3/22/2021 5:45:00 PM 12.8 55.04 0.755 8.56 2.63 15.9
3/22/2021 6:00:00 PM 12.81 55.058 0.756 8.57 4.89 15.67
3/22/2021 6:15:00 PM 12.8 55.04 0.755 8.56 3.36 15.38
3/22/2021 6:30:00 PM 12.8 55.04 0.754 8.56 2.31 15.21
3/22/2021 6:45:00 PM 12.79 55.022 0.752 8.56 3.57 14.99
3/22/2021 7:00:00 PM 12.76 54.968 0.754 8.55 2.3 14.73
3/22/2021 7:15:00 PM 12.71 54.878 0.754 8.54 2.28 14.48
3/22/2021 7:30:00 PM 12.64 54.752 0.755 8.53 2.45 14.14
3/22/2021 7:45:00 PM 12.56 54.608 0.754 8.51 4.33 13.92
3/22/2021 8:00:00 PM 12.47 54.446 0.748 8.5 2.46 13.61
3/22/2021 8:15:00 PM 12.38 54.284 0.753 8.47 2.2 13.25
3/22/2021 8:30:00 PM 12.29 54.122 0.753 8.45 5.75 12.89
3/22/2021 8:45:00 PM 12.19 53.942 0.75 8.43 2.03 12.66
3/22/2021 9:00:00 PM 12.08 53.744 0.753 8.4 2.81 12.28
3/22/2021 9:15:00 PM 11.97 53.546 0.753 8.36 6.21 11.98
3/22/2021 9:30:00 PM 11.85 53.33 0.752 8.34 2.44 11.71
3/22/2021 9:45:00 PM 11.72 53.096 0.752 8.3 3.1 11.49
3/22/2021 10:00:00 PM 11.61 52.898 0.753 8.27 3.76 11.22
3/22/2021 10:15:00 PM 11.49 52.682 0.752 8.24 2.3 11.04
3/22/2021 10:30:00 PM 11.37 52.466 0.751 8.21 2.26 10.81
3/22/2021 10:45:00 PM 11.26 52.268 0.751 8.18 3.84 10.67
3/22/2021 11:00:00 PM 11.14 52.052 0.752 8.15 2.18 10.49
3/22/2021 11:15:00 PM 11.04 51.872 0.751 8.12 2.33 10.32
3/22/2021 11:30:00 PM 10.93 51.674 0.751 8.09 2.36 10.2
3/22/2021 11:45:00 PM 10.82 51.476 0.749 8.06 4.26 10.1
3/23/2021 12:00:00 AM 10.72 51.296 0.748 8.03 2.08 9.96
3/23/2021 12:15:00 AM 10.62 51.116 0.748 8.01 3.96 9.89
3/23/2021 12:30:00 AM 10.52 50.936 0.746 7.99 3.38 9.8
3/23/2021 12:45:00 AM 10.43 50.774 0.747 7.96 2.41 9.74
3/23/2021 1:00:00 AM 10.35 50.63 0.746 7.94 2.3 9.69
3/23/2021 1:15:00 AM 10.26 50.468 0.745 7.92 3.5 9.59
3/23/2021 1:30:00 AM 10.19 50.342 0.744 7.9 2.44 9.57
3/23/2021 1:45:00 AM 10.11 50.198 0.743 7.89 2.11 9.56
3/23/2021 2:00:00 AM 10.04 50.072 0.744 7.88 3.82 9.54
3/23/2021 2:15:00 AM 9.96 49.928 0.742 7.87 1.96 9.52
3/23/2021 2:30:00 AM 9.9 49.82 0.742 7.86 2.02 9.48
3/23/2021 2:45:00 AM 9.83 49.694 0.742 7.85 4.65 9.51
3/23/2021 3:00:00 AM 9.76 49.568 0.741 7.84 3.22 9.49
3/23/2021 3:15:00 AM 9.7 49.46 0.741 7.83 2.6 9.5
3/23/2021 3:30:00 AM 9.64 49.352 0.74 7.82 2.31 9.51
3/23/2021 3:45:00 AM 9.59 49.262 0.74 7.82 2.96 9.51
3/23/2021 4:00:00 AM 9.54 49.172 0.74 7.82 1.92 9.53
3/23/2021 4:15:00 AM 9.48 49.064 0.74 7.81 3.61 9.52
3/23/2021 4:30:00 AM 9.44 48.992 0.739 7.81 3.55 9.54
3/23/2021 4:45:00 AM 9.39 48.902 0.739 7.8 4.95 9.54
3/23/2021 5:00:00 AM 9.34 48.812 0.74 7.8 2.33 9.54
3/23/2021 5:15:00 AM 9.3 48.74 0.74 7.8 3.5 9.52
3/23/2021 5:30:00 AM 9.25 48.65 0.739 7.8 2.99 9.58
3/23/2021 5:45:00 AM 9.21 48.578 0.74 7.8 2.49 9.58
3/23/2021 6:00:00 AM 9.17 48.506 0.74 7.8 2.58 9.58
3/23/2021 6:15:00 AM 9.14 48.452 0.741 7.8 2.5 9.61
3/23/2021 6:30:00 AM 9.1 48.38 0.741 7.8 6.98 9.61
3/23/2021 6:45:00 AM 9.07 48.326 0.741 7.8 2.01 9.64
3/23/2021 7:00:00 AM 9.04 48.272 0.741 7.8 2.3 9.62
3/23/2021 7:15:00 AM 9.01 48.218 0.741 7.8 2.14 9.68
3/23/2021 7:30:00 AM 8.99 48.182 0.741 7.8 2.15 9.71
3/23/2021 7:45:00 AM 8.98 48.164 0.741 7.81 2.07 9.76
3/23/2021 8:00:00 AM 8.97 48.146 0.741 7.81 3.03 9.83
3/23/2021 8:15:00 AM 8.96 48.128 0.741 7.82 10.05 9.93
3/23/2021 8:30:00 AM 8.97 48.146 0.741 7.82 2.54 10.03
3/23/2021 8:45:00 AM 8.98 48.164 0.741 7.83 2.39 10.18
3/23/2021 9:00:00 AM 9.01 48.218 0.741 7.84 2.26 10.35
3/23/2021 9:15:00 AM 9.05 48.29 0.741 7.86 1.84 10.53
3/23/2021 9:30:00 AM 9.11 48.398 0.742 7.87 2.81 10.77
3/23/2021 9:45:00 AM 9.18 48.524 0.742 7.89 2.14 10.99
3/23/2021 10:00:00 AM 9.27 48.686 0.742 7.92 2.18 11.3
3/23/2021 10:15:00 AM 9.39 48.902 0.74 7.94 2.38 11.68
3/23/2021 10:30:00 AM 9.55 49.19 0.742 7.98 2.05 12.06
3/23/2021 10:45:00 AM 9.73 49.514 0.74 8.01 2.19 12.49
3/23/2021 11:00:00 AM 9.93 49.874 0.739 8.04 2.63 12.92
3/23/2021 11:15:00 AM 10.11 50.198 0.74 8.07 1.99 13.27
3/23/2021 11:30:00 AM 10.32 50.576 0.74 8.1 2.28 13.64
3/23/2021 11:45:00 AM 10.55 50.99 0.738 8.13 1.97 14.06
3/23/2021 12:00:00 PM 10.78 51.404 0.739 8.16 2.2 14.45
3/23/2021 12:15:00 PM 11 51.8 0.738 8.19 2.37 14.78
3/23/2021 12:30:00 PM 11.23 52.214 0.738 8.22 2.18 15.14
3/23/2021 12:45:00 PM 11.45 52.61 0.737 8.25 2.42 15.46
3/23/2021 1:00:00 PM 11.65 52.97 0.738 8.28 2.21 15.75
3/23/2021 1:15:00 PM 11.78 53.204 0.737 8.3 1.83 15.95
3/23/2021 1:30:00 PM 11.9 53.42 0.736 8.33 5.63 16.11
3/23/2021 1:45:00 PM 12.11 53.798 0.736 8.36 2.29 16.24
3/23/2021 2:00:00 PM 12.33 54.194 0.736 8.39 4.23 16.53
3/23/2021 2:15:00 PM 12.49 54.482 0.732 8.42 2.49 16.61
3/23/2021 2:30:00 PM 12.6 54.68 0.73 8.44 4.01 16.89
3/23/2021 2:45:00 PM 12.75 54.95 0.732 8.47 2.28 17.06
3/23/2021 3:00:00 PM 12.88 55.184 0.728 8.49 2.04 17.17
3/23/2021 3:15:00 PM 12.96 55.328 0.73 8.51 2.57 17.25
3/23/2021 3:30:00 PM 13.08 55.544 0.729 8.53 3.17 17.37
3/23/2021 3:45:00 PM 13.19 55.742 0.727 8.55 2.81 17.29
3/23/2021 4:00:00 PM 13.28 55.904 0.726 8.56 3.11 17.27
3/23/2021 4:15:00 PM 13.3 55.94 0.724 8.58 2.92 17.26
3/23/2021 4:30:00 PM 13.38 56.084 0.723 8.59 2.47 17.23
3/23/2021 4:45:00 PM 13.43 56.174 0.724 8.61 4.73 17.07
3/23/2021 5:00:00 PM 13.45 56.21 0.722 8.62 2.35 16.98
3/23/2021 5:15:00 PM 13.49 56.282 0.724 8.62 2.55 16.84
3/23/2021 5:30:00 PM 13.49 56.282 0.722 8.63 6.41 16.63
3/23/2021 5:45:00 PM 13.51 56.318 0.721 8.63 1.86 16.35
3/23/2021 6:00:00 PM 13.52 56.336 0.721 8.63 2.25 16.15
3/23/2021 6:15:00 PM 13.53 56.354 0.721 8.63 2.17 15.91
3/23/2021 6:30:00 PM 13.54 56.372 0.721 8.63 3.48 15.67
3/23/2021 6:45:00 PM 13.52 56.336 0.72 8.62 2.63 15.41
3/23/2021 7:00:00 PM 13.5 56.3 0.721 8.61 2.08 15.06
3/23/2021 7:15:00 PM 13.44 56.192 0.721 8.6 2.31 14.73
3/23/2021 7:30:00 PM 13.38 56.084 0.722 8.58 2.27 14.36
3/23/2021 7:45:00 PM 13.32 55.976 0.724 8.56 3 14.02
3/23/2021 8:00:00 PM 13.25 55.85 0.725 8.54 2.27 13.63
3/23/2021 8:15:00 PM 13.18 55.724 0.725 8.52 2.62 13.29
3/23/2021 8:30:00 PM 13.1 55.58 0.727 8.49 7.27 12.9
3/23/2021 8:45:00 PM 13.01 55.418 0.729 8.47 2.39 12.58
3/23/2021 9:00:00 PM 12.93 55.274 0.73 8.44 2.75 12.23
3/23/2021 9:15:00 PM 12.86 55.148 0.731 8.4 2.1 11.92
3/23/2021 9:30:00 PM 12.77 54.986 0.733 8.37 2.31 11.62
3/23/2021 9:45:00 PM 12.69 54.842 0.734 8.34 2.48 11.33
3/23/2021 10:00:00 PM 12.6 54.68 0.736 8.31 3.78 11.08
3/23/2021 10:15:00 PM 12.51 54.518 0.738 8.27 2.75 10.84
3/23/2021 10:30:00 PM 12.42 54.356 0.738 8.24 2.59 10.62
3/23/2021 10:45:00 PM 12.32 54.176 0.739 8.2 2.52 10.39
3/23/2021 11:00:00 PM 12.23 54.014 0.74 8.17 2.23 10.2
3/23/2021 11:15:00 PM 12.14 53.852 0.74 8.14 1.83 10.03
3/23/2021 11:30:00 PM 12.06 53.708 0.741 8.1 3.04 9.87
3/23/2021 11:45:00 PM 11.98 53.564 0.743 8.07 2.26 9.72
3/24/2021 12:00:00 AM 11.9 53.42 0.743 8.04 2.32 9.6
3/24/2021 12:15:00 AM 11.84 53.312 0.742 8.02 2.55 9.47
3/24/2021 12:30:00 AM 11.79 53.222 0.743 7.99 1.86 9.37
3/24/2021 12:45:00 AM 11.74 53.132 0.743 7.96 2.55 9.28
3/24/2021 1:00:00 AM 11.69 53.042 0.744 7.94 2.77 9.21
3/24/2021 1:15:00 AM 11.64 52.952 0.743 7.92 2.34 9.13
3/24/2021 1:30:00 AM 11.61 52.898 0.742 7.89 2.74 9.03
3/24/2021 1:45:00 AM 11.58 52.844 0.742 7.88 2.62 8.98
3/24/2021 2:00:00 AM 11.55 52.79 0.742 7.86 2.57 8.97
3/24/2021 2:15:00 AM 11.53 52.754 0.741 7.85 2.55 8.92
3/24/2021 2:30:00 AM 11.51 52.718 0.741 7.83 3.46 8.85
3/24/2021 2:45:00 AM 11.49 52.682 0.741 7.82 2.63 8.85
3/24/2021 3:00:00 AM 11.48 52.664 0.74 7.81 2.76 8.83
3/24/2021 3:15:00 AM 11.47 52.646 0.74 7.8 2.43 8.8
3/24/2021 3:30:00 AM 11.47 52.646 0.74 7.8 3.29 8.8
3/24/2021 3:45:00 AM 11.46 52.628 0.74 7.8 4.12 8.81
3/24/2021 4:00:00 AM 11.46 52.628 0.74 7.79 2.57 8.79
3/24/2021 4:15:00 AM 11.46 52.628 0.74 7.78 2.38 8.79
3/24/2021 4:30:00 AM 11.46 52.628 0.74 7.78 2.31 8.76
3/24/2021 4:45:00 AM 11.47 52.646 0.74 7.78 2.08 8.78
3/24/2021 5:00:00 AM 11.47 52.646 0.741 7.78 2.5 8.77
3/24/2021 5:15:00 AM 11.48 52.664 0.741 7.78 2.44 8.76
3/24/2021 5:30:00 AM 11.49 52.682 0.742 7.78 2.13 8.75
3/24/2021 5:45:00 AM 11.51 52.718 0.742 7.78 2.78 8.74
3/24/2021 6:00:00 AM 11.52 52.736 0.742 7.78 2.21 8.73
3/24/2021 6:15:00 AM 11.53 52.754 0.744 7.78 2.41 8.74
3/24/2021 6:30:00 AM 11.55 52.79 0.744 7.78 2.66 8.73
3/24/2021 6:45:00 AM 11.56 52.808 0.744 7.78 2.22 8.7
3/24/2021 7:00:00 AM 11.58 52.844 0.745 7.78 2.27 8.7
3/24/2021 7:15:00 AM 11.59 52.862 0.747 7.78 2.68 8.68
3/24/2021 7:30:00 AM 11.61 52.898 0.747 7.78 2.45 8.69
3/24/2021 7:45:00 AM 11.63 52.934 0.75 7.78 2.91 8.69
3/24/2021 8:00:00 AM 11.65 52.97 0.754 7.78 3.53 8.71
3/24/2021 8:15:00 AM 11.67 53.006 0.754 7.78 2.7 8.72
3/24/2021 8:30:00 AM 11.69 53.042 0.756 7.79 2.29 8.72
3/24/2021 8:45:00 AM 11.71 53.078 0.756 7.79 2.87 8.74
3/24/2021 9:00:00 AM 11.74 53.132 0.758 7.79 2.01 8.8
3/24/2021 9:15:00 AM 11.76 53.168 0.759 7.79 2.41 8.84
3/24/2021 9:30:00 AM 11.78 53.204 0.76 7.8 2.64 8.89
3/24/2021 9:45:00 AM 11.8 53.24 0.761 7.8 2.22 8.95
3/24/2021 10:00:00 AM 11.83 53.294 0.761 7.81 2.48 9.03
3/24/2021 10:15:00 AM 11.85 53.33 0.763 7.81 3.77 9.07
3/24/2021 10:30:00 AM 11.87 53.366 0.764 7.82 4.67 9.08
3/24/2021 10:45:00 AM 11.89 53.402 0.763 7.82 2.7 9.22
3/24/2021 11:00:00 AM 11.92 53.456 0.764 7.84 2.06 9.37
3/24/2021 11:15:00 AM 11.94 53.492 0.764 7.84 4.71 9.49
3/24/2021 11:30:00 AM 11.95 53.51 0.766 7.85 2.06 9.46
3/24/2021 11:45:00 AM 11.97 53.546 0.764 7.86 9.11 9.53
3/24/2021 12:00:00 PM 11.99 53.582 0.759 7.87 6.76 9.7
3/24/2021 12:15:00 PM 12.01 53.618 0.76 7.88 7.22 9.82
3/24/2021 12:30:00 PM 12.02 53.636 0.761 7.88 4.28 9.86
3/24/2021 12:45:00 PM 12.03 53.654 0.764 7.89 5.72 9.92
3/24/2021 1:00:00 PM 12.04 53.672 0.763 7.9 4.82 9.99
3/24/2021 1:15:00 PM 12.05 53.69 0.76 7.9 5.14 10.08
3/24/2021 1:30:00 PM 12.05 53.69 0.756 7.91 6.2 10.08
3/24/2021 1:45:00 PM 12.06 53.708 0.754 7.91 7.54 10.13
3/24/2021 2:00:00 PM 12.02 53.636 0.743 7.92 12.22 10.24
3/24/2021 2:15:00 PM 12.03 53.654 0.742 7.93 14.06 10.32
3/24/2021 2:30:00 PM 12.03 53.654 0.737 7.93 12.93 10.38
3/24/2021 2:45:00 PM 12.03 53.654 0.736 7.94 12.41 10.43
3/24/2021 3:00:00 PM 12.01 53.618 0.729 7.95 12.63 10.5
3/24/2021 3:15:00 PM 11.98 53.564 0.717 7.95 29.93 10.51
3/24/2021 3:30:00 PM 12.01 53.618 0.72 7.95 18.15 10.53
3/24/2021 3:45:00 PM 11.93 53.474 0.691 7.95 24.97 10.58
3/24/2021 4:00:00 PM 11.86 53.348 0.669 7.96 32.49 10.61
3/24/2021 4:15:00 PM 11.91 53.438 0.67 7.96 25.71 10.66
3/24/2021 4:30:00 PM 12.01 53.618 0.693 7.95 18.11 10.63
3/24/2021 4:45:00 PM 12.02 53.636 0.696 7.96 14.41 10.64
3/24/2021 5:00:00 PM 12.05 53.69 0.701 7.96 14.1 10.66
3/24/2021 5:15:00 PM 12.08 53.744 0.71 7.95 13.5 10.61
3/24/2021 5:30:00 PM 12.08 53.744 0.709 7.95 14.74 10.57
3/24/2021 5:45:00 PM 12.1 53.78 0.71 7.94 35.98 10.41
3/24/2021 6:00:00 PM 12.11 53.798 0.703 7.93 15.07 10.32
3/24/2021 6:15:00 PM 12.12 53.816 0.697 7.92 18.3 10.25
3/24/2021 6:30:00 PM 12.13 53.834 0.685 7.91 20.66 10.12
3/24/2021 6:45:00 PM 12.15 53.87 0.674 7.9 26.03 10.06
3/24/2021 7:00:00 PM 12.17 53.906 0.665 7.89 21.76 9.97
3/24/2021 7:15:00 PM 12.18 53.924 0.657 7.88 20.08 9.91
3/24/2021 7:30:00 PM 12.19 53.942 0.649 7.87 25.05 9.83
3/24/2021 7:45:00 PM 12.21 53.978 0.647 7.86 20.22 9.74
3/24/2021 8:00:00 PM 12.22 53.996 0.645 7.85 21.75 9.67
3/24/2021 8:15:00 PM 12.23 54.014 0.644 7.84 18.52 9.6
3/24/2021 8:30:00 PM 12.24 54.032 0.643 7.82 20.96 9.52
3/24/2021 8:45:00 PM 12.25 54.05 0.641 7.81 22.2 9.44
3/24/2021 9:00:00 PM 12.25 54.05 0.639 7.8 15.91 9.38
3/24/2021 9:15:00 PM 12.26 54.068 0.638 7.79 22.57 9.32
3/24/2021 9:30:00 PM 12.26 54.068 0.639 7.78 22.17 9.22
3/24/2021 9:45:00 PM 12.26 54.068 0.635 7.77 14.69 9.18
3/24/2021 10:00:00 PM 12.26 54.068 0.64 7.76 12.94 9.14
3/24/2021 10:15:00 PM 12.26 54.068 0.638 7.75 20.49 9.11
3/24/2021 10:30:00 PM 12.26 54.068 0.635 7.74 15.95 9.07
3/24/2021 10:45:00 PM 12.25 54.05 0.634 7.74 12.68 9
3/24/2021 11:00:00 PM 12.25 54.05 0.633 7.73 14.76 8.96
3/24/2021 11:15:00 PM 12.25 54.05 0.633 7.72 13.57 8.97
3/24/2021 11:30:00 PM 12.24 54.032 0.631 7.72 14.78 8.99
3/24/2021 11:45:00 PM 12.24 54.032 0.63 7.71 15.48 8.96
3/25/2021 12:00:00 AM 12.24 54.032 0.63 7.71 15.22 8.94
3/25/2021 12:15:00 AM 12.25 54.05 0.632 7.71 16.08 8.95
3/25/2021 12:30:00 AM 12.25 54.05 0.631 7.71 17.39 8.97
3/25/2021 12:45:00 AM 12.25 54.05 0.631 7.7 15.55 8.97
3/25/2021 1:00:00 AM 12.26 54.068 0.615 7.71 28.57 8.95
3/25/2021 1:15:00 AM 12.27 54.086 0.638 7.71 21 9
3/25/2021 1:30:00 AM 12.27 54.086 0.641 7.71 20.26 9
3/25/2021 1:45:00 AM 12.27 54.086 0.644 7.71 22.78 8.98
3/25/2021 2:00:00 AM 12.28 54.104 0.649 7.71 22.74 9.02
3/25/2021 2:15:00 AM 12.28 54.104 0.65 7.71 25.56 9.05
3/25/2021 2:30:00 AM 12.29 54.122 0.651 7.71 22.17 9.08
3/25/2021 2:45:00 AM 12.29 54.122 0.651 7.71 22.11 9.07
3/25/2021 3:00:00 AM 12.29 54.122 0.649 7.71 20.67 9.1
3/25/2021 3:15:00 AM 12.3 54.14 0.649 7.71 27.21 9.1
3/25/2021 3:30:00 AM 12.3 54.14 0.648 7.71 21.83 9.11
3/25/2021 3:45:00 AM 12.3 54.14 0.646 7.7 20.3 9.11
3/25/2021 4:00:00 AM 12.29 54.122 0.647 7.7 21.05 9.12
3/25/2021 4:15:00 AM 12.29 54.122 0.651 7.7 38.5 9.14
3/25/2021 4:30:00 AM 12.27 54.086 0.655 7.7 27.54 9.15
3/25/2021 4:45:00 AM 12.26 54.068 0.659 7.69 20.07 9.17
3/25/2021 5:00:00 AM 12.24 54.032 0.664 7.7 16.74 9.17
3/25/2021 5:15:00 AM 12.22 53.996 0.67 7.7 16.35 9.19
3/25/2021 5:30:00 AM 12.19 53.942 0.677 7.7 21.79 9.19
3/25/2021 5:45:00 AM 12.17 53.906 0.685 7.7 17.12 9.2
3/25/2021 6:00:00 AM 12.15 53.87 0.689 7.7 22.3 9.21
3/25/2021 6:15:00 AM 12.13 53.834 0.693 7.7 22.86 9.2
3/25/2021 6:30:00 AM 12.11 53.798 0.698 7.71 23.35 9.2
3/25/2021 6:45:00 AM 12.09 53.762 0.701 7.71 15.41 9.21
3/25/2021 7:00:00 AM 12.08 53.744 0.704 7.71 13.38 9.21
3/25/2021 7:15:00 AM 12.06 53.708 0.705 7.71 16.15 9.19
3/25/2021 7:30:00 AM 12.05 53.69 0.705 7.71 16.67 9.2
3/25/2021 7:45:00 AM 12.04 53.672 0.706 7.71 10.8 9.18
3/25/2021 8:00:00 AM 12.04 53.672 0.702 7.71 10.21 9.22
3/25/2021 8:15:00 AM 12.05 53.69 0.697 7.71 12.62 9.25
3/25/2021 8:30:00 AM 12.06 53.708 0.693 7.7 9.6 9.27
3/25/2021 8:45:00 AM 12.07 53.726 0.69 7.71 10.91 9.34
3/25/2021 9:00:00 AM 12.1 53.78 0.684 7.7 9.08 9.36
3/25/2021 9:15:00 AM 12.12 53.816 0.682 7.71 9.6 9.43
3/25/2021 9:30:00 AM 12.15 53.87 0.675 7.71 11.69 9.49
3/25/2021 9:45:00 AM 12.16 53.888 0.672 7.71 10.06 9.49
3/25/2021 10:00:00 AM 12.19 53.942 0.667 7.72 10.26 9.58
3/25/2021 10:15:00 AM 12.22 53.996 0.664 7.72 9.23 9.63
3/25/2021 10:30:00 AM 12.27 54.086 0.66 7.73 12.99 9.79
3/25/2021 10:45:00 AM 12.31 54.158 0.657 7.74 9.55 9.92
3/25/2021 11:00:00 AM 12.33 54.194 0.654 7.75 10.7 9.96
3/25/2021 11:15:00 AM 12.38 54.284 0.656 7.76 9.89 10.1
3/25/2021 11:30:00 AM 12.45 54.41 0.653 7.78 10.51 10.31
3/25/2021 11:45:00 AM 12.51 54.518 0.653 7.78 9.51 10.5
3/25/2021 12:00:00 PM 12.56 54.608 0.651 7.8 7.93 10.63
3/25/2021 12:15:00 PM 12.61 54.698 0.652 7.82 13.06 10.76
3/25/2021 12:30:00 PM 12.66 54.788 0.653 7.83 9.07 10.92
3/25/2021 12:45:00 PM 12.71 54.878 0.653 7.86 7.63 10.99
3/25/2021 1:00:00 PM 12.77 54.986 0.656 7.87 7.92 11.19
3/25/2021 1:15:00 PM 12.83 55.094 0.656 7.89 8.32 11.37
3/25/2021 1:30:00 PM 12.88 55.184 0.658 7.9 8.74 11.49
3/25/2021 1:45:00 PM 12.95 55.31 0.658 7.92 6.72 11.64
3/25/2021 2:00:00 PM 13.02 55.436 0.658 7.94 8.03 11.75
3/25/2021 2:15:00 PM 13.07 55.526 0.661 7.96 7.85 11.89
3/25/2021 2:30:00 PM 13.13 55.634 0.663 7.97 7.68 11.95
3/25/2021 2:45:00 PM 13.21 55.778 0.661 7.99 7.86 12.08
3/25/2021 3:00:00 PM 13.3 55.94 0.663 8.01 7.11 12.24
3/25/2021 3:15:00 PM 13.35 56.03 0.664 8.03 8.17 12.34
3/25/2021 3:30:00 PM 13.45 56.21 0.664 8.04 9.82 12.4
3/25/2021 3:45:00 PM 13.5 56.3 0.665 8.06 7.66 12.49
3/25/2021 4:00:00 PM 13.55 56.39 0.666 8.06 7.77 12.44
3/25/2021 4:15:00 PM 13.6 56.48 0.663 8.07 11.29 12.44
3/25/2021 4:30:00 PM 13.65 56.57 0.659 8.08 7.35 12.46
3/25/2021 4:45:00 PM 13.67 56.606 0.66 8.08 16.17 12.4
3/25/2021 5:00:00 PM 13.7 56.66 0.659 8.09 9.4 12.39
3/25/2021 5:15:00 PM 13.74 56.732 0.658 8.09 9.54 12.39
3/25/2021 5:30:00 PM 13.76 56.768 0.654 8.1 8.08 12.31
3/25/2021 5:45:00 PM 13.78 56.804 0.654 8.1 6.76 12.17
3/25/2021 6:00:00 PM 13.78 56.804 0.648 8.09 8.93 12.04
3/25/2021 6:15:00 PM 13.78 56.804 0.646 8.08 14.77 11.87
3/25/2021 6:30:00 PM 13.77 56.786 0.643 8.07 8.96 11.66
3/25/2021 6:45:00 PM 13.77 56.786 0.64 8.05 10.15 11.46
3/25/2021 7:00:00 PM 13.76 56.768 0.636 8.04 9.98 11.24
3/25/2021 7:15:00 PM 13.75 56.75 0.634 8.02 7.24 11.02
3/25/2021 7:30:00 PM 13.73 56.714 0.63 8 10.39 10.8
3/25/2021 7:45:00 PM 13.71 56.678 0.629 7.98 8.42 10.61
3/25/2021 8:00:00 PM 13.69 56.642 0.625 7.95 8.57 10.42
3/25/2021 8:15:00 PM 13.67 56.606 0.622 7.93 8.38 10.21
3/25/2021 8:30:00 PM 13.65 56.57 0.618 7.91 7.85 10
3/25/2021 8:45:00 PM 13.63 56.534 0.615 7.88 9.5 9.83
3/25/2021 9:00:00 PM 13.6 56.48 0.613 7.86 8.23 9.67
3/25/2021 9:15:00 PM 13.58 56.444 0.611 7.84 8.45 9.49
3/25/2021 9:30:00 PM 13.56 56.408 0.608 7.82 8.57 9.36
3/25/2021 9:45:00 PM 13.54 56.372 0.605 7.8 9.12 9.25
3/25/2021 10:00:00 PM 13.52 56.336 0.603 7.78 10.17 9.11
3/25/2021 10:15:00 PM 13.5 56.3 0.6 7.76 8.56 9
3/25/2021 10:30:00 PM 13.48 56.264 0.597 7.74 9.38 8.88
3/25/2021 10:45:00 PM 13.45 56.21 0.594 7.72 9.36 8.75
3/25/2021 11:00:00 PM 13.43 56.174 0.594 7.71 9.05 8.71
3/25/2021 11:15:00 PM 13.41 56.138 0.592 7.7 9.58 8.62
3/25/2021 11:30:00 PM 13.39 56.102 0.589 7.69 10.25 8.56
3/25/2021 11:45:00 PM 13.37 56.066 0.588 7.67 10.83 8.49
3/26/2021 12:00:00 AM 13.34 56.012 0.587 7.66 8.81 8.42
3/26/2021 12:15:00 AM 13.32 55.976 0.586 7.65 8.78 8.39
3/26/2021 12:30:00 AM 13.31 55.958 0.583 7.64 9.51 8.34
3/26/2021 12:45:00 AM 13.29 55.922 0.583 7.64 9.03 8.31
3/26/2021 1:00:00 AM 13.28 55.904 0.583 7.63 10.21 8.3
3/26/2021 1:15:00 AM 13.27 55.886 0.582 7.62 8.65 8.26
3/26/2021 1:30:00 AM 13.25 55.85 0.582 7.62 8.95 8.25
3/26/2021 1:45:00 AM 13.24 55.832 0.582 7.62 8.28 8.22
3/26/2021 2:00:00 AM 13.24 55.832 0.582 7.61 7.89 8.22
3/26/2021 2:15:00 AM 13.23 55.814 0.582 7.61 15.32 8.23
3/26/2021 2:30:00 AM 13.23 55.814 0.583 7.61 10.26 8.22
3/26/2021 2:45:00 AM 13.23 55.814 0.584 7.61 8.37 8.2
3/26/2021 3:00:00 AM 13.23 55.814 0.584 7.61 19.24 8.2
3/26/2021 3:15:00 AM 13.23 55.814 0.583 7.61 13.68 8.22
3/26/2021 3:30:00 AM 13.23 55.814 0.587 7.61 7.68 8.18
3/26/2021 3:45:00 AM 13.23 55.814 0.588 7.61 8.77 8.22
3/26/2021 4:00:00 AM 13.23 55.814 0.587 7.61 8.45 8.2
3/26/2021 4:15:00 AM 13.23 55.814 0.589 7.61 11.6 8.19
3/26/2021 4:30:00 AM 13.23 55.814 0.589 7.61 8.21 8.21
3/26/2021 4:45:00 AM 13.22 55.796 0.589 7.61 7.58 8.17
3/26/2021 5:00:00 AM 13.22 55.796 0.592 7.61 8.81 8.21
3/26/2021 5:15:00 AM 13.22 55.796 0.592 7.61 7.93 8.21
3/26/2021 5:30:00 AM 13.21 55.778 0.594 7.61 7.82 8.22
3/26/2021 5:45:00 AM 13.19 55.742 0.596 7.61 6.61 8.18
3/26/2021 6:00:00 AM 13.18 55.724 0.597 7.61 8.14 8.2
3/26/2021 6:15:00 AM 13.17 55.706 0.598 7.61 8.41 8.23
3/26/2021 6:30:00 AM 13.16 55.688 0.602 7.61 8.95 8.22
3/26/2021 6:45:00 AM 13.16 55.688 0.602 7.62 7.15 8.19
3/26/2021 7:00:00 AM 13.17 55.706 0.604 7.62 8.23 8.18
3/26/2021 7:15:00 AM 13.17 55.706 0.605 7.62 6.92 8.18
3/26/2021 7:30:00 AM 13.17 55.706 0.608 7.62 12.14 8.23
3/26/2021 7:45:00 AM 13.18 55.724 0.611 7.62 8.1 8.25
3/26/2021 8:00:00 AM 13.19 55.742 0.612 7.63 5.92 8.3
3/26/2021 8:15:00 AM 13.21 55.778 0.615 7.63 8.37 8.31
3/26/2021 8:30:00 AM 13.24 55.832 0.615 7.64 7.59 8.34
3/26/2021 8:45:00 AM 13.26 55.868 0.618 7.64 5.44 8.49
3/26/2021 9:00:00 AM 13.32 55.976 0.619 7.66 5.23 8.68
3/26/2021 9:15:00 AM 13.39 56.102 0.62 7.67 7.23 8.9
3/26/2021 9:30:00 AM 13.44 56.192 0.623 7.69 5 9.02
3/26/2021 9:45:00 AM 13.51 56.318 0.626 7.7 14.09 9.19
3/26/2021 10:00:00 AM 13.65 56.57 0.625 7.72 4.63 9.43
3/26/2021 10:15:00 AM 13.77 56.786 0.627 7.75 5.09 9.72
3/26/2021 10:30:00 AM 13.93 57.074 0.63 7.78 4.69 10.04
3/26/2021 10:45:00 AM 14.11 57.398 0.63 7.82 5.38 10.45
3/26/2021 11:00:00 AM 14.28 57.704 0.632 7.84 4.61 10.74
3/26/2021 11:15:00 AM 14.47 58.046 0.633 7.89 5.94 11.06
3/26/2021 11:30:00 AM 14.67 58.406 0.634 7.92 4.73 11.46
3/26/2021 11:45:00 AM 14.87 58.766 0.637 7.96 4.18 11.88
3/26/2021 12:00:00 PM 15.05 59.09 0.637 7.99 4.27 12.19
3/26/2021 12:15:00 PM 15.26 59.468 0.64 8.03 5.14 12.56
3/26/2021 12:30:00 PM 15.46 59.828 0.64 8.07 3.75 12.85
3/26/2021 12:45:00 PM 15.66 60.188 0.641 8.11 4.15 13.21
3/26/2021 1:00:00 PM 15.83 60.494 0.644 8.15 5.42 13.42
3/26/2021 1:15:00 PM 16.02 60.836 0.645 8.19 4.24 13.69
3/26/2021 1:30:00 PM 16.2 61.16 0.646 8.23 3.84 13.81
3/26/2021 1:45:00 PM 16.38 61.484 0.646 8.26 3.47 14.06
3/26/2021 2:00:00 PM 16.53 61.754 0.646 8.3 4.26 14.17
3/26/2021 2:15:00 PM 16.68 62.024 0.648 8.33 3.63 14.3
3/26/2021 2:30:00 PM 16.8 62.24 0.647 8.35 3.63 14.36
3/26/2021 2:45:00 PM 16.93 62.474 0.649 8.38 3.19 14.63
3/26/2021 3:00:00 PM 17.05 62.69 0.647 8.41 3.16 14.64
3/26/2021 3:15:00 PM 17.16 62.888 0.648 8.43 3.23 14.69
3/26/2021 3:30:00 PM 17.24 63.032 0.649 8.45 3.03 14.67
3/26/2021 3:45:00 PM 17.31 63.158 0.65 8.46 3.24 14.61
3/26/2021 4:00:00 PM 17.37 63.266 0.654 8.48 3.29 14.69
3/26/2021 4:15:00 PM 17.42 63.356 0.654 8.49 3.04 14.52
3/26/2021 4:30:00 PM 17.43 63.374 0.655 8.5 3.12 14.4
3/26/2021 4:45:00 PM 17.42 63.356 0.657 8.51 8.81 14.22
3/26/2021 5:00:00 PM 17.4 63.32 0.654 8.51 4.42 13.97
3/26/2021 5:15:00 PM 17.36 63.248 0.656 8.51 3.22 13.79
3/26/2021 5:30:00 PM 17.31 63.158 0.658 8.5 2.93 13.55
3/26/2021 5:45:00 PM 17.27 63.086 0.659 8.5 4 13.33
3/26/2021 6:00:00 PM 17.21 62.978 0.658 8.49 3.55 13.12
3/26/2021 6:15:00 PM 17.16 62.888 0.658 8.48 3.92 12.83
3/26/2021 6:30:00 PM 17.1 62.78 0.66 8.47 3.77 12.6
3/26/2021 6:45:00 PM 17.02 62.636 0.662 8.46 3.03 12.4
3/26/2021 7:00:00 PM 16.94 62.492 0.661 8.44 2.9 12.1
3/26/2021 7:15:00 PM 16.86 62.348 0.664 8.42 3.75 11.83
3/26/2021 7:30:00 PM 16.76 62.168 0.665 8.4 4.14 11.52
3/26/2021 7:45:00 PM 16.67 62.006 0.666 8.38 3.1 11.26
3/26/2021 8:00:00 PM 16.55 61.79 0.668 8.35 2.87 10.94
3/26/2021 8:15:00 PM 16.44 61.592 0.671 8.32 3.34 10.65
3/26/2021 8:30:00 PM 16.32 61.376 0.672 8.29 2.29 10.33
3/26/2021 8:45:00 PM 16.21 61.178 0.675 8.26 2.82 10.09
3/26/2021 9:00:00 PM 16.09 60.962 0.675 8.22 3.69 9.86
3/26/2021 9:15:00 PM 15.98 60.764 0.678 8.19 2.72 9.6
3/26/2021 9:30:00 PM 15.86 60.548 0.68 8.15 3.15 9.4
3/26/2021 9:45:00 PM 15.76 60.368 0.682 8.12 2.99 9.2
3/26/2021 10:00:00 PM 15.65 60.17 0.682 8.09 5.21 9.01
3/26/2021 10:15:00 PM 15.54 59.972 0.684 8.06 2.54 8.83
3/26/2021 10:30:00 PM 15.44 59.792 0.687 8.03 2.77 8.74
3/26/2021 10:45:00 PM 15.34 59.612 0.688 8 3.24 8.56
3/26/2021 11:00:00 PM 15.24 59.432 0.689 7.97 2.32 8.48
3/26/2021 11:15:00 PM 15.14 59.252 0.69 7.95 3.13 8.38
3/26/2021 11:30:00 PM 15.04 59.072 0.694 7.92 3.84 8.28
3/26/2021 11:45:00 PM 14.95 58.91 0.695 7.9 3.5 8.18
3/27/2021 12:00:00 AM 14.86 58.748 0.696 7.88 3.43 8.12
3/27/2021 12:15:00 AM 14.77 58.586 0.696 7.86 2.91 8.07
3/27/2021 12:30:00 AM 14.69 58.442 0.697 7.85 2.72 8.01
3/27/2021 12:45:00 AM 14.61 58.298 0.698 7.83 3.01 7.99
3/27/2021 1:00:00 AM 14.54 58.172 0.7 7.82 3.23 7.92
3/27/2021 1:15:00 AM 14.47 58.046 0.7 7.81 2.37 7.9
3/27/2021 1:30:00 AM 14.4 57.92 0.703 7.8 2.57 7.86
3/27/2021 1:45:00 AM 14.34 57.812 0.702 7.79 2.78 7.87
3/27/2021 2:00:00 AM 14.28 57.704 0.702 7.78 2.4 7.86
3/27/2021 2:15:00 AM 14.21 57.578 0.703 7.78 3.19 7.89
3/27/2021 2:30:00 AM 14.16 57.488 0.707 7.77 3.43 7.85
3/27/2021 2:45:00 AM 14.1 57.38 0.705 7.77 3.91 7.87
3/27/2021 3:00:00 AM 14.05 57.29 0.708 7.77 3.06 7.89
3/27/2021 3:15:00 AM 14 57.2 0.708 7.76 4.27 7.86
3/27/2021 3:30:00 AM 13.96 57.128 0.711 7.76 3.07 7.88
3/27/2021 3:45:00 AM 13.91 57.038 0.709 7.76 2.85 7.86
3/27/2021 4:00:00 AM 13.86 56.948 0.712 7.76 5.44 7.91
3/27/2021 4:15:00 AM 13.81 56.858 0.711 7.76 2.79 7.87
3/27/2021 4:30:00 AM 13.77 56.786 0.714 7.76 2.62 7.91
3/27/2021 4:45:00 AM 13.72 56.696 0.715 7.76 3.9 7.92
3/27/2021 5:00:00 AM 13.67 56.606 0.716 7.75 3.15 7.93
3/27/2021 5:15:00 AM 13.63 56.534 0.717 7.75 2.79 7.92
3/27/2021 5:30:00 AM 13.58 56.444 0.716 7.76 6.4 7.93
3/27/2021 5:45:00 AM 13.53 56.354 0.718 7.75 2.96 7.9
3/27/2021 6:00:00 AM 13.49 56.282 0.718 7.75 2.94 7.97
3/27/2021 6:15:00 AM 13.44 56.192 0.72 7.75 5.41 7.97
3/27/2021 6:30:00 AM 13.39 56.102 0.721 7.75 4.78 7.98
3/27/2021 6:45:00 AM 13.35 56.03 0.719 7.75 3.04 7.97
3/27/2021 7:00:00 AM 13.3 55.94 0.72 7.75 2.53 8
3/27/2021 7:15:00 AM 13.25 55.85 0.72 7.75 2.68 8.03
3/27/2021 7:30:00 AM 13.21 55.778 0.722 7.75 3.11 8.08
3/27/2021 7:45:00 AM 13.17 55.706 0.725 7.75 4.45 8.15
3/27/2021 8:00:00 AM 13.13 55.634 0.723 7.76 3.75 8.23
3/27/2021 8:15:00 AM 13.12 55.616 0.725 7.76 2.81 8.35
3/27/2021 8:30:00 AM 13.11 55.598 0.725 7.76 2.7 8.5
3/27/2021 8:45:00 AM 13.12 55.616 0.725 7.78 2.75 8.73
3/27/2021 9:00:00 AM 13.13 55.634 0.727 7.79 2.67 8.94
3/27/2021 9:15:00 AM 13.15 55.67 0.723 7.81 2.35 9.19
3/27/2021 9:30:00 AM 13.17 55.706 0.726 7.83 2.32 9.42
3/27/2021 9:45:00 AM 13.22 55.796 0.725 7.85 2.44 9.73
3/27/2021 10:00:00 AM 13.29 55.922 0.727 7.87 2.56 10.11
3/27/2021 10:15:00 AM 13.38 56.084 0.724 7.9 2.15 10.49
3/27/2021 10:30:00 AM 13.51 56.318 0.728 7.95 2.73 10.93
3/27/2021 10:45:00 AM 13.66 56.588 0.726 7.99 2.76 11.38
3/27/2021 11:00:00 AM 13.85 56.93 0.727 8.03 3.39 11.72
3/27/2021 11:15:00 AM 14.04 57.272 0.724 8.06 2.71 12.2
3/27/2021 11:30:00 AM 14.23 57.614 0.727 8.09 2.51 12.62
3/27/2021 11:45:00 AM 14.43 57.974 0.722 8.12 2.95 13.04
3/27/2021 12:00:00 PM 14.62 58.316 0.723 8.16 2.32 13.44
3/27/2021 12:15:00 PM 14.79 58.622 0.723 8.19 1.95 13.79
3/27/2021 12:30:00 PM 14.99 58.982 0.726 8.24 2.39 14.12
3/27/2021 12:45:00 PM 15.19 59.342 0.721 8.26 2.87 14.38
3/27/2021 1:00:00 PM 15.36 59.648 0.721 8.3 2.82 14.65
3/27/2021 1:15:00 PM 15.54 59.972 0.721 8.34 2.22 14.88
3/27/2021 1:30:00 PM 15.69 60.242 0.72 8.36 2.54 15.05
3/27/2021 1:45:00 PM 15.83 60.494 0.719 8.39 2.8 15.17
3/27/2021 2:00:00 PM 15.96 60.728 0.72 8.42 4.86 15.31
3/27/2021 2:15:00 PM 16.08 60.944 0.718 8.44 2.22 15.42
3/27/2021 2:30:00 PM 16.2 61.16 0.718 8.47 2.76 15.64
3/27/2021 2:45:00 PM 16.31 61.358 0.716 8.49 12.67 15.76
3/27/2021 3:00:00 PM 16.39 61.502 0.712 8.51 2.84 15.89
3/27/2021 3:15:00 PM 16.5 61.7 0.71 8.54 2.05 15.78
3/27/2021 3:30:00 PM 16.57 61.826 0.71 8.56 2.59 15.89
3/27/2021 3:45:00 PM 16.63 61.934 0.709 8.57 2.89 15.97
3/27/2021 4:00:00 PM 16.68 62.024 0.711 8.59 2.22 15.86
3/27/2021 4:15:00 PM 16.73 62.114 0.711 8.6 2.28 15.74
3/27/2021 4:30:00 PM 16.74 62.132 0.71 8.62 2.44 15.6
3/27/2021 4:45:00 PM 16.75 62.15 0.709 8.62 2.09 15.42
3/27/2021 5:00:00 PM 16.77 62.186 0.709 8.62 3.01 15.19
3/27/2021 5:15:00 PM 16.78 62.204 0.707 8.62 2.77 14.99
3/27/2021 5:30:00 PM 16.79 62.222 0.71 8.63 2.42 14.76
3/27/2021 5:45:00 PM 16.76 62.168 0.71 8.62 1.99 14.54
3/27/2021 6:00:00 PM 16.74 62.132 0.711 8.62 3.42 14.24
3/27/2021 6:15:00 PM 16.71 62.078 0.71 8.61 2.55 13.94
3/27/2021 6:30:00 PM 16.66 61.988 0.71 8.59 5.45 13.54
3/27/2021 6:45:00 PM 16.61 61.898 0.712 8.58 2.19 13.18
3/27/2021 7:00:00 PM 16.54 61.772 0.714 8.56 3 12.8
3/27/2021 7:15:00 PM 16.48 61.664 0.714 8.54 2.25 12.41
3/27/2021 7:30:00 PM 16.42 61.556 0.715 8.51 4 12.02
3/27/2021 7:45:00 PM 16.34 61.412 0.714 8.48 2.86 11.64
3/27/2021 8:00:00 PM 16.26 61.268 0.716 8.46 3.38 11.31
3/27/2021 8:15:00 PM 16.17 61.106 0.717 8.43 3.86 10.96
3/27/2021 8:30:00 PM 16.08 60.944 0.716 8.39 4.81 10.63
3/27/2021 8:45:00 PM 15.98 60.764 0.718 8.36 3.88 10.33
3/27/2021 9:00:00 PM 15.89 60.602 0.72 8.33 3.24 10
3/27/2021 9:15:00 PM 15.79 60.422 0.718 8.29 2.86 9.77
3/27/2021 9:30:00 PM 15.69 60.242 0.722 8.26 3.45 9.55
3/27/2021 9:45:00 PM 15.59 60.062 0.72 8.22 3.13 9.33
3/27/2021 10:00:00 PM 15.49 59.882 0.724 8.18 2.89 9.13
3/27/2021 10:15:00 PM 15.4 59.72 0.726 8.15 2.85 8.97
3/27/2021 10:30:00 PM 15.3 59.54 0.724 8.11 3.16 8.81
3/27/2021 10:45:00 PM 15.21 59.378 0.725 8.08 2.38 8.66
3/27/2021 11:00:00 PM 15.12 59.216 0.727 8.05 2.22 8.53
3/27/2021 11:15:00 PM 15.04 59.072 0.729 8.02 2.64 8.41
3/27/2021 11:30:00 PM 14.96 58.928 0.729 7.99 2.83 8.3
3/27/2021 11:45:00 PM 14.87 58.766 0.727 7.96 4.02 8.22
3/28/2021 12:00:00 AM 14.78 58.604 0.726 7.94 4.25 8.14
3/28/2021 12:15:00 AM 14.7 58.46 0.727 7.91 3.21 8.07
3/28/2021 12:30:00 AM 14.63 58.334 0.728 7.9 5.57 8.02
3/28/2021 12:45:00 AM 14.55 58.19 0.729 7.87 3.14 7.96
3/28/2021 1:00:00 AM 14.48 58.064 0.728 7.86 2.72 7.92
3/28/2021 1:15:00 AM 14.43 57.974 0.727 7.85 3.06 7.9
3/28/2021 1:30:00 AM 14.37 57.866 0.727 7.84 2.75 7.86
3/28/2021 1:45:00 AM 14.32 57.776 0.73 7.82 4.44 7.86
3/28/2021 2:00:00 AM 14.26 57.668 0.726 7.81 2.79 7.83
3/28/2021 2:15:00 AM 14.22 57.596 0.727 7.8 2.67 7.82
3/28/2021 2:30:00 AM 14.17 57.506 0.726 7.79 2.81 7.81
3/28/2021 2:45:00 AM 14.13 57.434 0.727 7.79 2.96 7.78
3/28/2021 3:00:00 AM 14.08 57.344 0.726 7.79 3.68 7.79
3/28/2021 3:15:00 AM 14.04 57.272 0.727 7.78 3.61 7.8
3/28/2021 3:30:00 AM 14.01 57.218 0.727 7.78 3.61 7.79
3/28/2021 3:45:00 AM 13.98 57.164 0.726 7.78 3.53 7.8
3/28/2021 4:00:00 AM 13.95 57.11 0.725 7.78 3.84 7.8
3/28/2021 4:15:00 AM 13.93 57.074 0.731 7.78 5.18 7.83
3/28/2021 4:30:00 AM 13.91 57.038 0.729 7.78 4.16 7.81
3/28/2021 4:45:00 AM 13.89 57.002 0.728 7.77 3.1 7.84
3/28/2021 5:00:00 AM 13.87 56.966 0.73 7.78 3.35 7.82
3/28/2021 5:15:00 AM 13.86 56.948 0.729 7.77 4.3 7.84
3/28/2021 5:30:00 AM 13.85 56.93 0.731 7.77 2.83 7.82
3/28/2021 5:45:00 AM 13.84 56.912 0.733 7.77 4.57 7.84
3/28/2021 6:00:00 AM 13.83 56.894 0.733 7.77 2.98 7.82
3/28/2021 6:15:00 AM 13.82 56.876 0.733 7.77 2.68 7.84
3/28/2021 6:30:00 AM 13.8 56.84 0.736 7.77 2.82 7.84
3/28/2021 6:45:00 AM 13.79 56.822 0.736 7.77 2.86 7.84
3/28/2021 7:00:00 AM 13.78 56.804 0.736 7.77 2.59 7.84
3/28/2021 7:15:00 AM 13.78 56.804 0.737 7.77 4.26 7.85
3/28/2021 7:30:00 AM 13.76 56.768 0.738 7.77 2.71 7.86
3/28/2021 7:45:00 AM 13.76 56.768 0.736 7.77 3.39 7.88
3/28/2021 8:00:00 AM 13.74 56.732 0.735 7.77 2.78 7.92
3/28/2021 8:15:00 AM 13.74 56.732 0.737 7.78 3.39 7.93
3/28/2021 8:30:00 AM 13.73 56.714 0.736 7.78 2.85 7.98
3/28/2021 8:45:00 AM 13.73 56.714 0.737 7.79 3.13 8.04
3/28/2021 9:00:00 AM 13.72 56.696 0.736 7.79 3.19 8.1
3/28/2021 9:15:00 AM 13.73 56.714 0.735 7.79 2.63 8.2
3/28/2021 9:30:00 AM 13.73 56.714 0.738 7.8 3.01 8.28
3/28/2021 9:45:00 AM 13.73 56.714 0.737 7.81 4.88 8.38
3/28/2021 10:00:00 AM 13.73 56.714 0.738 7.81 2.69 8.41
3/28/2021 10:15:00 AM 13.72 56.696 0.738 7.81 3.37 8.42
3/28/2021 10:30:00 AM 13.72 56.696 0.74 7.81 2.78 8.43
3/28/2021 10:45:00 AM 13.71 56.678 0.74 7.82 3.16 8.53
3/28/2021 11:00:00 AM 13.72 56.696 0.738 7.83 2.7 8.68
3/28/2021 11:15:00 AM 13.71 56.678 0.74 7.84 3.05 8.78
3/28/2021 11:30:00 AM 13.7 56.66 0.74 7.84 2.65 8.81
3/28/2021 11:45:00 AM 13.69 56.642 0.739 7.84 4.62 8.83
3/28/2021 12:00:00 PM 13.68 56.624 0.739 7.84 2.87 8.91
3/28/2021 12:15:00 PM 13.68 56.624 0.74 7.85 2.9 9.09
3/28/2021 12:30:00 PM 13.67 56.606 0.736 7.86 3.51 9.22
3/28/2021 12:45:00 PM 13.65 56.57 0.736 7.87 3.27 9.28
3/28/2021 1:00:00 PM 13.64 56.552 0.737 7.87 3.22 9.39
3/28/2021 1:15:00 PM 13.62 56.516 0.734 7.88 7.79 9.76
3/28/2021 1:30:00 PM 13.61 56.498 0.734 7.89 2.92 9.64
3/28/2021 1:45:00 PM 13.61 56.498 0.735 7.9 3.15 9.77
3/28/2021 2:00:00 PM 13.63 56.534 0.733 7.92 3.21 9.97
3/28/2021 2:15:00 PM 13.65 56.57 0.734 7.93 3.83 10.08
3/28/2021 2:30:00 PM 13.67 56.606 0.734 7.95 5.72 10.18
3/28/2021 2:45:00 PM 13.7 56.66 0.734 7.96 3.16 10.33
3/28/2021 3:00:00 PM 13.74 56.732 0.735 7.97 3.65 10.54
3/28/2021 3:15:00 PM 13.77 56.786 0.734 7.99 2.91 10.65
3/28/2021 3:30:00 PM 13.81 56.858 0.734 8 3.01 10.74
3/28/2021 3:45:00 PM 13.86 56.948 0.735 8.02 3.51 10.92
3/28/2021 4:00:00 PM 13.94 57.092 0.737 8.04 2.77 11.22
3/28/2021 4:15:00 PM 13.99 57.182 0.736 8.07 3.2 11.43
3/28/2021 4:30:00 PM 14.05 57.29 0.736 8.09 3.76 11.58
3/28/2021 4:45:00 PM 14.1 57.38 0.736 8.11 3.96 11.72
3/28/2021 5:00:00 PM 14.12 57.416 0.732 8.12 4.4 11.67
3/28/2021 5:15:00 PM 14.12 57.416 0.732 8.11 4.26 11.53
3/28/2021 5:30:00 PM 14.13 57.434 0.729 8.11 3.17 11.39
3/28/2021 5:45:00 PM 14.14 57.452 0.727 8.12 5.06 11.3
3/28/2021 6:00:00 PM 14.12 57.416 0.722 8.13 5.36 11.16
3/28/2021 6:15:00 PM 14.11 57.398 0.719 8.13 7.62 11.1
3/28/2021 6:30:00 PM 14.11 57.398 0.722 8.12 5.24 11
3/28/2021 6:45:00 PM 14.11 57.398 0.722 8.12 4.65 10.84
3/28/2021 7:00:00 PM 14.1 57.38 0.721 8.11 4.53 10.68
3/28/2021 7:15:00 PM 14.09 57.362 0.72 8.1 5.02 10.53
3/28/2021 7:30:00 PM 14.07 57.326 0.718 8.1 5.37 10.38
3/28/2021 7:45:00 PM 14.04 57.272 0.716 8.09 7.6 10.22
3/28/2021 8:00:00 PM 14.01 57.218 0.714 8.07 4.89 10.01
3/28/2021 8:15:00 PM 13.98 57.164 0.711 8.05 6.35 9.9
3/28/2021 8:30:00 PM 13.95 57.11 0.71 8.04 9.71 9.77
3/28/2021 8:45:00 PM 13.91 57.038 0.707 8.02 6.22 9.62
3/28/2021 9:00:00 PM 13.85 56.93 0.706 8.01 10.48 9.54
3/28/2021 9:15:00 PM 13.8 56.84 0.705 8 15.1 9.42
3/28/2021 9:30:00 PM 13.75 56.75 0.703 7.99 11.34 9.31
3/28/2021 9:45:00 PM 13.69 56.642 0.701 7.96 19.13 9.16
3/28/2021 10:00:00 PM 13.61 56.498 0.696 7.94 10.8 9.06
3/28/2021 10:15:00 PM 13.52 56.336 0.693 7.91 14.59 8.95
3/28/2021 10:30:00 PM 13.44 56.192 0.692 7.89 15.73 8.87
3/28/2021 10:45:00 PM 13.36 56.048 0.693 7.87 17.39 8.78
3/28/2021 11:00:00 PM 13.27 55.886 0.695 7.86 12.39 8.74
3/28/2021 11:15:00 PM 13.19 55.742 0.694 7.86 13.98 8.69
3/28/2021 11:30:00 PM 13.11 55.598 0.694 7.84 12.91 8.65
3/28/2021 11:45:00 PM 13.05 55.49 0.694 7.83 13.53 8.6
3/29/2021 12:00:00 AM 12.97 55.346 0.69 7.82 11.3 8.6
3/29/2021 12:15:00 AM 12.88 55.184 0.688 7.81 10.89 8.56
3/29/2021 12:30:00 AM 12.79 55.022 0.691 7.81 9.48 8.59
3/29/2021 12:45:00 AM 12.7 54.86 0.685 7.8 9.65 8.57
3/29/2021 1:00:00 AM 12.63 54.734 0.683 7.8 7.88 8.58
3/29/2021 1:15:00 AM 12.58 54.644 0.682 7.8 7.91 8.56
3/29/2021 1:30:00 AM 12.49 54.482 0.681 7.79 9.27 8.57
3/29/2021 1:45:00 AM 12.41 54.338 0.678 7.78 7.57 8.6
3/29/2021 2:00:00 AM 12.32 54.176 0.676 7.79 9.05 8.61
3/29/2021 2:15:00 AM 12.27 54.086 0.677 7.78 6.74 8.62
3/29/2021 2:30:00 AM 12.21 53.978 0.677 7.79 7.74 8.66
3/29/2021 2:45:00 AM 12.13 53.834 0.674 7.77 9.17 8.67
3/29/2021 3:00:00 AM 12.06 53.708 0.674 7.78 24.73 8.69
3/29/2021 3:15:00 AM 11.99 53.582 0.675 7.77 8.32 8.69
3/29/2021 3:30:00 AM 11.93 53.474 0.673 7.77 8.57 8.71
3/29/2021 3:45:00 AM 11.88 53.384 0.672 7.78 8.64 8.72
3/29/2021 4:00:00 AM 11.82 53.276 0.672 7.77 7.17 8.73
3/29/2021 4:15:00 AM 11.76 53.168 0.672 7.77 9.02 8.75
3/29/2021 4:30:00 AM 11.71 53.078 0.671 7.77 8.05 8.76
3/29/2021 4:45:00 AM 11.67 53.006 0.673 7.77 8.73 8.78
3/29/2021 5:00:00 AM 11.61 52.898 0.675 7.76 10.44 8.82
3/29/2021 5:15:00 AM 11.56 52.808 0.673 7.76 8.19 8.84
3/29/2021 5:30:00 AM 11.5 52.7 0.675 7.77 8.22 8.87
3/29/2021 5:45:00 AM 11.45 52.61 0.676 7.77 8.27 8.88
3/29/2021 6:00:00 AM 11.4 52.52 0.676 7.77 9.51 8.89
3/29/2021 6:15:00 AM 11.34 52.412 0.678 7.77 8.49 8.94
3/29/2021 6:30:00 AM 11.3 52.34 0.681 7.77 9.79 8.97
3/29/2021 6:45:00 AM 11.26 52.268 0.68 7.77 8.49 9
3/29/2021 7:00:00 AM 11.21 52.178 0.684 7.78 7.57 9.01
3/29/2021 7:15:00 AM 11.17 52.106 0.687 7.78 6.94 9.02
3/29/2021 7:30:00 AM 11.13 52.034 0.689 7.78 8.87 9.12
3/29/2021 7:45:00 AM 11.1 51.98 0.688 7.78 8.04 9.17
3/29/2021 8:00:00 AM 11.06 51.908 0.691 7.79 7.97 9.25
3/29/2021 8:15:00 AM 11.03 51.854 0.692 7.79 7.39 9.34
3/29/2021 8:30:00 AM 10.99 51.782 0.692 7.8 7.03 9.43
3/29/2021 8:45:00 AM 10.97 51.746 0.693 7.8 7.45 9.5
3/29/2021 9:00:00 AM 10.94 51.692 0.693 7.81 7.04 9.63
3/29/2021 9:15:00 AM 10.92 51.656 0.691 7.82 7.21 9.82
3/29/2021 9:30:00 AM 10.9 51.62 0.688 7.83 6.21 10.02
3/29/2021 9:45:00 AM 10.91 51.638 0.685 7.85 6.52 10.23
3/29/2021 10:00:00 AM 10.91 51.638 0.68 7.86 6.17 10.42
3/29/2021 10:15:00 AM 10.91 51.638 0.678 7.88 6.39 10.65
3/29/2021 10:30:00 AM 10.94 51.692 0.675 7.9 6.19 10.93
3/29/2021 10:45:00 AM 10.95 51.71 0.673 7.91 9.4 11.14
3/29/2021 11:00:00 AM 11.08 51.944 0.67 7.93 5.57 11.46
3/29/2021 11:15:00 AM 11.2 52.16 0.668 7.96 5.61 11.83
3/29/2021 11:30:00 AM 11.23 52.214 0.665 7.99 5.51 12.13
3/29/2021 11:45:00 AM 11.36 52.448 0.668 8.01 5.66 12.39
3/29/2021 12:00:00 PM 11.55 52.79 0.665 8.05 6.13 12.94
3/29/2021 12:15:00 PM 11.69 53.042 0.662 8.09 5.1 13.3
3/29/2021 12:30:00 PM 11.84 53.312 0.662 8.12 5.01 13.63
3/29/2021 12:45:00 PM 11.95 53.51 0.661 8.15 4.78 13.96
3/29/2021 1:00:00 PM 12.1 53.78 0.661 8.19 4.66 14.28
3/29/2021 1:15:00 PM 12.25 54.05 0.659 8.23 5.12 14.59
3/29/2021 1:30:00 PM 12.38 54.284 0.66 8.26 4.74 14.85
3/29/2021 1:45:00 PM 12.52 54.536 0.66 8.29 5.17 15.05
3/29/2021 2:00:00 PM 12.63 54.734 0.655 8.33 4.31 15.29
3/29/2021 2:15:00 PM 12.73 54.914 0.656 8.36 3.7 15.47
3/29/2021 2:30:00 PM 12.84 55.112 0.653 8.39 3.9 15.63
3/29/2021 2:45:00 PM 12.95 55.31 0.655 8.41 5.48 15.73
3/29/2021 3:00:00 PM 13.05 55.49 0.649 8.44 3.93 15.83
3/29/2021 3:15:00 PM 13.12 55.616 0.644 8.46 3.72 15.86
3/29/2021 3:30:00 PM 13.19 55.742 0.647 8.48 3.79 15.83
3/29/2021 3:45:00 PM 13.24 55.832 0.645 8.5 3.31 15.88
3/29/2021 4:00:00 PM 13.28 55.904 0.639 8.52 4.4 15.92
3/29/2021 4:15:00 PM 13.32 55.976 0.639 8.53 3.11 15.96
3/29/2021 4:30:00 PM 13.32 55.976 0.639 8.54 3.15 15.82
3/29/2021 4:45:00 PM 13.31 55.958 0.639 8.55 3.43 15.69
3/29/2021 5:00:00 PM 13.29 55.922 0.639 8.55 3.04 15.53
3/29/2021 5:15:00 PM 13.26 55.868 0.64 8.55 3.11 15.33
3/29/2021 5:30:00 PM 13.22 55.796 0.639 8.56 2.87 15.2
3/29/2021 5:45:00 PM 13.18 55.724 0.634 8.57 3 14.97
3/29/2021 6:00:00 PM 13.13 55.634 0.633 8.55 2.92 14.72
3/29/2021 6:15:00 PM 13.09 55.562 0.631 8.54 3.18 14.53
3/29/2021 6:30:00 PM 13.06 55.508 0.629 8.53 5.26 14.26
3/29/2021 6:45:00 PM 13.02 55.436 0.63 8.52 3.94 14.05
3/29/2021 7:00:00 PM 12.97 55.346 0.629 8.51 3.25 13.81
3/29/2021 7:15:00 PM 12.89 55.202 0.63 8.5 2.81 13.55
3/29/2021 7:30:00 PM 12.81 55.058 0.624 8.48 3.94 13.26
3/29/2021 7:45:00 PM 12.71 54.878 0.619 8.46 3.79 12.97
3/29/2021 8:00:00 PM 12.61 54.698 0.62 8.43 4.19 12.68
3/29/2021 8:15:00 PM 12.51 54.518 0.621 8.41 3.36 12.42
3/29/2021 8:30:00 PM 12.41 54.338 0.623 8.38 3.92 12.12
3/29/2021 8:45:00 PM 12.29 54.122 0.621 8.35 3.87 11.82
3/29/2021 9:00:00 PM 12.19 53.942 0.62 8.31 6.48 11.54
3/29/2021 9:15:00 PM 12.07 53.726 0.627 8.28 3.93 11.33
3/29/2021 9:30:00 PM 11.96 53.528 0.629 8.25 4.79 11.08
3/29/2021 9:45:00 PM 11.84 53.312 0.631 8.21 4.47 10.88
3/29/2021 10:00:00 PM 11.73 53.114 0.63 8.17 4.05 10.69
3/29/2021 10:15:00 PM 11.62 52.916 0.631 8.15 4.42 10.53
3/29/2021 10:30:00 PM 11.5 52.7 0.631 8.11 4.81 10.39
3/29/2021 10:45:00 PM 11.39 52.502 0.634 8.08 3.84 10.24
3/29/2021 11:00:00 PM 11.28 52.304 0.632 8.05 4.84 10.12
3/29/2021 11:15:00 PM 11.18 52.124 0.634 8.02 4.51 9.96
3/29/2021 11:30:00 PM 11.07 51.926 0.635 8 3.92 9.91
3/29/2021 11:45:00 PM 10.98 51.764 0.637 7.97 4.14 9.8
3/30/2021 12:00:00 AM 10.88 51.584 0.637 7.94 3.83 9.72
3/30/2021 12:15:00 AM 10.79 51.422 0.636 7.92 4.28 9.63
3/30/2021 12:30:00 AM 10.71 51.278 0.64 7.9 4.07 9.59
3/30/2021 12:45:00 AM 10.62 51.116 0.64 7.88 5.19 9.51
3/30/2021 1:00:00 AM 10.55 50.99 0.641 7.87 4.15 9.49
3/30/2021 1:15:00 AM 10.47 50.846 0.64 7.86 4.78 9.42
3/30/2021 1:30:00 AM 10.39 50.702 0.642 7.84 3.87 9.41
3/30/2021 1:45:00 AM 10.32 50.576 0.644 7.83 3.82 9.42
3/30/2021 2:00:00 AM 10.25 50.45 0.646 7.82 4.4 9.37
3/30/2021 2:15:00 AM 10.18 50.324 0.644 7.81 4.96 9.37
3/30/2021 2:30:00 AM 10.12 50.216 0.647 7.8 3.85 9.38
3/30/2021 2:45:00 AM 10.06 50.108 0.646 7.8 4.3 9.41
3/30/2021 3:00:00 AM 10 50 0.647 7.79 5.14 9.38
3/30/2021 3:15:00 AM 9.94 49.892 0.649 7.79 4.55 9.39
3/30/2021 3:30:00 AM 9.88 49.784 0.648 7.79 4.31 9.42
3/30/2021 3:45:00 AM 9.83 49.694 0.65 7.78 4.95 9.45
3/30/2021 4:00:00 AM 9.78 49.604 0.649 7.78 4.72 9.46
3/30/2021 4:15:00 AM 9.72 49.496 0.651 7.78 5.2 9.43
3/30/2021 4:30:00 AM 9.68 49.424 0.652 7.78 5.13 9.45
3/30/2021 4:45:00 AM 9.62 49.316 0.652 7.78 4.81 9.48
3/30/2021 5:00:00 AM 9.57 49.226 0.651 7.77 4.28 9.48
3/30/2021 5:15:00 AM 9.52 49.136 0.654 7.77 4.53 9.51
3/30/2021 5:30:00 AM 9.48 49.064 0.651 7.78 5.06 9.5
3/30/2021 5:45:00 AM 9.43 48.974 0.653 7.77 4.72 9.54
3/30/2021 6:00:00 AM 9.38 48.884 0.653 7.77 5.04 9.53
3/30/2021 6:15:00 AM 9.34 48.812 0.653 7.77 4.28 9.56
3/30/2021 6:30:00 AM 9.3 48.74 0.652 7.77 5.4 9.57
3/30/2021 6:45:00 AM 9.25 48.65 0.652 7.76 5.06 9.57
3/30/2021 7:00:00 AM 9.22 48.596 0.654 7.77 4.3 9.59
3/30/2021 7:15:00 AM 9.18 48.524 0.655 7.77 3.91 9.62
3/30/2021 7:30:00 AM 9.14 48.452 0.653 7.77 4.62 9.68
3/30/2021 7:45:00 AM 9.11 48.398 0.654 7.77 4.59 9.73
3/30/2021 8:00:00 AM 9.09 48.362 0.654 7.77 4.08 9.8
3/30/2021 8:15:00 AM 9.07 48.326 0.655 7.77 3.89 9.89
3/30/2021 8:30:00 AM 9.07 48.326 0.654 7.78 4.67 10.02
3/30/2021 8:45:00 AM 9.08 48.344 0.653 7.78 4.29 10.12
3/30/2021 9:00:00 AM 9.11 48.398 0.653 7.8 3.67 10.3
3/30/2021 9:15:00 AM 9.14 48.452 0.652 7.81 3.48 10.52
3/30/2021 9:30:00 AM 9.2 48.56 0.653 7.83 3.73 10.69
3/30/2021 9:45:00 AM 9.27 48.686 0.655 7.84 3.4 10.97
3/30/2021 10:00:00 AM 9.39 48.902 0.655 7.87 5.06 11.31
3/30/2021 10:15:00 AM 9.55 49.19 0.654 7.9 3.92 11.72
3/30/2021 10:30:00 AM 9.73 49.514 0.653 7.94 3.1 12.17
3/30/2021 10:45:00 AM 9.94 49.892 0.651 7.98 3.06 12.56
3/30/2021 11:00:00 AM 10.16 50.288 0.652 8.02 2.97 12.97
3/30/2021 11:15:00 AM 10.38 50.684 0.651 8.05 2.89 13.36
3/30/2021 11:30:00 AM 10.61 51.098 0.649 8.09 2.85 13.74
3/30/2021 11:45:00 AM 10.84 51.512 0.648 8.13 2.98 14.12
3/30/2021 12:00:00 PM 11.06 51.908 0.648 8.16 3.81 14.47
3/30/2021 12:15:00 PM 11.29 52.322 0.648 8.2 2.97 14.8
3/30/2021 12:30:00 PM 11.51 52.718 0.649 8.23 2.81 15.14
3/30/2021 12:45:00 PM 11.75 53.15 0.647 8.27 3.92 15.49
3/30/2021 1:00:00 PM 11.96 53.528 0.646 8.3 3.4 15.65
3/30/2021 1:15:00 PM 12.17 53.906 0.645 8.33 2.68 15.87
3/30/2021 1:30:00 PM 12.37 54.266 0.646 8.37 2.7 15.97
3/30/2021 1:45:00 PM 12.57 54.626 0.645 8.4 2.43 16.08
3/30/2021 2:00:00 PM 12.75 54.95 0.645 8.42 2.67 16.26
3/30/2021 2:15:00 PM 12.92 55.256 0.644 8.45 3.87 16.42
3/30/2021 2:30:00 PM 13.08 55.544 0.642 8.48 2.29 16.55
3/30/2021 2:45:00 PM 13.24 55.832 0.642 8.5 2.43 16.69
3/30/2021 3:00:00 PM 13.41 56.138 0.641 8.53 2.44 16.73
3/30/2021 3:15:00 PM 13.54 56.372 0.641 8.55 2.51 16.74
3/30/2021 3:30:00 PM 13.65 56.57 0.639 8.57 2.75 16.86
3/30/2021 3:45:00 PM 13.75 56.75 0.637 8.58 2.35 16.77
3/30/2021 4:00:00 PM 13.83 56.894 0.636 8.61 2.21 16.71
3/30/2021 4:15:00 PM 13.89 57.002 0.639 8.62 2.86 16.64
3/30/2021 4:30:00 PM 13.94 57.092 0.639 8.63 2.33 16.53
3/30/2021 4:45:00 PM 13.96 57.128 0.64 8.63 2.69 16.43
3/30/2021 5:00:00 PM 13.98 57.164 0.639 8.64 2.72 16.27
3/30/2021 5:15:00 PM 13.99 57.182 0.637 8.64 2.39 15.99
3/30/2021 5:30:00 PM 13.98 57.164 0.639 8.64 2.57 15.73
3/30/2021 5:45:00 PM 13.97 57.146 0.641 8.64 3.02 15.53
3/30/2021 6:00:00 PM 13.97 57.146 0.642 8.64 2.2 15.24
3/30/2021 6:15:00 PM 13.97 57.146 0.641 8.64 2.26 15.05
3/30/2021 6:30:00 PM 13.95 57.11 0.644 8.63 2.61 14.79
3/30/2021 6:45:00 PM 13.92 57.056 0.643 8.63 3.05 14.54
3/30/2021 7:00:00 PM 13.88 56.984 0.642 8.62 2.43 14.27
3/30/2021 7:15:00 PM 13.82 56.876 0.642 8.6 2.37 13.89
3/30/2021 7:30:00 PM 13.76 56.768 0.642 8.59 3.07 13.61
3/30/2021 7:45:00 PM 13.69 56.642 0.644 8.57 2.39 13.31
3/30/2021 8:00:00 PM 13.6 56.48 0.642 8.55 2.76 12.95
3/30/2021 8:15:00 PM 13.51 56.318 0.642 8.52 3.74 12.63
3/30/2021 8:30:00 PM 13.42 56.156 0.648 8.49 2.68 12.27
3/30/2021 8:45:00 PM 13.33 55.994 0.649 8.47 2.76 11.97
3/30/2021 9:00:00 PM 13.23 55.814 0.649 8.43 3.01 11.67
3/30/2021 9:15:00 PM 13.13 55.634 0.65 8.4 2.86 11.36
3/30/2021 9:30:00 PM 13.03 55.454 0.656 8.37 2.95 11.11
3/30/2021 9:45:00 PM 12.93 55.274 0.655 8.33 3.52 10.87
3/30/2021 10:00:00 PM 12.83 55.094 0.655 8.3 2.79 10.67
3/30/2021 10:15:00 PM 12.73 54.914 0.656 8.27 3.19 10.41
3/30/2021 10:30:00 PM 12.64 54.752 0.658 8.24 2.55 10.25
3/30/2021 10:45:00 PM 12.55 54.59 0.661 8.2 2.72 10.07
3/30/2021 11:00:00 PM 12.46 54.428 0.66 8.17 3.37 9.92
3/30/2021 11:15:00 PM 12.38 54.284 0.665 8.14 2.39 9.77
3/30/2021 11:30:00 PM 12.3 54.14 0.665 8.11 2.8 9.64
3/30/2021 11:45:00 PM 12.22 53.996 0.666 8.07 2.45 9.53
3/31/2021 12:00:00 AM 12.15 53.87 0.667 8.04 2.93 9.42
3/31/2021 12:15:00 AM 12.07 53.726 0.668 8.02 2.54 9.33
3/31/2021 12:30:00 AM 12.01 53.618 0.669 7.99 3.29 9.24
3/31/2021 12:45:00 AM 11.93 53.474 0.672 7.97 3.01 9.11
3/31/2021 1:00:00 AM 11.87 53.366 0.675 7.95 2.84 9.09
3/31/2021 1:15:00 AM 11.81 53.258 0.671 7.93 2.31 9.02
3/31/2021 1:30:00 AM 11.75 53.15 0.673 7.91 2.69 8.99
3/31/2021 1:45:00 AM 11.7 53.06 0.673 7.89 3.23 8.93
3/31/2021 2:00:00 AM 11.65 52.97 0.674 7.87 3.49 8.9
3/31/2021 2:15:00 AM 11.6 52.88 0.682 7.86 2.85 8.87
3/31/2021 2:30:00 AM 11.56 52.808 0.676 7.85 3.47 8.87
3/31/2021 2:45:00 AM 11.52 52.736 0.678 7.84 2.73 8.86
3/31/2021 3:00:00 AM 11.48 52.664 0.679 7.83 3.21 8.82
3/31/2021 3:15:00 AM 11.44 52.592 0.683 7.83 2.41 8.78
3/31/2021 3:30:00 AM 11.41 52.538 0.681 7.82 4.66 8.79
3/31/2021 3:45:00 AM 11.37 52.466 0.683 7.82 2.64 8.8
3/31/2021 4:00:00 AM 11.35 52.43 0.685 7.81 3.02 8.82
3/31/2021 4:15:00 AM 11.33 52.394 0.687 7.81 2.98 8.8
3/31/2021 4:30:00 AM 11.3 52.34 0.687 7.81 2.81 8.82
3/31/2021 4:45:00 AM 11.29 52.322 0.689 7.81 3.05 8.8
3/31/2021 5:00:00 AM 11.28 52.304 0.691 7.81 2.51 8.8
3/31/2021 5:15:00 AM 11.27 52.286 0.692 7.8 2.61 8.79
3/31/2021 5:30:00 AM 11.27 52.286 0.696 7.8 3.13 8.81
3/31/2021 5:45:00 AM 11.27 52.286 0.698 7.8 2.49 8.8
3/31/2021 6:00:00 AM 11.27 52.286 0.696 7.8 2.75 8.79
3/31/2021 6:15:00 AM 11.27 52.286 0.703 7.8 3.47 8.79
3/31/2021 6:30:00 AM 11.28 52.304 0.698 7.8 3.45 8.78
3/31/2021 6:45:00 AM 11.29 52.322 0.698 7.8 2.49 8.78
3/31/2021 7:00:00 AM 11.29 52.322 0.701 7.8 3.2 8.79
3/31/2021 7:15:00 AM 11.31 52.358 0.705 7.81 3.3 8.8
3/31/2021 7:30:00 AM 11.35 52.43 0.706 7.8 2.35 8.85
3/31/2021 7:45:00 AM 11.4 52.52 0.705 7.81 2.43 8.93
3/31/2021 8:00:00 AM 11.45 52.61 0.705 7.81 2.92 9.05
3/31/2021 8:15:00 AM 11.49 52.682 0.707 7.81 2.16 9.07
3/31/2021 8:30:00 AM 11.54 52.772 0.711 7.82 2.29 9.21
3/31/2021 8:45:00 AM 11.58 52.844 0.708 7.83 2.69 9.35
3/31/2021 9:00:00 AM 11.63 52.934 0.711 7.84 2.73 9.45
3/31/2021 9:15:00 AM 11.68 53.024 0.709 7.85 1.71 9.6
3/31/2021 9:30:00 AM 11.74 53.132 0.714 7.86 2.85 9.74
3/31/2021 9:45:00 AM 11.79 53.222 0.711 7.88 1.94 9.93
3/31/2021 10:00:00 AM 11.84 53.312 0.713 7.89 2.73 10.05
3/31/2021 10:15:00 AM 11.92 53.456 0.713 7.9 1.75 10.29
3/31/2021 10:30:00 AM 12.01 53.618 0.714 7.92 2.04 10.6
3/31/2021 10:45:00 AM 12.1 53.78 0.715 7.95 1.73 10.94
3/31/2021 11:00:00 AM 12.19 53.942 0.713 7.98 2.26 11.27
3/31/2021 11:15:00 AM 12.29 54.122 0.715 8.01 2.15 11.61
3/31/2021 11:30:00 AM 12.38 54.284 0.716 8.04 2.72 11.88
3/31/2021 11:45:00 AM 12.46 54.428 0.715 8.06 1.74 12.15
3/31/2021 12:00:00 PM 12.55 54.59 0.714 8.09 1.78 12.45